Results from from the 32nd Annual New Times 10K Run - East Valley Tribune: News

Results from from the 32nd Annual New Times 10K Run

Print
Font Size:
Default font size
Larger font size

Posted: Sunday, November 11, 2007 7:14 pm | Updated: 6:57 pm, Fri Oct 7, 2011.

See the results of the 10K race.

PLACE NO. NAME SEX AGE TIME PACE DIV CITY, ST

1 2734 ANTHONY GALLO M 27 29:49 4:48 M2529 FLAGSTAFF, AZ

2 4018 JARED SCOTT M 25 30:21 4:53 M2529 FLAGSTAFF, AZ

3 6714 MIKE HANLON M 22 30:34 4:56 M2024 ,

4 6019 AHMED OSMAN M 19 30:50 4:58 M1619 ,

5 1381 NORBERTO ROBLES M 20 30:57 4:59 M2024 SURPRISE, AZ

6 6281 ERIC AVILA M 18 31:40 5:06 M1619 ,

7 1482 KYLE GOKLISH M 27 31:45 5:07 M2529 WHITERIVER, AZ

8 6592 CHRIS GOMEZ M 25 32:03 5:10 M2529 ,

9 3927 COLLIN ECKELMAN M 20 32:08 5:11 M2024 TEMPE, AZ

10 6709 VINCENT SHERRY M 27 32:15 5:12 M2529 ,

11 6632 DANIEL LANZILLOTTI M 21 32:16 5:12 M2024 ,

12 6731 UNKNOWN ENTRANT X 99 32:18 5:12 X9999 ,

13 1808 JASON GRIFFITHS M 26 32:19 5:13 M2529 PHOENIX, AZ

14 1375 THOMAS PETERSON M 19 33:12 5:21 M1619 YUMA, AZ

15 1322 QUINN NEWTON M 25 33:41 5:26 M2529 PHOENIX, AZ

16 1379 JAMES MILES M 22 33:46 5:26 M2024 TUCSON, AZ

17 6386 TOM CLARKE M 36 33:57 5:28 M3539 ,

18 2895 JANY DENG M 28 34:15 5:31 M2529 PHOENIX, AZ

19 2 TATIANA CHULAKH F 25 34:48 5:37 F2529 GAITHERSBURG, MD

20 602 SALLY MEYERHOFF F 23 34:51 5:37 F2024 TEMPE, AZ

21 547 NEIL YOUNG M 44 34:58 5:38 M4044 GLENDALE, AZ

22 2738 RICHARD LEE M 46 34:59 5:38 M4549 VSB 8C1 CANADA, AZ

23 6651 JOSHUA TERWOORD M 22 35:14 5:41 M2024 ,

24 3590 ROBERT SCHAFER M 49 35:39 5:45 M4549 SCOTTSDALE, AZ

25 2803 JOHN BOGEN M 50 35:44 5:46 M5054 FLAGSTAFF, AZ

26 6040 DAN WILSON M 17 35:47 5:46 M1619 ,

27 6715 BRIANNA TORRES F 27 35:50 5:46 F2529 ,

28 2556 DARYL ONTON M 35 35:58 5:48 M3539 PARKS, AZ

29 3836 PAULA MORRISON F 34 35:59 5:48 F3034 TUCSON, AZ

30 4114 STEPHEN SLABODNICK M 29 36:38 5:54 M2529 CHANDLER, AZ

31 846 CHRIS LATVAAHO M 36 36:44 5:55 M3539 PHOENIX, AZ

32 350 JESUS JR BUSTILLOS M 15 36:48 5:56 M1115 GLENDALE, AZ

33 6401 ANTONIOUS CHEE M 18 36:52 5:56 M1619 ,

34 6039 MATT SALERNO M 18 36:58 5:57 M1619 ,

35 3016 JOEL HARTMAN M 19 36:58 5:57 M1619 TEMPE, AZ

36 1746 ADAM FOLTS M 21 37:00 5:58 M2024 PHOENIX, AZ

37 6277 JEFF BASSETT M 41 37:01 5:58 M4044 ,

38 1814 BERNIE MCDONNELL M 45 37:04 5:58 M4549 PHOENIX, AZ

39 1186 DAN BEAVER M 39 37:14 6:00 M3539 GILBERT, AZ

40 138 RAMIRO LOREDO M 43 37:14 6:00 M4044 PHOENIX, AZ

41 104 FREDDIE BEGAY M 47 37:22 6:01 M4549 WHITERIVER, AZ

42 1567 TAYLOR REAK M 18 37:28 6:02 M1619 TEMPE, AZ

43 1511 BRANDON SULLIVAN M 33 37:46 6:05 M3034 PHOENIX, AZ

44 3985 BLAKE SACHA M 42 37:55 6:07 M4044 GILBERT, AZ

45 114 DAVEY CAGLE M 18 38:06 6:08 M1619 LAKESIDE, AZ

46 3435 ZACHARY WALBERER M 20 38:06 6:08 M2024 TEMPE, AZ

47 1521 PETE ARMBRUSTER M 49 38:07 6:09 M4549 CHANDLER, AZ

48 2688 ROSS DOWLAND M 52 38:11 6:09 M5054 DESERT HILLS, AZ

49 239 DAVID EDWARDS M 51 38:17 6:10 M5054 GLENDALE, AZ

50 3095 ROBERT KLINGLER M 24 38:22 6:11 M2024 SCOTTSDALE, AZ

51 2956 ADAM FREIHOEFER M 28 38:24 6:11 M2529 PHOENIX, AZ

52 657 KARLA SOKOKOVIC F 35 38:30 6:12 F3539 PHOENIX, AZ

53 710 LJ EGBERT F 42 38:35 6:13 F4044 PHOENIX, AZ

54 650 ANGIE KELL-ROBERTSON F 29 38:36 6:13 F2529 PHOENIX, AZ

55 2839 DAN CADRIEL M 44 38:46 6:15 M4044 GLENDALE, AZ

56 1761 KEVIN MURDOCK M 43 38:54 6:16 M4044 MESA, AZ

57 1552 TODD WITTEN M 46 39:01 6:17 M4549 MARICOPA, AZ

58 6690 BILL WILKEY M 51 39:16 6:20 M5054 ,

59 800 CARLETON 'BUCK JONES M 41 39:22 6:21 M4044 PEORIA, AZ

60 6014 MIKE CHEPERAK M 46 39:24 6:21 M4549 ,

61 1005 EMMET ACEBEDO M 35 39:30 6:22 M3539 SCOTTSDALE, AZ

62 1693 ALDO GUADIAN M 24 39:31 6:22 M2024 PHOENIX, AZ

63 1012 JOHN CURLEY M 43 39:31 6:22 M4044 GANADO, AZ

64 6562 NOEL DERAS M 29 39:35 6:23 M2529 ,

65 954 ROBERT WILLITTES M 44 39:36 6:23 M4044 SCOTTSDALE, AZ

66 6634 JEFF SORKNESS M 37 39:38 6:23 M3539 ,

67 2877 JEANINE CORDOVA F 26 39:42 6:24 F2529 MESA, AZ

68 544 JEFFERY GOLDSTEIN M 41 39:53 6:25 M4044 GLENDALE, AZ

69 1285 ROB DELP M 41 40:05 6:28 M4044 GILBERT, AZ

70 405 STACEY BAILEY F 31 40:08 6:28 F3034 TEMPE, AZ

71 1527 GARY GRIERSON M 57 40:13 6:29 M5559 CHANDLER, AZ

72 3493 JOHN ZWEBER M 40 40:17 6:29 M4044 GLENDALE, AZ

73 2560 LOWELL PARKISON M 45 40:21 6:30 M4549 GILBERT, AZ

74 1236 BRYAN JOHNSTON M 42 40:25 6:31 M4044 PHOENIX, AZ

75 182 MICHAEL GOSSIE M 44 40:25 6:31 M4044 PHOENIX, AZ

76 2248 DARRELL HALCOMB M 40 40:33 6:32 M4044 CHANDLER, AZ

77 1320 KIMBERLY MOORE F 27 40:39 6:33 F2529 SCOTTSDALE, AZ

78 2470 BILL BOHACH M 33 40:40 6:33 M3034 TEMPE, AZ

79 6504 DAN TOBIN M 21 40:47 6:34 M2024 ,

80 161 JOHN SCHILLINGER M 47 40:47 6:34 M4549 PHOENIX, AZ

81 245 BRANDON CHISCHILLY M 22 40:48 6:34 M2024 CHINLE, AZ

82 4042 DAVID DAMRON M 23 40:59 6:36 M2024 TEMPE, AZ

83 3962 ARMANDO MARTINEZ M 32 41:00 6:36 M3034 MESA, AZ

84 2356 DUANE MORSE M 57 41:01 6:37 M5559 PHOENIX, AZ

85 6257 SHIYRAH MIELKE F 22 41:05 6:37 F2024 ,

86 594 DAVE DRAKE F 44 41:08 6:38 F4044 CHANDLER, AZ

87 1812 ALAN BROWN M 22 41:10 6:38 M2024 TEMPE, AZ

88 1038 JANET SHAW F 45 41:16 6:39 F4549 SCOTTSDALE, AZ

89 1019 RYAN NELSON M 20 41:16 6:39 M2024 ,

90 1422 THOMAS BROWN M 53 41:19 6:39 M5054 TEMPE, AZ

91 785 JOSHUA TSO M 18 41:21 6:40 M1619 MESA, AZ

92 1297 ERIK MITCHELL M 22 41:31 6:41 M2024 TUCSON, AZ

93 2797 DR. EVERETT BEYER M 57 41:32 6:41 M5559 ANTHEM, AZ

94 352 YONG KIM M 53 41:32 6:42 M5054 SCOTTSDALE, AZ

95 1440 CLINTON WININGER M 25 41:36 6:42 M2529 TEMPE, AZ

96 3260 RON PINA M 49 41:39 6:43 M4549 SCOTTTSDALE, AZ

97 1578 STEVE BURNEY M 28 41:43 6:43 M2529 CHANDLER, AZ

98 2957 KARA FREIHOEFER F 25 41:45 6:44 F2529 PHOENIX, AZ

99 3979 JAMES RIEDL M 46 41:46 6:44 M4549 PHOENIX, AZ

100 3316 WILLIAM ROWELL M 52 41:51 6:45 M5054 PEORIA, AZ

101 6041 COLLEEN BURKE F 29 41:52 6:45 F2529 ,

102 6458 JP KAUMEYER M 32 41:57 6:45 M3034 ,

103 3380 JOHN STURDIVANT M 24 42:03 6:46 M2024 SCOTTSDALE, AZ

104 3780 CHRISTIAN BAILEY M 27 42:03 6:47 M2529 SCOTTSDALE, AZ

105 6615 RYAN JAMES M 28 42:07 6:47 M2529 ,

106 944 RICHARD KOVACS M 32 42:08 6:47 M3034 SCOTTSDALE, AZ

107 2728 DEWEY JOHNSON M 37 42:12 6:48 M3539 PHOENIX, AZ

108 6575 BARRY JOHNSON M 23 42:14 6:48 M2024 ,

109 2675 JAKE ADDIS M 16 42:19 6:49 M1619 COTTONWOOD, AZ

110 3961 JASON MAMMOSER M 27 42:30 6:51 M2529 PHOENIX, AZ

111 1346 ROBERT DEHAAN M 46 42:33 6:51 M4549 TEMPE, AZ

112 3535 TREVOR HIPP M 23 42:34 6:51 M2024 SCOTTSDALE, AZ

113 2700 KENT KIME M 44 42:36 6:52 M4044 PHOENIX, AZ

114 6394 MICHELLE WESSON F 33 42:37 6:52 F3034 ,

115 746 HARRY FLASTER M 24 42:38 6:52 M2024 PHOENIX, AZ

116 2559 CALVIN PANIAGUA M 32 42:38 6:52 M3034 LAS VEGAS, NV

117 950 MARK KAZLOWSKI M 37 42:40 6:52 M3539 LITCHFIELD PARK, AZ

118 3401 MICHAEL THOMAS M 40 42:42 6:53 M4044 PHOENIX, AZ

119 2889 CORY DAVIDSON M 29 42:44 6:53 M2529 BUCKEYE, AZ

120 6205 JOE SAUER M 17 42:47 6:53 M1619 ,

121 1609 CINDY SCOTT F 36 42:47 6:54 F3539 CHANDLER, AZ

122 1298 JENNA FOSSEN F 23 42:53 6:54 F2024 MESA, AZ

123 6194 DAVID SANTIAGO M 43 42:54 6:55 M4044 ,

124 3035 KURT HOLLINGER M 37 42:55 6:55 M3539 CHANDLER, AZ

125 6498 JENNIFER KAUMEYER F 26 42:58 6:55 F2529 ,

126 6620 DAVID BLUESTEIN M 50 42:58 6:55 M5054 ,

127 1149 SHAYNE PASTERNAK M 16 43:00 6:56 M1619 CHANDLER, AZ

128 2587 ROBERT WIESER M 15 43:02 6:56 M1115 GLENDALE, AZ

129 2887 DAVID DAER M 42 43:06 6:57 M4044 TEMPE, AZ

130 1074 MIKE OTIS M 45 43:09 6:57 M4549 SCOTTSDALE, AZ

131 2732 PHILIP REIN M 36 43:12 6:58 M3539 SCOTTSDALE, AZ

132 6333 TOBBEY LANGE M 34 43:12 6:58 M3034 ,

133 3247 ZACHARY PENDLEY M 25 43:13 6:58 M2529 PHOENIX, AZ

134 3900 DAVID ANHALT M 28 43:13 6:58 M2529 EAGAN, MN

135 568 ARMANDO DE LA CROR M 44 43:15 6:58 M4044 GLENDALE, AZ

136 341 REYES TOPETE M 15 43:18 6:59 M1115 PHOENIX, AZ

137 2707 PETER SCANNIELLO M 51 43:19 6:59 M5054 BOULDER, CO

138 6340 MARK ASHBROOK M 39 43:20 6:59 M3539 ,

139 391 ERIN LOSTRACCO F 17 43:24 6:59 F1619 PHOENIX, AZ

140 3550 CONNOR KASSIK M 14 43:27 7:00 M1115 LAKE HAVASU CITY, A

141 6200 ADAM BARSTAD M 31 43:29 7:00 M3034 ,

142 1485 ALDRIS GEORGE M 40 43:32 7:01 M4044 HOTEVILLA, AZ

143 295 GARY LIVESAY M 38 43:34 7:01 M3539 PHOENIX, AZ

144 3932 TRAVIS FARLAND M 24 43:36 7:01 M2024 MESA, AZ

145 914 CRAIG GOODALL M 15 43:36 7:01 M1115 FOUNTAIN HILLS, AZ

146 349 JESUS BUSTILLOS M 43 43:39 7:02 M4044 GLENDALE, AZ

147 3361 JAMES SOUSA M 38 43:40 7:02 M3539 PHOENIX, AZ

148 1472 STEPHEN HARRISON M 29 43:42 7:02 M2529 PHOENIX, AZ

149 3180 DANIEL MEHDI M 40 43:43 7:03 M4044 PHOENIX, AZ

150 2886 JON CYR M 33 43:44 7:03 M3034 CHANDLER, AZ

151 3809 CHRIS HADDAD M 21 43:44 7:03 M2024 GILBERT, AZ

152 4159 GABY ORTIZ M 27 43:46 7:03 M2529 YUMA, AZ

153 3769 CRAIG DAVIDSON M 53 43:49 7:04 M5054 PHOENIX, AZ

154 1073 WILLIAM LYNN M 55 43:51 7:04 M5559 GLENDALE, AZ

155 3531 MIKE HALLEN M 51 43:55 7:04 M5054 CHANDLER, AZ

156 3659 KAREN DONMOYER F 43 43:55 7:05 F4044 SCOTTSDALE, AZ

157 6275 STEVE BELL M 62 43:59 7:05 M6064 ,

158 1206 ERNIE SANCHEZ M 43 43:59 7:05 M4044 CHANDLER, AZ

159 1467 DARRELL SMILEY M 32 43:59 7:05 M3034 WINDOW ROCK, AZ

160 1420 DANIEL RODER M 23 44:00 7:05 M2024 SCOTTSDALE, AZ

161 358 MARK MILLER M 46 44:00 7:05 M4549 SCOTTSDALE, AZ

162 4072 EVANN LAGERHAUSEN F 26 44:02 7:06 F2529 QUEEN CREEK, AZ

163 1162 KENNETH SONNENBERG M 41 44:02 7:06 M4044 GILBERT, AZ

164 3779 RICK BACIK M 33 44:03 7:06 M3034 PHOENIX, AZ

165 1090 CRAIG BRITTON M 34 44:04 7:06 M3034 CHANDLER, AZ

166 609 GREG NELSON M 50 44:04 7:06 M5054 PHOENIX, AZ

167 2608 ERIC LEINEN M 29 44:08 7:07 M2529 TEMPE, AZ

168 6016 CIERA BRECTO F 16 44:09 7:07 F1619 ,

169 1273 LORENZO LUNA M 32 44:10 7:07 M3034 TEMPE, AZ

170 4127 MICHAEL THARP M 48 44:14 7:07 M4549 PHOENIX, AZ

171 1443 PATRICK CHANG M 41 44:14 7:08 M4044 SCOTTSDALE, AZ

172 2353 JEFF KYLE M 46 44:14 7:08 M4549 CHANDLER, AZ

173 1314 TIMOTHY HANN M 48 44:16 7:08 M4549 TEMPE, AZ

174 2245 PHILIP LUCERO M 57 44:18 7:08 M5559 CHANDLER, AZ

175 340 REYES TOPETE M 47 44:19 7:08 M4549 PHOENIX, AZ

176 1760 ERIN KENNEDY F 31 44:20 7:09 F3034 PHOENIX, AZ

177 1759 SAGE GROSSI F 30 44:21 7:09 F3034 TEMPE, AZ

178 3559 DAVID LIN M 35 44:23 7:09 M3539 PHOENIX, AZ

179 6490 MATT KOWALSKI M 23 44:24 7:09 M2024 ,

180 6282 ERWIN THOMAS M 54 44:26 7:09 M5054 ,

181 3126 NYCOLE LEYBA F 30 44:26 7:09 F3034 MESA, AZ

182 1453 TONY GOODMAN M 46 44:27 7:10 M4549 SCOTTSDALE, AZ

183 1345 JOANNE HUGHES F 39 44:31 7:10 F3539 TEMPE, AZ

184 3824 SCOTT LANG M 40 44:31 7:10 M4044 TEMPE, AZ

185 377 RUSSELL LEE M 45 44:33 7:11 M4549 PHOENIX, AZ

186 6601 RAY JOE M 54 44:33 7:11 M5054 ,

187 2678 KARLA AVERILL F 44 44:33 7:11 F4044 GLENDALE, AZ

188 4031 KEVIN BAUERLE M 34 44:34 7:11 M3034 GILBERT, AZ

189 6042 CYRUS BEGAY M 35 44:35 7:11 M3539 ,

190 1342 BARRY REDMAN M 33 44:36 7:11 M3034 GILBERT, AZ

191 1260 BRYANT SWANSON M 16 44:36 7:11 M1619 CHANDLER, AZ

192 6363 RAMON ARROWSMITH M 40 44:38 7:11 M4044 ,

193 3747 LITO SILLA M 45 44:38 7:11 M4549 MESA, AZ

194 617 CHRIS WILLEMS M 43 44:39 7:11 M4044 PHOENIX, AZ

195 2563 COSMO PRIMIANO M 54 44:39 7:12 M5054 SCOTTSDALE, AZ

196 889 LEE MACPHAIL M 38 44:39 7:12 M3539 SHAKER HEIGHTS, OH

197 4020 LOGAN ADDIS M 14 44:41 7:12 M1115 COTTONWOOD, AZ

198 532 LOUIS BOLIVAR M 48 44:41 7:12 M4549 GLENDALE, AZ

199 109 MURPHY JAKE M 47 44:42 7:12 M4549 CHINLE, AZ

200 383 ANTONIO LOREDO M 42 44:42 7:12 M4044 PHOENIX, AZ

201 3783 ANTONIO BOTTA M 43 44:43 7:12 M4044 GILBERT, AZ

202 6607 DANNY STOLFA M 31 44:44 7:12 M3034 ,

203 3123 DOUG LENZ M 44 44:44 7:12 M4044 PHOENIX, AZ

204 403 ROBERT SCHREINER M 46 44:44 7:12 M4549 SCOTTSDALE, AZ

205 615 DANIEL WRAPP M 14 44:50 7:13 M1115 CHANDLER, AZ

206 6036 RYAN SOMMERS M 29 44:54 7:14 M2529 ,

207 6605 ERIC GOFF M 41 44:55 7:14 M4044 ,

208 1676 BILLY WYATT M 47 44:56 7:14 M4549 SCOTTSDALE, AZ

209 6175 SAL VERA M 29 44:57 7:14 M2529 ,

210 2879 TYLER COTTAM M 32 44:57 7:14 M3034 ANTHEM, AZ

211 1006 MAVERICK BRODERICK M 18 44:58 7:15 M1619 GILBERT, AZ

212 6305 CRAIG WILLIAMS M 48 44:59 7:15 M4549 ,

213 3101 RON KOONTZ M 45 45:01 7:15 M4549 MESA, AZ

214 689 ADANTE PARKS M 28 45:04 7:16 M2529 PHOENIX, AZ

215 6296 ROBERT CARTER M 44 45:06 7:16 M4044 ,

216 6547 J MALECHA M 28 45:06 7:16 M2529 ,

217 1617 RHET STINSON M 27 45:07 7:16 M2529 MESA, AZ

218 2836 AUGIE BUSCH M 31 45:07 7:16 M3034 TUCSON, AZ

219 404 JEFF MCCOY M 46 45:07 7:16 M4549 CAVE CREEK, AZ

220 3543 ED JELMBERG M 50 45:08 7:16 M5054 GLENDALE, AZ

221 492 MAL KENNY M 31 45:08 7:16 M3034 PHOENIX, AZ

222 3546 MATT JENS M 26 45:09 7:16 M2529 PHOENIX, AZ

223 6643 HEATHER DUNPHY F 29 45:09 7:16 F2529 ,

224 697 JORGE MADRUGA M 44 45:09 7:16 M4044 PHOENIX, AZ

225 1063 CLAY BLAIR M 38 45:10 7:17 M3539 PHOENIX, AZ

226 3130 JAN LOCKETT F 38 45:15 7:17 F3539 CHANDLER, AZ

227 1109 SARA FLUBACHER F 16 45:19 7:18 F1619 CHANDLER, AZ

228 1556 JOHN BISTANY M 50 45:22 7:19 M5054 TEMPE, AZ

229 1593 CHARLIE LEIGHT M 50 45:23 7:19 M5054 TEMPE, AZ

230 6111 JERRY HUFF M 37 45:23 7:19 M3539 ,

231 633 CARL LANG M 43 45:26 7:19 M4044 PHOENIX, AZ

232 3588 BILL SALAZAR M 61 45:27 7:19 M6064 GLENDALE, AZ

233 2907 AARON DONE M 21 45:28 7:20 M2024 MESA, AZ

234 1304 CARLOS VELEZ M 43 45:29 7:20 M4044 CAVE CREEK, AZ

235 505 KEVIN BOMMER M 36 45:31 7:20 M3539 WESTMINSTER, CO

236 3626 PAMELA STROWMAN F 46 45:31 7:20 F4549 GLENDALE, AZ

237 6319 PHILLIP REYES M 27 45:36 7:21 M2529 ,

238 3744 ADAM SCHULTE M 30 45:37 7:21 M3034 CHANDLER, AZ

239 1146 JEFF PASTERNAK M 46 45:38 7:21 M4549 CHANDLER, AZ

240 6532 ANDREW CAMP M 33 45:38 7:21 M3034 ,

241 4017 DOUG THORNE M 43 45:39 7:21 M4044 SCOTTSDALE, AZ

242 2508 NICOLE BLAHA F 38 45:40 7:21 F3539 SCOTTSDALE, AZ

243 3275 DAN QUIMBY M 42 45:42 7:22 M4044 PHOENIX, AZ

244 3864 BENET SOMMERS M 47 45:43 7:22 M4549 PHOENIX, AZ

245 1680 DONALD ROWLAND M 47 45:44 7:22 M4549 PHOENIX, AZ

246 510 MARK GREEN M 45 45:44 7:22 M4549 MAYER, AZ

247 3091 STEVE KIEL M 44 45:47 7:23 M4044 BROOKLINE, MA

248 449 CYDNE FULLER F 26 45:48 7:23 F2529 PHOENIX, AZ

249 1234 ROBERT HUNTER M 43 45:48 7:23 M4044 CAVE CREEK, AZ

250 2946 TOM FITZSIMONS M 36 45:48 7:23 M3539 PHOENIX, AZ

251 1265 JEFF FLATH M 37 45:50 7:23 M3539 MESA, AZ

252 1835 SCOT SHYMAN M 50 45:51 7:23 M5054 PHOENIX, AZ

253 2713 GARY YOUNGS M 49 45:52 7:23 M4549 CHANDLER, AZ

254 611 HAPPY DURNIN M 42 45:54 7:24 M4044 CHANDLER, AZ

255 3757 FERNANDO VAZQUEZ M 48 45:54 7:24 M4549 SURPRISE, AZ

256 1547 PAUL COX M 25 45:54 7:24 M2529 MESA, AZ

257 6318 JOSE PENALOSA M 45 45:55 7:24 M4549 ,

258 805 MATTHEW THOMPSON M 35 45:55 7:24 M3539 PHOENIX, AZ

259 6526 KARL GREDLER M 45 45:55 7:24 M4549 ,

260 1579 JEFF WEINTRAUB M 46 45:57 7:24 M4549 CHANDLER, AZ

261 3938 JULIE FORSBERG F 29 45:57 7:24 F2529 SCOTTSDALE, AZ

262 1395 JESSIE OGLE M 29 45:57 7:24 M2529 PHOENIX, AZ

263 2513 JOHN COMER M 35 45:58 7:24 M3539 FLAGSTAFF, AZ

264 2436 THEO MIRON M 31 46:00 7:25 M3034 AVONDALE, AZ

265 3219 ROSS NICHOLLS M 29 46:00 7:25 M2529 FLAGSTAFF, AZ

266 314 BRANDY PIERCE F 34 46:01 7:25 F3034 FOUNTAIN HILLS, AZ

267 3229 LAURA ORLIE F 14 46:02 7:25 F1115 PHOENIX, AZ

268 1029 GARY WELTE M 50 46:02 7:25 M5054 SCOTTSDALE, AZ

269 6133 JOSEPH WALSH M 20 46:04 7:25 M2024 ,

270 1113 JAMES HILL M 42 46:05 7:25 M4044 GILBERT, AZ

271 1562 BART LEGUTKI M 31 46:06 7:26 M3034 CHANDLER, AZ

272 3568 MELISSA MAYNARD F 26 46:07 7:26 F2529 PHOENIX, AZ

273 455 CAMERON HOWARD M 23 46:07 7:26 M2024 PHOENIX, AZ

274 3335 SHAHPAR SHAHPAR F 37 46:08 7:26 F3539 PHOENIX, AZ

275 334 TRICIA SCHAFER F 38 46:08 7:26 F3539 PHOENIX, AZ

276 3827 RICARDO LUEVANOS M 35 46:09 7:26 M3539 GILBERT, AZ

277 6533 JUSTIN BERN M 26 46:12 7:26 M2529 ,

278 3565 VALERIE MACHEEL F 25 46:12 7:26 F2529 PHOENIX, AZ

279 3098 MARY KNOTT F 30 46:12 7:27 F3034 GILBERT, AZ

280 3521 PETE DIMUZIO M 31 46:12 7:27 M3034 MESA, AZ

281 1003 MILE KRISTOL M 17 46:13 7:27 M1619 SCOTTSDALE, AZ

282 1519 PHUC PHAM M 48 46:15 7:27 M4549 CHANDLER, AZ

283 6559 MARGARET VERELLEN F 48 46:15 7:27 F4549 ,

284 1627 MARK STILES M 28 46:19 7:28 M2529 TEMPE, AZ

285 4158 GLEN LOWERY M 48 46:20 7:28 M4549 MESA, AZ

286 514 JACK CHAPLINSKY M 57 46:22 7:28 M5559 PHOENIX, AZ

287 6304 MARK MARTINEZ M 37 46:25 7:29 M3539 ,

288 1601 LORI FRANCOEUR F 31 46:26 7:29 F3034 PHOENIX, AZ

289 1801 MATTHEW DODT M 17 46:27 7:29 M1619 PHOENIX, AZ

290 128 BILL PERKINS M 55 46:27 7:29 M5559 PHOENIX, AZ

291 270 JOSEPH KANEFIELD M 39 46:28 7:29 M3539 MESA, AZ

292 6579 CAMERON MILLER M 22 46:29 7:29 M2024 ,

293 1323 KRISTY WILSON F 25 46:29 7:29 F2529 MESA, AZ

294 6174 DEBORAH GOODWIN F 35 46:29 7:29 F3539 ,

295 6631 FRANK BUSCH M 32 46:29 7:29 M3034 ,

296 932 JASON TRUEBLOOD M 31 46:29 7:29 M3034 SCOTTSDALE, AZ

297 556 MARTHA CASTANEDA F 21 46:29 7:29 F2024 GLENDALE, AZ

298 6280 RICHARD LIEDERER M 49 46:29 7:29 M4549 ,

299 3888 LISA WILEY F 14 46:31 7:30 F1115 PHOENIX, AZ

300 3556 DEREK LEITER M 29 46:32 7:30 M2529 SCOTTSDALE, AZ

301 6402 CHRIS LOMA M 22 46:33 7:30 M2024 ,

302 1789 MIKE MCCANN M 46 46:33 7:30 M4549 SCOTTSDALE, AZ

303 616 MELISSA WRAPP F 18 46:35 7:30 F1619 CHANDLER, AZ

304 6271 BARBARA SCHMUKI F 48 46:37 7:31 F4549 ,

305 659 TAMMIE CONNELL F 46 46:39 7:31 F4549 PHOENIX, AZ

306 2596 KARL TOBIN M 30 46:40 7:31 M3034 FLAGSTAFF, AZ

307 6362 JEFF BENEDICT M 35 46:40 7:31 M3539 ,

308 2710 JAN TEFFT F 49 46:41 7:31 F4549 SCOTTSDALE, AZ

309 2344 MARK AVERY M 36 46:42 7:31 M3539 SCOTTSDALE, AZ

310 601 MIKE MCLAUGHLIN M 36 46:42 7:31 M3539 QUEEN CREEK, AZ

311 1114 COREY KINSINGER M 18 46:42 7:31 M1619 CHANDLER, AZ

312 6508 ADAM ATKINSON M 27 46:43 7:32 M2529 ,

313 2645 JASON LAYTON M 37 46:44 7:32 M3539 CHANDLER, AZ

314 2677 LUIS ARMENTA M 32 46:44 7:32 M3034 TEMPE, AZ

315 990 ROGER TORNOW M 49 46:45 7:32 M4549 TEMPE, AZ

316 1770 RICARDO SAV M 38 46:46 7:32 M3539 PHOENIX, AZ

317 1147 SANDII PASTERNAK F 43 46:47 7:32 F4044 CHANDLER, AZ

318 6698 BRUCE BOGGS M 60 46:48 7:32 M6064 ,

319 6576 DENNIS WOODS M 31 46:52 7:33 M3034 ,

320 2367 CHERI BASSETT F 35 46:53 7:33 F3539 SCOTTSDALE, AZ

321 815 NISSA KUBLY F 32 46:53 7:33 F3034 PHOENIX, AZ

322 1608 DOUG JANICIK M 36 46:53 7:33 M3539 CHANDLER, AZ

323 3502 KARLA BECHERER F 29 46:54 7:33 F2529 PHOENIX, AZ

324 2696 DAN GOODMAN M 43 46:55 7:34 M4044 SALT LAKE CITY, UT

325 838 STEVE CULBERTSON M 31 46:56 7:34 M3034 CHANDLER, AZ

326 1018 SUSAN HALLI F 36 46:57 7:34 F3539 SCOTTSDALE, AZ

327 557 ALLAN SZETO M 28 46:59 7:34 M2529 PHOENIX, AZ

328 6026 ARTHUR FEDERIO M 53 46:59 7:34 M5054 ,

329 2998 ARLIN GUADIAN F 21 46:59 7:34 F2024 PHOENIX, AZ

330 6254 CHARLEY JOHNSTON M 37 46:59 7:34 M3539 ,

331 6321 TYSON HESKETT M 29 47:00 7:34 M2529 ,

332 2486 JAMES NOMMENSEN M 23 47:01 7:34 M2024 SCOTTSDALE, AZ

333 1477 DAVIS BATES M 48 47:02 7:35 M4549 PHOENIX, AZ

334 2812 TRAVIS BOYETTE M 34 47:02 7:35 M3034 SCOTTSDALE, AZ

335 2494 DYLAN KING M 23 47:02 7:35 M2024 SCOTTSDALE, AZ

336 1325 JOHN HALONEN M 54 47:03 7:35 M5054 TEMPE, AZ

337 3231 DANNY ORTEGA M 56 47:05 7:35 M5559 PHOENIX, AZ

338 1837 KEVIN HOISINGTON M 31 47:05 7:35 M3034 SCOTTSDALE, AZ

339 1037 KEN MORRIS M 52 47:07 7:35 M5054 SCOTTSDALE, AZ

340 1584 JOEL BOLAN M 43 47:07 7:35 M4044 TEMPE, AZ

341 605 REBECCA PACE F 33 47:09 7:36 F3034 PHOENIX, AZ

342 2838 MARCUS CADELL M 35 47:09 7:36 M3539 CHANDLER, AZ

343 1582 JEFF BLOOM M 29 47:10 7:36 M2529 PHOENIX, AZ

344 2652 SCOTT MCMURRAY M 39 47:10 7:36 M3539 PHOENIX, AZ

345 6732 UNKNOWN ENTRANT X 99 47:10 7:36 X9999 ,

346 6102 JOHN SCHMIDT M 28 47:13 7:36 M2529 ,

347 3031 EDWARD HIETTER M 13 47:14 7:36 M1115 GILBERT, AZ

348 3408 MARC TRAINA M 28 47:15 7:37 M2529 PHOENIX, AZ

349 3244 SUZANNE PAWLOWSKI F 38 47:18 7:37 F3539 TEMPE, AZ

350 3799 ERIN FERRERO F 34 47:19 7:37 F3034 SCOTTSDALE, AZ

351 3090 PAUL KENT M 41 47:19 7:37 M4044 TEMPE, AZ

352 1053 DAVID HUBBARD M 43 47:21 7:38 M4044 ISLAND LAKE, IL

353 1408 RYAN BANKS M 33 47:22 7:38 M3034 QUEEN CREEK, AZ

354 4054 ANDREW GUZAK M 32 47:22 7:38 M3034 GLENDALE, AZ

355 3969 MICHAEL MURPHY M 40 47:22 7:38 M4044 MESA, AZ

356 1310 DENISE MICHERT F 35 47:23 7:38 F3539 PHOENIX, AZ

357 467 SCOTT GASTINEAU M 37 47:23 7:38 M3539 SCOTTSDALE, AZ

358 2280 BRADLEY PREBER M 48 47:23 7:38 M4549 PHOENIX, AZ

359 3538 STEVE HUMPHRIES M 58 47:24 7:38 M5559 SEDONA, AZ

360 3567 LUKE MAY M 13 47:25 7:38 M1115 SCOTTSDALE, AZ

361 3890 TAYLOR SCHMUKI F 14 47:25 7:38 F1115 PHOENIX, AZ

362 3562 HANNA LOOK F 20 47:26 7:38 F2024 TEMPE, AZ

363 2515 JEFFREY CRANE M 54 47:26 7:38 M5054 TEMPE, AZ

364 6688 ALREDO NAVARRETE M 34 47:26 7:38 M3034 ,

365 832 JAMES PARKER M 42 47:27 7:39 M4044 PHOENIX, AZ

366 415 MARK ROGERS M 31 47:28 7:39 M3034 PHOENIX, AZ

367 3484 TONJA YALUNG F 41 47:28 7:39 F4044 PHOENIX, AZ

368 3049 KELLY HUFFMAN F 39 47:29 7:39 F3539 GILBERT, AZ

369 4088 DOUGLAS MCDANELD M 49 47:29 7:39 M4549 PHOENIX, AZ

370 1239 WILLIAM HOLLAND M 32 47:29 7:39 M3034 PHOENIX, AZ

371 4117 STEWART SMITH M 22 47:29 7:39 M2024 PHOENIX, AZ

372 2624 NICK KIEFFER M 29 47:30 7:39 M2529 TEMPE, AZ

373 1843 MICHAEL MARION M 45 47:30 7:39 M4549 PHOENIX, AZ

374 1397 ED DASSIE M 40 47:31 7:39 M4044 QUEEN CREEK, AZ

375 3067 RAY JESUS M 55 47:31 7:39 M5559 WINDOW ROCK, AZ

376 2662 BRUCE WALKER M 47 47:31 7:39 M4549 GILBERT, AZ

377 1120 DUSTIN DEUTSCH M 28 47:31 7:39 M2529 GILBERT, AZ

378 6130 JESS LAWRENCE M 32 47:32 7:39 M3034 ,

379 6384 JEFF WICK M 46 47:34 7:40 M4549 ,

380 1539 MICHAEL SEALL M 15 47:35 7:40 M1115 CHANDLER, AZ

381 6139 GERALD BUSH M 34 47:36 7:40 M3034 ,

382 468 TONYA BRATCHER F 28 47:36 7:40 F2529 SCOTTSDALE, AZ

383 901 DAN QUICK M 26 47:36 7:40 M2529 PHOENIX, AZ

384 634 JEAN BLUM F 39 47:38 7:40 F3539 PHOENIX, AZ

385 506 RON LEDESMA M 55 47:40 7:41 M5559 PHOENIX, AZ

386 739 KRISTA BIRD F 46 47:41 7:41 F4549 PHOENIX, AZ

387 3161 ANDREW MAUS M 22 47:42 7:41 M2024 GILBERT, AZ

388 1820 JEROME BORSCH M 40 47:43 7:41 M4044 PHOENIX, AZ

389 282 BRIAN MOSTOLLER M 40 47:44 7:41 M4044 GOODYEAR, AZ

390 926 VERN NEWTON M 38 47:45 7:41 M3539 SCOTTSDALE, AZ

391 981 GARY KIDA M 51 47:46 7:42 M5054 FOUNTAIN HILLS, AZ

392 2651 BILL FERGUSON M 52 47:46 7:42 M5054 GOODYEAR, AZ

393 3717 JULIE NASH F 34 47:49 7:42 F3034 GRAND CANYON, AZ

394 1811 JACLYN BROWN F 24 47:50 7:42 F2024 TEMPE, AZ

395 517 JOHN ELLIS M 61 47:50 7:42 M6064 PEORIA, AZ

396 3094 THOMAS KLEIN M 48 47:51 7:42 M4549 PHOENIX, AZ

397 4138 KATRINA WUNNER F 33 47:51 7:42 F3034 GRAND CANYON, AZ

398 3720 PEDER NIELSEN M 37 47:51 7:43 M3539 GILBERT, AZ

399 6006 SCOTT HOLLY M 44 47:52 7:43 M4044 ,

400 2980 HECTOR GONZALEZ M 41 47:53 7:43 M4044 PHOENIX, AZ

401 6507 PAIGE SWAINE F 41 47:54 7:43 F4044 ,

402 1590 THOMAS POLEN M 34 47:54 7:43 M3034 CHANDLER, AZ

403 6329 CHRIS HAMBLIN M 42 47:55 7:43 M4044 ,

404 2676 TAMARA ADDIS F 48 47:57 7:43 F4549 COTTONWOOD, AZ

405 6499 ANDREW NORTON M 29 47:57 7:43 M2529 ,

406 1115 GRIFF KINSINGER M 46 47:59 7:44 M4549 CHANDLER, AZ

407 1439 TRAVERSE CLAYTON M 29 48:00 7:44 M2529 PHOENIX, AZ

408 2433 STEVE PAYNE M 33 48:00 7:44 M3034 SURPRISE, AZ

409 158 JOHN WALDMAN M 32 48:00 7:44 M3034 PHOENIX, AZ

410 3438 STACY WALKER M 36 48:01 7:44 M3539 MARICOPA, AZ

411 3302 ASHLEY ROBOTA F 23 48:01 7:44 F2024 TEMPE, AZ

412 3151 KRIS MANTEY M 36 48:02 7:44 M3539 PHOENIX, AZ

413 6043 DAVID CHANDLER M 51 48:02 7:44 M5054 ,

414 2334 JOHN MEUSER M 47 48:03 7:44 M4549 CHANDLER, AZ

415 2250 GREG PRATT M 51 48:03 7:44 M5054 TEMPE, AZ

416 6503 RYAN WOODCOCK M 35 48:04 7:44 M3539 ,

417 3312 GERALD ROOSE M 50 48:04 7:45 M5054 GILBERT, AZ

418 1522 PETER BUEHLER M 50 48:05 7:45 M5054 PHOENIX, AZ

419 3160 JAY MATHIAS M 49 48:05 7:45 M4549 GOODYEAR, AZ

420 448 LAURE NIEHAUS F 46 48:06 7:45 F4549 PHOENIX, AZ

421 4084 BRENDAN LUNDY M 47 48:06 7:45 M4549 SCOTTSDALE, AZ

422 2269 MATT WERNER M 37 48:07 7:45 M3539 CHANDLER, AZ

423 441 MATT HICKS M 33 48:07 7:45 M3034 PHOENIX, AZ

424 6178 GRANT GOSS M 27 48:08 7:45 M2529 PHOENIX, AZ

425 3303 BRUCE ROESER M 47 48:09 7:45 M4549 SCOTTSDALE, AZ

426 6330 ROB GLECKLER M 46 48:09 7:45 M4549 ,

427 2969 BRANDON GERALD M 28 48:10 7:45 M2529 SURPRISE, AZ

428 3350 TRENT SLEASMAN M 13 48:11 7:46 M1115 PHOENIX, AZ

429 1458 SIMONE BENDER F 37 48:12 7:46 F3539 MESA, AZ

430 3230 TIM ORLIE M 46 48:13 7:46 M4549 PHOENIX, AZ

431 3068 SANDY JESUS M 58 48:14 7:46 M5559 WINDOW ROCK, AZ

432 862 MATTHEW REES M 36 48:15 7:46 M3539 CHANDLER, AZ

433 3911 AMANDA BUTTERFIELD F 25 48:15 7:46 F2529 PHOENIX, AZ

434 740 TODD BIRD M 47 48:17 7:47 M4549 PHOENIX, AZ

435 3490 XIMENA ZAMORA F 31 48:17 7:47 F3034 PHOENIX, AZ

436 2220 STEVE WEAKLY M 38 48:18 7:47 M3539 CHANDLER, AZ

437 3112 MARY LAIBE F 37 48:19 7:47 F3539 PHOENIX, AZ

438 2793 SHAWN BERNARDI M 36 48:20 7:47 M3539 GOODYEAR, AZ

439 3653 SEAN COLLIER M 30 48:21 7:47 M3034 GLENDALE, AZ

440 738 LORE DELLUOMO F 39 48:21 7:47 F3539 PHOENIX, AZ

441 6327 HARVEY BLAKEMAN M 27 48:22 7:47 M2529 ,

442 2388 JOHN PETERSON M 45 48:24 7:48 M4549 CHANDLER, AZ

443 703 RONALD TIELKE M 43 48:24 7:48 M4044 PHOENIX, AZ

444 3940 KEITH FORSYTH M 49 48:25 7:48 M4549 SCOTTSDALE, AZ

445 6289 DARRELL MONROE M 33 48:25 7:48 M3034 ,

446 6125 PATRICIA VELASQUEZ F 37 48:26 7:48 F3539 ,

447 382 CHELSEA DURKIN F 23 48:27 7:48 F2024 CAVE CREEK, AZ

448 543 MONIQUE COADY F 43 48:27 7:48 F4044 PHOENIX, AZ

449 4095 NED NEWCOMER M 39 48:27 7:48 M3539 WADDELL, AZ

450 3686 JOHN HIGGINS M 46 48:28 7:48 M4549 LAKESIDE, CA

451 2823 TERESA BRUNDRETT F 41 48:29 7:49 F4044 CHANDLER, AZ

452 6214 JASON CAIN M 27 48:30 7:49 M2529 ,

453 2529 GARY GOLDBERG M 50 48:31 7:49 M5054 PHOENIX, AZ

454 2923 SCOT ELLIS M 35 48:32 7:49 M3539 CHANDLER, AZ

455 3050 MARK HUFFMAN M 42 48:33 7:49 M4044 GILBERT, AZ

456 1628 DIANE MCCLOSKEY F 51 48:34 7:49 F5054 TEMPE, AZ

457 2526 JENNIFER ELFENBEIN F 36 48:34 7:49 F3539 SCOTTSDALE, AZ

458 3253 PHIL PETERSEN M 57 48:35 7:50 M5559 PHOENIX, AZ

459 1174 JEFF SMITH M 48 48:37 7:50 M4549 GILBERT, AZ

460 3141 JOHN LOWRY M 34 48:38 7:50 M3034 GLENDALE, AZ

461 1450 ROBERT BOOKER M 44 48:38 7:50 M4044 MESA, AZ

462 484 CHRIS VOLPE M 22 48:39 7:50 M2024 PHOENIX, AZ

463 6038 TROY LARSON M 30 48:39 7:50 M3034 ,

464 2333 CHAD WELKER M 36 48:40 7:50 M3539 FLAGSTAFF, AZ

465 423 ALYSSA ADAMS F 18 48:40 7:50 F1619 PHOENIX, AZ

466 1071 PHILIP MANNING M 44 48:41 7:50 M4044 SCOTTSDALE, AZ

467 645 DOROTHY WATERHOUSE F 49 48:43 7:51 F4549 PHOENIX, AZ

468 1799 JERRY KAPP M 47 48:44 7:51 M4549 PHOENIX, AZ

469 4013 ROB WILKINSON M 23 48:45 7:51 M2024 TEMPE, AZ

470 6737 UNKNOWN ENTRANT X 99 48:46 7:51 X9999 ,

471 1528 DAVID GARCIA M 45 48:46 7:51 M4549 CHANDLER, AZ

472 1216 ED CRIPPEN M 36 48:47 7:51 M3539 QUEEN CREEK, AZ

473 6580 PAUL VILLAVICENIO M 44 48:50 7:52 M4044 ,

474 4111 CHARLES SCRIVNER M 46 48:51 7:52 M4549 PEORIA, AZ

475 1555 NICK GARCIA M 16 48:51 7:52 M1619 CHANDLER, AZ

476 3104 RYAN KRATZ M 30 48:52 7:52 M3034 TEMPE, AZ

477 6113 JAMES TOBIAS M 18 48:52 7:52 M1619 ,

478 880 DAN TRIMBLE M 40 48:53 7:52 M4044 PHOENIX, AZ

479 2566 STEVE ROBB M 55 48:53 7:52 M5559 FOUNTAIN HILLS, AZ

480 2414 RANCE MYERS M 43 48:53 7:52 M4044 PHOENIX, AZ

481 3739 CONNIE RICE F 44 48:54 7:53 F4044 GLENDALE, AZ

482 3221 RICHARD NIX M 39 48:54 7:53 M3539 SURPRISE, AZ

483 6059 ERIC GALE M 24 48:55 7:53 M2024 ,

484 6707 ERIC SHORT M 37 48:55 7:53 M3539 PHOENIX, AZ

485 533 BRYCE NORRIS M 44 48:56 7:53 M4044 GLENDALE, AZ

486 640 STEPHEN ANDERT M 39 48:57 7:53 M3539 MARICOPA, AZ

487 1846 JAMES MAY M 32 48:58 7:53 M3034 MESA, AZ

488 726 ANGELICA SANCHEZ F 26 48:58 7:53 F2529 PHOENIX, AZ

489 530 BRYCE ECKERT M 13 48:59 7:53 M1115 PEORIA, AZ

490 3222 ANGELA NORDLIE F 39 48:59 7:53 F3539 SCOTTSDALE, AZ

491 6337 DAVID GOLDBERG M 54 49:01 7:54 M5054 ,

492 520 MARK SALAZAR M 44 49:01 7:54 M4044 PHOENIX, AZ

493 6328 HANK GRIES M 29 49:01 7:54 M2529 ,

494 3173 DJ MCMAHON M 16 49:01 7:54 M1619 BUCKEYE, AZ

495 2990 MICHAEL GRADY M 45 49:02 7:54 M4549 CHANDLER, AZ

496 653 ROD KJERSTAD M 51 49:02 7:54 M5054 PHOENIX, AZ

497 1548 ROB JONES M 28 49:03 7:54 M2529 MESA, AZ

498 1312 DENNIS WRIGHT M 44 49:04 7:54 M4044 FOUNTAIN HILLS, AZ

499 2901 GREG DISABATO M 34 49:05 7:54 M3034 GILBERT, AZ

500 1150 AMBER PASTERNAK F 15 49:05 7:54 F1115 CHANDLER, AZ

501 987 LARRY RAY M 58 49:05 7:54 M5559 SCOTTSDALE, AZ

502 3796 MICHAEL DEMARZO M 46 49:06 7:54 M4549 SCOTTSDALE, AZ

503 561 DAVID GARDNER M 41 49:06 7:55 M4044 PEORIA, AZ

504 3813 FRANCISCO HERRERA M 29 49:06 7:55 M2529 TEMPE, AZ

505 275 JIM SCHILLINGER M 40 49:07 7:55 M4044 PARADISE VALLEY, AZ

506 442 ROBERT LOMBARD M 37 49:08 7:55 M3539 PHOENIX, AZ

507 529 RICH ECKERT M 40 49:08 7:55 M4044 PEORIA, AZ

508 3400 DAVID THOMAS M 47 49:09 7:55 M4549 PHX, AZ

509 2753 KELLY ANDREWS F 44 49:09 7:55 F4044 PHOENIX, AZ

510 827 CHLOE FREE F 22 49:09 7:55 F2024 PHOENIX, AZ

511 1747 MICHELLE SMITH F 25 49:09 7:55 F2529 TEMPE, AZ

512 6570 CHERYL KANE F 27 49:09 7:55 F2529 ,

513 834 JOHN KOHLI M 25 49:10 7:55 M2529 PHOENIX, AZ

514 6287 MARK HENDRICKSON M 56 49:10 7:55 M5559 ,

515 1258 SHELLY QUIRING F 42 49:10 7:55 F4044 CHANDLER, AZ

516 347 SHAY LEWIS M 26 49:11 7:55 M2529 AVONDALE, AZ

517 2843 STEVE CAMPBELL M 41 49:12 7:56 M4044 GILBERT, AZ

518 3434 RICHARD VULLO M 41 49:13 7:56 M4044 TEMPE, AZ

519 154 DONALD STATES M 44 49:15 7:56 M4044 PEORIA, AZ

520 2396 JEFF EDRIS M 45 49:15 7:56 M4549 CHANDLER, AS

521 2597 JACKIE JARABEK F 37 49:16 7:56 F3539 PEORIA, AZ

522 1466 CHRISTINA OSWALT F 42 49:18 7:57 F4044 MESA, AZ

523 790 SETH REDDEN M 23 49:19 7:57 M2024 PHOENIX, AZ

524 3503 CHRISTOPHER BERNHOLD M 33 49:21 7:57 M3034 PHOENIX, AZ

525 2733 LORRAINE MURRIETTA F 46 49:21 7:57 F4549 SCOTTSDALE, AZ

526 6124 GOMEZ TAVIET M 12 49:22 7:57 M1115 ,

527 3612 MARIO ZELAYA M 35 49:22 7:57 M3539 PHOENIX, AZ

528 499 GEORGIA SEVCOV F 41 49:22 7:57 F4044 PHOENIX, AZ

529 625 DINO FARFANTE M 45 49:24 7:57 M4549 PHOENIX, AZ

530 3190 MICHAEL MILCIC M 49 49:24 7:57 M4549 DUPONT, WA

531 3610 SCOTT WORKMAN M 35 49:24 7:58 M3539 PHOENIX, AZ

532 3651 ROBERT CAYTON M 60 49:25 7:58 M6064 PHOENIX, AZ

533 2815 DAVID BOYNES M 45 49:25 7:58 M4549 PHOENIX, AZ

534 6061 CHRIS GANNON M 37 49:26 7:58 M3539 ,

535 1303 MIKE MCCABE M 43 49:26 7:58 M4044 SCOTTSDALE, AZ

536 439 GUY ZWICK M 37 49:26 7:58 M3539 PEORIA, AZ

537 2327 JASON CREED M 33 49:30 7:58 M3034 SCOTTSDALE, AZ

538 1409 JOSE SANCHEZ M 39 49:30 7:58 M3539 MESA, AZ

539 1215 MINETTE CRIPPEN F 35 49:31 7:59 F3539 QUEEN CREEK, AZ

540 3505 WILLIAM BRADLEY M 16 49:31 7:59 M1619 WINDOW ROCK, AZ

541 3551 STEVE KOENIG M 37 49:31 7:59 M3539 CHANDLER, AZ

542 1580 MALIHA WEINTRAUB F 39 49:31 7:59 F3539 CHANDLER, AZ

543 324 FRANK BRODISH M 44 49:31 7:59 M4044 AVONDALE, AZ

544 6307 JAY PAULUS M 46 49:31 7:59 M4549 ,

545 3138 KIM LORENZ F 53 49:31 7:59 F5054 CAVE CREEK, AZ

546 2673 NOLAN JENKINS M 25 49:32 7:59 M2529 TEMPE, AS

547 6213 JOE FELLER M 54 49:32 7:59 M5054 ,

548 6300 LYLE ANDERSON M 53 49:33 7:59 M5054 ,

549 1690 NINA DELLY F 36 49:34 7:59 F3539 PHOENIX, AZ

550 2686 JASON CORONA M 32 49:34 7:59 M3034 GOODYEAR, AZ

551 3746 SCOTT SHERMAN M 44 49:35 7:59 M4044 SCOTTSDALE, AZ

552 1181 BAILEY NORDIN M 25 49:37 7:59 M2529 CHANDLER, AZ

553 407 JAMES MERINGER M 45 49:37 8:00 M4549 PHOENIX, AZ

554 3725 BRAD ORAW M 26 49:38 8:00 M2529 MESA, AZ

555 1076 AMBER MIED F 35 49:38 8:00 F3539 SCOTTSDALE, AZ

556 1478 KEITH FIMREITE M 28 49:38 8:00 M2529 PHOENIX, AZ

557 683 ANN MCLAUGHLIN F 32 49:39 8:00 F3034 CHANDLER, AZ

558 2569 JOY SEROR F 28 49:39 8:00 F2529 PHOENIX, AZ

559 1730 JASON CRAM M 36 49:40 8:00 M3539 TEMPE, AZ

560 6219 AHMET KURDOGLU M 29 49:41 8:00 M2529 ,

561 1119 LYDIA BARTON F 35 49:41 8:00 F3539 CHANDLER, AZ

562 993 JIM SIUDUT M 54 49:41 8:00 M5054 SCOTTSDALE, AZ

563 3139 ROBIN LORENZ M 61 49:42 8:00 M6064 CAVE CREEK, AZ

564 3342 MIKE SICZ M 39 49:42 8:00 M3539 MESA, AZ

565 233 CRAIG WOODHOUSE M 49 49:42 8:00 M4549 PHOENIX, AZ

566 2785 JACKIE BEEGHLEY F 35 49:42 8:00 F3539 SCOTTSDALE, AZ

567 1783 CHAD WILSON M 31 49:42 8:00 M3034 SCOTTSDALE, AZ

568 1221 DAVID BOSWORTH M 29 49:43 8:00 M2529 MESA, AZ

569 1182 JAMES BREYER M 33 49:45 8:01 M3034 CHANDLER, AZ

570 6501 NICKI ZIMMERMAN M 25 49:45 8:01 M2529 ,

571 3976 ERIC REED M 23 49:46 8:01 M2024 PHOENIX, AZ

572 933 KIM BRENES F 35 49:47 8:01 F3539 SCOTTSDALE, AZ

573 2262 BRAD DIETZ M 25 49:48 8:01 M2529 GILBERT, AZ

574 704 AUSTIN TIELKE M 12 49:48 8:01 M1115 PHOENIX, AZ

575 1805 ABEL FEDERICO M 42 49:49 8:01 M4044 PHOENIX, AZ

576 1116 KEN JAMES M 49 49:50 8:02 M4549 GILBERT, AZ

577 2603 BRAD SCHWINDT M 52 49:50 8:02 M5054 BLYTHE, CA

578 3389 CHARLOTTE TAIT F 35 49:50 8:02 F3539 PHOENIX, AZ

579 2866 THOMAS CLARK M 38 49:53 8:02 M3539 TEMPE, AZ

580 3089 JULIE KENT F 36 49:53 8:02 F3539 TEMPE, AZ

581 447 BRAD NIEHAUS M 48 49:54 8:02 M4549 PHOENIX, AZ

582 1100 DAYAM AZIMA M 43 49:55 8:02 M4044 GLENDALE, AZ

583 6557 JOHN MUNN M 38 49:56 8:03 M3539 ,

584 2941 TIMOTHY FELDPAUSCH M 43 49:57 8:03 M4044 GILBERT, AZ

585 3451 PAUL WAZ M 43 49:58 8:03 M4044 GILBERT, AZ

586 263 TIM MILLER M 29 49:58 8:03 M2529 PHOENIX, AZ

587 1804 FRANCISCO ROBLES M 62 49:58 8:03 M6064 PHOENIX, AZ

588 3446 CHRIS WATSON M 36 49:59 8:03 M3539 PHOENIX, AZ

589 560 DAVID SCHMIDT M 39 50:00 8:03 M3539 PHOENIX, AZ

590 2308 BELLA PANCHMATIA F 39 50:01 8:03 F3539 SCOTTSDALE, AZ

591 2792 KENDRA BENEDICT F 37 50:04 8:04 F3539 TEMPE, AZ

592 3462 TIM WHITE M 27 50:04 8:04 M2529 PHOENIX, AZ

593 3722 STEPHANIE NISSEN F 23 50:05 8:04 F2024 PRESCOTT, AZ

594 851 MICHAEL BARROWS M 53 50:06 8:04 M5054 CHANDLER, AZ

595 841 PRESCOTT POHL M 32 50:08 8:04 M3034 PHOENIX, AZ

596 6407 KIRBY GALE F 24 50:09 8:05 F2024 ,

597 2511 SARAH CANNEY F 25 50:09 8:05 F2529 TEMPE, AZ

598 6313 RAY SCHNELL M 52 50:09 8:05 M5054 ,

599 3042 JON HOTT M 37 50:09 8:05 M3539 SCOTTSDALE, AZ

600 3344 MOLLY SIMMONS F 28 50:10 8:05 F2529 GILBERT, AZ

601 3192 ANDREW MILLER M 50 50:10 8:05 M5054 PHOENIX, AZ

602 3514 CARY CIVIC M 14 50:12 8:05 M1115 PHOENIX, AZ

603 3439 LINDSY WALL F 29 50:12 8:05 F2529 SURPRISE, AZ

604 4161 YOUSIN SMITH M 32 50:12 8:05 M3034 TEMPE, AZ

605 2761 NOAH AUSTIN M 25 50:12 8:05 M2529 MESA, AZ

606 1394 ALEX SCHEERER F 23 50:12 8:05 F2024 GILBERT, AZ

607 6025 SUSAN SHAPCOTT F 38 50:13 8:05 F3539 ,

608 6191 STEVEN MEISLAHN M 27 50:13 8:05 M2529 ,

609 163 MARK SCHILLINGER M 14 50:15 8:06 M1115 PHOENIX, AZ

610 1061 GEORGE DEMETRULIAS M 60 50:15 8:06 M6064 SCOTTSDALE, AZ

611 6053 HECTOR BEZARES M 50 50:17 8:06 M5054 ,

612 118 STEVEN HENLEY M 35 50:18 8:06 M3539 SCOTTSDALE, AZ

613 2567 PAUL SCHEETZ M 43 50:18 8:06 M4044 MARICOPA, AZ

614 6717 LAURA BOSTROM F 23 50:19 8:06 F2024 ,

615 3807 CHRIS GRAY M 38 50:20 8:06 M3539 PHOENIX, AZ

616 2731 KAREN REIN F 35 50:20 8:06 F3539 SCOTTSDALE, AZ

617 1244 ANN-MARIE LUTHER F 34 50:21 8:07 F3034 CHANDLER, AZ

618 863 GUSTAVO UGARTE M 26 50:21 8:07 M2529 TEMPE, AZ

619 3555 EDWARD KUZIA M 56 50:21 8:07 M5559 SCOTTSDALE, AZ

620 1151 GRANT MCKERNAN M 38 50:22 8:07 M3539 GILBERT, AZ

621 1731 MIKE MARTINEZ M 34 50:22 8:07 M3034 TEMPE, AZ

622 1623 DAVID KAPLE M 51 50:22 8:07 M5054 SCOTTSDALE, AZ

623 306 TIFFANI ROLLINS F 30 50:23 8:07 F3034 PHOENIX, AZ

624 2942 TERRY FIFE M 48 50:25 8:07 M4549 SCOTTSDALE, AZ

625 3191 PATRICK MILES M 44 50:25 8:07 M4044 ALBUQUERQUE, NM

626 966 KENT HAINLINE M 51 50:26 8:07 M5054 FOUNTAIN HILLS, AZ

627 3252 MIKE PETERS M 25 50:26 8:07 M2529 GILBERT, AZ

628 3056 JENNIFER IBEN F 37 50:26 8:07 F3539 TEMPE, AZ

629 1697 DAVID GUIDO M 42 50:26 8:07 M4044 PHOENIX, AZ

630 3569 JENNIFER MCCORMICK F 33 50:27 8:08 F3034 PHOENIX, AZ

631 398 BETH HOWARD F 48 50:27 8:08 F4549 PHOENIX, AZ

632 1581 IRENE BAKER F 44 50:28 8:08 F4044 PHOENIX, AZ

633 1828 NANCY KELLY F 45 50:28 8:08 F4549 PHOENIX, AZ

634 190 STEVE COATNEY M 41 50:29 8:08 M4044 PHOENIX, AZ

635 2913 SUE DYBALL F 36 50:29 8:08 F3539 PHOENIX, AZ

636 787 ZACK KERNER M 27 50:30 8:08 M2529 GLENDALE, AZ

637 4085 ROXANNE MARIANITO F 33 50:30 8:08 F3034 WINDOW ROCK, AZ

638 1205 ROBERT JEFFERY M 50 50:32 8:08 M5054 GILBERT, AZ

639 3880 LEIGH YAP M 41 50:33 8:08 M4044 PHOENIX, AZ

640 3034 CHRISTIE HOLLINGER F 38 50:33 8:08 F3539 CHANDLER, AZ

641 235 TANYA LIPPERT F 41 50:33 8:09 F4044 SCOTTSDALE, AZ

642 3579 PATRICK O'BRIEN M 33 50:33 8:09 M3034 GLENDALE, AZ

643 3712 TIM MELTON M 26 50:34 8:09 M2529 GLENDALE, AZ

644 6106 KIM VAN WAGENEN F 35 50:34 8:09 F3539 ,

645 3980 SHAUN RINGELBERG M 27 50:36 8:09 M2529 TEMPE, AZ

646 2981 CYNTHIA GOOD F 40 50:37 8:09 F4044 PHOENIX, AZ

647 6324 LINDSAY SAUNDERS F 17 50:38 8:09 F1619 ,

648 4087 JIM MCCABE M 50 50:38 8:09 M5054 SCOTTSDALE, AZ

649 307 TIM ROLLINS M 31 50:38 8:09 M3034 PHOENIX, AZ

650 599 ZAK FRANKEL M 33 50:38 8:09 M3034 PHOENIX, AZ

651 3518 JAMIE CREEDON F 41 50:38 8:09 F4044 FLAGSTAFF, AZ

652 2743 RUBEN AGUILERA M 55 50:39 8:09 M5559 PEORIA, AZ

653 4073 PAIGE LAGERHAUSEN F 17 50:40 8:10 F1619 MESA, AZ

654 1518 KIMBERLY PHAM F 16 50:40 8:10 F1619 CHANDLER, AZ

655 705 JOE WILLIAMS M 45 50:41 8:10 M4549 GILBERT, AZ

656 2782 JAMES BEAUCHAMP M 30 50:42 8:10 M3034 CHANDLER, AZ

657 355 JUSTIN SCHMID M 33 50:44 8:10 M3034 PHOENIX, AZ

658 967 EDWARD VANDERSLICE M 45 50:44 8:10 M4549 SCOTTSDALE, AZ

659 3220 KATHERINE NIERVA F 25 50:44 8:10 F2529 PHOENIX, AZ

660 518 PAUL GULICK M 49 50:45 8:10 M4549 PHOENIX, AZ

661 2495 CHRISTOPHER MONDINO M 29 50:46 8:11 M2529 GLENDALE, AZ

662 895 RICHARD FLOR M 36 50:46 8:11 M3539 TOLLESON, AZ

663 359 DARIN LAWTON M 39 50:47 8:11 M3539 CHANDLER, AZ

664 6180 ROY WEINBERG M 51 50:48 8:11 M5054 PHOENIX, AZ

665 145 REED PANGBORN M 39 50:48 8:11 M3539 PHOENIX, AZ

666 6269 JACK BOWLING M 39 50:49 8:11 M3539 ,

667 647 KRISTY SMITH F 39 50:51 8:11 F3539 PHOENIX, AZ

668 3480 DANIEL WRIGHT M 45 50:51 8:11 M4549 TEMPE, AZ

669 6118 BENJAMIN DOWNIE M 34 50:52 8:12 M3034 ,

670 1378 RICHELLE MELDE F 30 50:52 8:12 F3034 SCOTTSDALE, AZ

671 3754 JASON VAN DEUSEN M 31 50:53 8:12 M3034 GLENDALE, AZ

672 2940 KYLE FELDPAUSCH M 17 50:53 8:12 M1619 GILBERT, AZ

673 1148 KRISTII PASTERNAK F 17 50:53 8:12 F1619 CHANDLER, AZ

674 1070 PHILIP MANNING M 16 50:55 8:12 M1619 SCOTTSDALE, AZ

675 6512 SEAN CLANCY M 35 50:56 8:12 M3539 ,

676 3533 KIMBERLY HAMPTON F 25 51:01 8:13 F2529 GILBERT, AZ

677 3661 CHRIS EICH M 34 51:01 8:13 M3034 PHOENIX, AZ

678 2910 MICHAEL DOWNEY M 44 51:02 8:13 M4044 PHOENIX, AZ

679 2285 JOHN BRAUNBECK M 35 51:03 8:13 M3539 QUEEN CREEK, AZ

680 6320 BABU RAJASEKARAN M 26 51:03 8:13 M2529 ,

681 953 JOHN MILANDER M 33 51:03 8:13 M3034 CAVE CREEK, AZ

682 2524 DOUGLAS DOWNING M 50 51:05 8:14 M5054 SCOTTSDALE, AZ

683 6311 JOSHUA FONTES M 35 51:06 8:14 M3539 ,

684 1296 CHARLES SCHOCK M 52 51:06 8:14 M5054 MESA, AZ

685 3365 SHANNON SPENCE F 25 51:08 8:14 F2529 PHOENIX, AZ

686 1349 WENDY CURYLO F 29 51:09 8:14 F2529 MESA, AZ

687 3504 NICHOLAS BLUDWORTH M 24 51:09 8:14 M2024 TEMPE, AZ

688 2420 JOHN ROONEY M 45 51:09 8:14 M4549 PHOENIX, AZ

689 1777 JUSTIN VAN DICK M 39 51:09 8:14 M3539 PHOENIX, AZ

690 6404 CHARLES BREEDEN M 25 51:10 8:15 M2529 ,

691 1266 JOHNNIE QUAN M 45 51:11 8:15 M4549 CHANDLER, AZ

692 6355 WENDY MACFARLAND F 46 51:11 8:15 F4549 ,

693 2801 JARED BODNAR M 30 51:12 8:15 M3034 CHANDLER, AZ

694 1566 NICK GAYES M 27 51:12 8:15 M2529 CHANDLER, AZ

695 808 MATT WILLKOM M 26 51:12 8:15 M2529 GLENDALE, AZ

696 3096 LAURA KLUG F 38 51:13 8:15 F3539 CHANDLER, AZ

697 6716 JOSHUA PADNICK M 27 51:15 8:15 M2529 PHOENIX, AZ

698 2516 TOM CROWE M 64 51:17 8:16 M6064 PHOENIX, AZ

699 4104 NICOLAS REZA M 25 51:18 8:16 M2529 PHOENIX, AZ

700 1767 BEATRICE QUINN F 44 51:18 8:16 F4044 PHOENIX, AZ

701 3325 SAMUEL SCHEURICH M 23 51:19 8:16 M2024 PHOENIX, AZ

702 878 STAN BZIUKIEWICS M 39 51:21 8:16 M3539 TEMPE, AZ

703 2846 ROBERT CANTOR M 33 51:21 8:16 M3034 SCOTTSDALE, AZ

704 638 GARY CRAINE M 53 51:22 8:16 M5054 PHOENIX, AZ

705 1576 MICHAEL LOVERINE M 38 51:22 8:16 M3539 CHANDLER, AZ

706 3658 GARY DONGELL M 53 51:22 8:16 M5054 GILBERT, AZ

707 265 CHARLES SCHENRICH M 20 51:23 8:17 M2024 PHOENIX, AZ

708 2465 JOHN FINNEGAN M 30 51:23 8:17 M3034 PHOENIX, AZ

709 3015 AMBER HARTMAN F 35 51:24 8:17 F3539 GILBERT, AZ

710 3237 CASSIDY PARKER F 37 51:24 8:17 F3539 PHOENIX, AZ

711 1369 SARAH EVERMAN F 22 51:25 8:17 F2024 TEMPE, AZ

712 6126 GREG STEWART M 47 51:25 8:17 M4549 ,

713 6540 KIRK SHORT M 43 51:26 8:17 M4044 ,

714 883 SCOTT MORRISON M 35 51:27 8:17 M3539 PHOENIX, AZ

715 271 JIM KEARNS M 50 51:28 8:17 M5054 SCOTTSDALE, AZ

716 4079 TIM LEE M 44 51:28 8:17 M4044 LITCHFIELD PARK, AZ

717 2894 DAVID DELLANA M 54 51:29 8:17 M5054 PHOENIX, AZ

718 500 RUTA DELLANA F 42 51:29 8:17 F4044 PHOENIX, AZ

719 2724 MELISSA HANIFEN F 36 51:29 8:18 F3539 SCOTTSDALE, AP

720 3040 CHRISTOPHER HORN M 30 51:29 8:18 M3034 QUEEN CREEK, AZ

721 1800 MIKE DODT M 55 51:30 8:18 M5559 PHOENIX, AZ

722 6550 EDWARD PRUDHOMME M 42 51:31 8:18 M4044 ,

723 2701 SUSAN KIME F 50 51:31 8:18 F5054 PHOENIX, AZ

724 1725 RICHARD WILSON M 51 51:31 8:18 M5054 MESA, AZ

725 2506 JIM BELFIORE M 34 51:31 8:18 M3034 PHOENIX, AZ

726 3060 ELIZABETH JACOBSEN F 34 51:31 8:18 F3034 PHOENIX, AZ

727 2690 DON EYDENBERG M 47 51:32 8:18 M4549 PHOENIX, AZ

728 696 LAURA MADRUGA F 42 51:33 8:18 F4044 PHOENIX, AZ

729 465 ADDISON MCCORMICK M 18 51:33 8:18 M1619 PHOENIX, AZ

730 6593 JEREMY WYNN M 27 51:34 8:18 M2529 ,

731 1011 DOMINIC MARTINEZ M 26 51:34 8:18 M2529 SCOTTSDALE, AZ

732 3194 MEGAN MILLER F 25 51:35 8:18 F2529 TEMPE, AZ

733 2881 RAY CRUM M 45 51:35 8:19 M4549 GLENDALE, AZ

734 3846 BALTAZAR RODRIGUEZ M 31 51:35 8:19 M3034 CHANDLER, AZ

735 142 STEVE PEREZ M 26 51:35 8:19 M2529 PHOENIX, AZ

736 464 JOHN MCCORMICK M 39 51:35 8:19 M3539 PHOENIX, AZ

737 272 HERMAN LOMA M 46 51:37 8:19 M4549 MESA, AZ

738 6548 JASON BINGHAM M 27 51:38 8:19 M2529 ,

739 2977 CINDI GIRARDIN F 24 51:38 8:19 F2024 GILBERT, AZ

740 6551 FREDY OLAYA JR M 28 51:38 8:19 M2529 ,

741 123 TARA RANSDELL F 32 51:38 8:19 F3034 GLENDALE, AZ

742 6416 STEVE MULLER M 41 51:39 8:19 M4044 ,

743 2635 SCOTTIE MCKENZIE M 40 51:39 8:19 M4044 PHOENIX, AZ

744 6176 TOM MELITA M 42 51:39 8:19 M4044 CHANDLER, AZ

745 3664 MELISSA GAMALSKI F 24 51:39 8:19 F2024 CHANDLER, AZ

746 3371 AGATA STEENKEN F 31 51:39 8:19 F3034 PHOENIX, AZ

747 1127 RICK ACUNA M 32 51:40 8:19 M3034 CHANDLER, AZ

748 2349 THERESA OLSON F 41 51:40 8:19 F4044 CHANDLER, AZ

749 2715 DUSTIN BROCKMAN M 28 51:42 8:20 M2529 GILBERT, AZ

750 1220 PRESTON NASH M 44 51:43 8:20 M4044 CHANDLER, AZ

751 3652 NOEL CHAVEZ M 28 51:44 8:20 M2529 MESA, AZ

752 1173 SAMANTHA SMITH F 19 51:44 8:20 F1619 GILBERT, AZ

753 2315 RUBEN REY M 46 51:44 8:20 M4549 MESA, AZ

754 3142 TODD MABRY M 36 51:45 8:20 M3539 SCOTTSDALE, AZ

755 6048 CARMEN MENA F 45 51:45 8:20 F4549 ,

756 2568 MICHAEL SCHUETTE M 44 51:46 8:20 M4044 SCOTTSDALE, AZ

757 6297 DENNIS CLINCH M 49 51:50 8:21 M4549 ,

758 1135 MARK SECREST M 34 51:53 8:21 M3034 GILBERT, AZ

759 425 ADRIANA IRGTA F 18 51:53 8:21 F1619 PHOENIX, AZ

760 3718 BRANDON NAVARRO M 23 51:54 8:21 M2024 MESA, AZ

761 678 MIKE MCALPIN M 49 51:54 8:22 M4549 PHOENIX, AZ

762 4036 MONIKA CARLSON F 29 51:54 8:22 F2529 CAVE CREEK, AZ

763 488 KYLE LASSETER M 36 51:54 8:22 M3539 PHOENIX, AZ

764 677 SCOTT BENNETT M 29 51:55 8:22 M2529 PHOENIX, AZ

765 3499 TASHIA BAKURZA F 28 51:55 8:22 F2529 FLAGSTAFF, AZ

766 1682 MONTE STURDVANT M 47 51:56 8:22 M4549 PHOENIX, AZ

767 1083 TROY WORGULL M 40 51:56 8:22 M4044 TEMPE, AZ

768 2978 ANGELA GOHLKE F 32 51:58 8:22 F3034 CHANDLER, AZ

769 2776 DOUG BARTLETT M 52 51:58 8:22 M5054 SCOTTSDALE, AZ

770 3572 DARIN MIDKIFF M 40 51:58 8:22 M4044 PHOENIX, AZ

771 6591 MIKE RICHTSMEIER M 28 51:59 8:22 M2529 ,

772 980 JEFF BUEL M 48 51:59 8:22 M4549 SCOTTSDALE, AZ

773 1486 RENEE CAMPISI F 34 52:01 8:23 F3034 PHOENIX, AZ

774 3257 BETTY PHILLIPS F 43 52:01 8:23 F4044 CHANDLER, AZ

775 107 JEROME BURKE M 43 52:02 8:23 M4044 PHOENIX, AZ

776 6558 RJ HUSKEY M 24 52:03 8:23 M2024 ,

777 2460 STAN MONDRAGON M 40 52:03 8:23 M4044 CHANDLER, AZ

778 1831 HOLLY BRAUER F 37 52:03 8:23 F3539 PHOENIX, AZ

779 2702 ANDREA LUCARELLI F 27 52:04 8:23 F2529 TEMPE, AZ

780 1681 JON JANETSKY M 42 52:05 8:23 M4044 SCOTTSDALE, AZ

781 2361 CHRISTOPHER GUISE M 17 52:06 8:23 M1619 SCOTTSDALE, AZ

782 1068 JASON ORTEGA M 30 52:07 8:24 M3034 MESA, AZ

783 1017 JOHN ROBINSON M 50 52:08 8:24 M5054 CHANDLER, AZ

784 1274 STEVE DEMPSEY M 43 52:09 8:24 M4044 TEMPE, AZ

785 2897 AMY DIAMONDSTEIN F 28 52:09 8:24 F2529 SCOTTSDALE, AZ

786 2263 SCOTT HOYT M 39 52:09 8:24 M3539 SCOTTSDALE, AZ

787 2806 LISA BORLAND F 37 52:09 8:24 F3539 SCOTTSDALE, AZ

788 3321 TODD SANSOTERRA M 39 52:09 8:24 M3539 SCOTTSDALE, AZ

789 1333 KIMBERLY PIEHL F 24 52:11 8:24 F2024 PHOENIX, AZ

790 6199 MARCO RIVERA M 23 52:12 8:24 M2024 ,

791 3242 MONICA PASSEY F 35 52:12 8:24 F3539 PHOENIX, AZ

792 1421 KARYN SUTTON F 27 52:12 8:24 F2529 TEMPE, AZ

793 1366 ROBERT KOSSEL M 30 52:12 8:25 M3034 TEMPE, AZ

794 6385 KEITH HEINEMANN M 38 52:13 8:25 M3539 ,

795 552 CLAYTON KING M 15 52:13 8:25 M1115 PEORIA, AZ

796 2723 SANDRA KEGLER F 45 52:13 8:25 F4549 MESA, AZ

797 2647 TOMMASO PUSATERA M 40 52:15 8:25 M4044 PHOENIX, AZ

798 3162 TROY MAUSER M 31 52:15 8:25 M3034 PHOENIX, AZ

799 2674 JOESEPH TONGUE M 24 52:15 8:25 M2024 TEMPE, AZ

800 4140 CRISPIN ESPINOZA M 25 52:16 8:25 M2529 TEMPE, AZ

801 1713 SEAN STRICKLER M 40 52:16 8:25 M4044 TEMPE, AZ

802 4137 LEROY WILLIAMS M 39 52:16 8:25 M3539 CASA GRANDE, AZ

803 975 RHONDA SIA F 39 52:17 8:25 F3539 CAVE CREEK, AZ

804 3304 DANIEL ROGER M 50 52:18 8:25 M5054 PHOENIX, AZ

805 3241 CRAIG PASSEY M 35 52:18 8:25 M3539 PHOENIX, AZ

806 1560 DANAE POHLIT F 23 52:18 8:25 F2024 TEMPE, AZ

807 1326 JOHN GRAYSON M 46 52:18 8:25 M4549 CHANDLER, AZ

808 2796 SARAH BERTHIAUME F 38 52:20 8:26 F3539 TEMPE, AZ

809 2534 DAVID HIDDESSEN M 60 52:20 8:26 M6064 PHOENIX, AZ

810 1575 MARY ANDERSON F 29 52:20 8:26 F2529 TEMPE, AZ

811 3223 SKYLER NUNEZ M 11 52:20 8:26 M1115 WADDELL, AZ

812 3605 AMANDA WALLACE F 24 52:21 8:26 F2024 PHOENIX, AZ

813 4038 JEFF COFFMAN M 41 52:21 8:26 M4044 PHOENIX, AZ

814 2531 KENNETH GUDEWICH M 44 52:21 8:26 M4044 GILBERT, AZ

815 3690 DEBBIE HUMMELL F 42 52:22 8:26 F4044 TEMPE, AZ

816 1603 BILLY CHAVIRA M 36 52:22 8:26 M3539 TEMPE, AZ

817 3804 GEORGE GALLERY M 47 52:23 8:26 M4549 PHOENIX, AZ

818 2577 MARIA THEUT F 44 52:23 8:26 F4044 PHOENIX, AZ

819 3589 SARAH SBORDONE F 24 52:24 8:26 F2024 TEMPE, AZ

820 2680 KEN BARRICK M 57 52:25 8:26 M5559 GLENDALE, AZ

821 6123 BOBETT TASSO M 39 52:25 8:27 M3539 ,

822 6495 DONALD CREEDON M 45 52:26 8:27 M4549 ,

823 2853 RICH CARON M 42 52:28 8:27 M4044 PHOENIX, AZ

824 6218 MICHELLE FLORES F 20 52:29 8:27 F2024 ,

825 1775 ROD REYES M 43 52:29 8:27 M4044 PHOENIX, AZ

826 1492 SUE BERLINER F 48 52:30 8:27 F4549 SCOTTSDALE, AZ

827 6708 BEN PATSEY M 23 52:30 8:27 M2024 PHOENIX, AZ

828 3800 APRIL FISCHER F 29 52:30 8:27 F2529 PHOENIX, AZ

829 3402 JOSH THOMPSON M 22 52:30 8:27 M2024 TEMPE, AZ

830 4016 MARC PETRINE M 38 52:30 8:27 M3539 CAVE CREEK, AZ

831 3737 AIDA REYES F 33 52:32 8:28 F3034 SCOTTSDALE, AZ

832 3696 TARA KING F 26 52:32 8:28 F2529 MESA, AZ

833 539 GLENN MICHAEL M 57 52:32 8:28 M5559 GLENDALE, AZ

834 721 MATT RIGGS M 36 52:32 8:28 M3539 PHOENIX, AZ

835 2983 KENT GOODING M 48 52:33 8:28 M4549 TEMPE, AZ

836 2481 SCOTT GRIGALONIS M 34 52:34 8:28 M3034 MESA, AZ

837 3319 SHERI SADLER F 44 52:34 8:28 F4044 SCOTTSDALE, AZ

838 6641 JAMES YOUNG M 49 52:34 8:28 M4549 ,

839 2745 SCOTT ALBERT M 23 52:34 8:28 M2024 GILBERT, AZ

840 511 GREGG SINCLAIR M 32 52:35 8:28 M3034 PHOENIX, AZ

841 1015 DANIELLE ALLEN F 31 52:35 8:28 F3034 SCOTTSDALE, AZ

842 3103 ANNA KRATZ F 29 52:36 8:28 F2529 TEMPE, AZ

843 606 ZACHARY PACE M 36 52:37 8:28 M3539 PHOENIX, AZ

844 3353 SHAWN SMITH M 38 52:37 8:28 M3539 GILBERT, AZ

845 2900 SCOTT DINQUEL M 46 52:37 8:29 M4549 PHOENIX, AZ

846 6344 MEGAN JEHN F 32 52:40 8:29 F3034 ,

847 3452 PHILIP WEDDLE M 41 52:41 8:29 M4044 TEMPE, AZ

848 414 BRIAN NYSTUEN M 47 52:41 8:29 M4549 QUEEN CREEK, AZ

849 3751 SARA TOMKINSON F 21 52:41 8:29 F2024 GILBERT, AZ

850 2342 KRISTY WESTPHAL F 38 52:41 8:29 F3539 SCOTTSDALE, AZ

851 679 DAMIEN CAFARELLI M 61 52:42 8:29 M6064 GUADALUPE, AZ

852 6001 THERESA ARGUELLO F 28 52:42 8:29 F2529 ,

853 4106 KRIS ROE F 34 52:42 8:29 F3034 TEMPE, AZ

854 3224 RAYMOND NUNEZ II M 45 52:43 8:29 M4549 WADDELL, AZ

855 3188 DIANA MICHAELS F 53 52:43 8:29 F5054 PHOENIX, AZ

856 6611 ROCHELLE RYAN F 37 52:43 8:30 F3539 ,

857 2744 CHRISTY ALBERS F 33 52:44 8:30 F3034 MESA, AZ

858 2260 ED BRAGG M 54 52:44 8:30 M5054 GLENDALE, AZ

859 3948 RUSSELL HILLIS M 22 52:45 8:30 M2024 PHOENIX, AZ

860 3942 TIFFANY GREENE F 29 52:45 8:30 F2529 PHOENIX, AZ

861 6493 ISAAC HUERTA M 24 52:45 8:30 M2024 ,

862 1129 LEWIS JONES M 49 52:45 8:30 M4549 GILBERT, AZ

863 3830 KELLY MAURER F 43 52:46 8:30 F4044 SCOTTSDALE, AZ

864 2974 JAMES GIBSON M 55 52:46 8:30 M5559 PHOENIX, AZ

865 6057 DENISE LATIMER F 50 52:47 8:30 F5054 ,

866 2303 JEFF HAMILTON M 31 52:47 8:30 M3034 GILBERT, AZ

867 2746 JOHN ALCORN JR M 39 52:48 8:30 M3539 FOUNTAIN HILLS, AZ

868 4081 HEATHER LEWIS F 29 52:48 8:30 F2529 TEMPE, AZ

869 1138 KEN BEST M 40 52:49 8:30 M4044 GILBERT, AZ

870 706 SUSAN MORRIS F 54 52:49 8:30 F5054 PHOENIX, AZ

871 2919 MIKE EICHINGER M 26 52:50 8:31 M2529 TEMPE, AZ

872 1372 BRIAN CIENIAWSKI M 42 52:50 8:31 M4044 SCOTTSDALE, AZ

873 3724 ROBERT OLSON M 38 52:51 8:31 M3539 CHANDLER, AZ

874 3630 BILL WEIR M 56 52:51 8:31 M5559 SCOTTSDALE, AZ

875 3254 CARLYN PETERSON F 24 52:52 8:31 F2024 MESA, AZ

876 3967 PAUL MCLAUGHLIN M 43 52:53 8:31 M4044 LOS ANGELES, CA

877 1243 ISABEL BRADY F 40 52:53 8:31 F4044 PHOENIX, AZ

878 2313 SHARON HALL F 36 52:53 8:31 F3539 GILBERT, AZ

879 2594 ASHLEY MACHA F 21 52:53 8:31 F2024 GILBERT, AZ

880 1087 KEITH FRANZEN M 34 52:54 8:31 M3034 CHANDLER, AZ

881 2541 JOANNE KEENE F 33 52:54 8:31 F3034 FLAGSTAFF, AZ

882 6552 STEVEN BROWN M 35 52:54 8:31 M3539 ,

883 946 JASON RIO M 35 52:54 8:31 M3539 SCOTTSDALE, AZ

884 875 NICOLE IOLI F 31 52:55 8:31 F3034 QUEEN CREEK, AZ

885 1780 BRIAN HASSETT M 53 52:55 8:31 M5054 PHOENIX, AZ

886 3082 KEVIN KAMMERZELL M 39 52:56 8:32 M3539 PHOENIX, AZ

887 1202 GABE URIAS M 46 52:56 8:32 M4549 CHANDLER, AZ

888 6497 AMY CROCKETT F 22 52:57 8:32 F2024 ,

889 6400 MALERIE CHEE F 18 52:57 8:32 F1619 ,

890 3801 ERIN FORD F 28 52:57 8:32 F2529 PHOENIX, AZ

891 1481 RIDGE SMIDT M 44 52:58 8:32 M4044 PHOENIX, AZ

892 3826 SHEILA LOGAN F 37 52:58 8:32 F3539 PHOENIX, AZ

893 6013 THOMAS NORTON M 43 52:59 8:32 M4044 ,

894 3111 SUBHOBRATA LAHIRI M 33 53:00 8:32 M3034 LAVEEN, AZ

895 3595 KAREN SLIWA M 40 53:00 8:32 M4044 PHOENIX, AZ

896 2874 W. CONNER M 51 53:01 8:32 M5054 GILBERT, AZ

897 3748 JESSICA SPECTOR F 26 53:01 8:32 F2529 SCOTTSDALE, AZ

898 1558 JON MARION M 45 53:02 8:32 M4549 TEMPE, AZ

899 3358 DENNIS SOMMA M 56 53:03 8:33 M5559 CHANDLER, AZ

900 963 BRIAN BUJDOS M 35 53:03 8:33 M3539 SCOTTSDALE, AZ

901 392 LYNDI ANDERSON F 31 53:04 8:33 F3034 PHOENIX, AZ

902 6598 BURT MORRIS M 36 53:04 8:33 M3539 ,

903 2370 TIMOTHY LUBBERS M 46 53:05 8:33 M4549 CHANDLER, AZ

904 728 JASON JONES M 32 53:05 8:33 M3034 PHOENIX, AZ

905 1004 IRA KRISTOL M 48 53:06 8:33 M4549 SCOTTSDALE, AZ

906 1779 MARCUS REED M 40 53:06 8:33 M4044 PHOENIX, AZ

907 3699 MATT KONYN M 30 53:06 8:33 M3034 EL PASO, TX

908 6353 DAVE DANIELS M 53 53:07 8:33 M5054 ,

909 2752 MONICA ANDERSON F 29 53:07 8:33 F2529 TEMPE, AZ

910 3117 ROB LANIER M 35 53:10 8:34 M3539 PHOENIX, AZ

911 3887 RANAH STEINRUCK F 26 53:10 8:34 F2529 PHOENIX, AZ

912 6299 LARRY KIRSCH M 54 53:11 8:34 M5054 ,

913 3891 JOHN FOCHT M 43 53:11 8:34 M4044 PHOENIX, AZ

914 376 JIM MILLER M 41 53:11 8:34 M4044 PHOENIX, AZ

915 132 SONIA VILLALOBOS F 33 53:12 8:34 F3034 PHOENIX, AZ

916 3425 RYAN VELEKE M 28 53:12 8:34 M2529 CHANDLER, AZ

917 3228 DEIRDRE ORCELLETTO F 32 53:14 8:34 F3034 PHOENIX, AZ

918 6511 TOMMY WELCH M 38 53:14 8:34 M3539 ,

919 6396 KELLY BARRON F 28 53:15 8:35 F2529 ,

920 3255 ROBERT PETH M 46 53:15 8:35 M4549 CHANDLER, AZ

921 3450 ANGELA WAZ F 32 53:16 8:35 F3034 GILBERT, AZ

922 2697 ED HADLEY M 35 53:17 8:35 M3539 SCOTTSDALE, AZ

923 4040 CASSANDRA CRAIG F 37 53:17 8:35 F3539 APACHE JUNCTION, AZ

924 2354 JONATHON STROM M 54 53:18 8:35 M5054 PHOENIX, AZ

925 1211 JENNIFER BAILEY F 38 53:19 8:35 F3539 GILBERT, AZ

926 493 KELLY BUCKLEY F 28 53:20 8:35 F2529 PHOENIX, AZ

927 3279 MELISSA RAMIREZ F 10 53:20 8:35 F0110 AVONDALE, AZ

928 276 JESS ADAMS M 34 53:20 8:35 M3034 PHOENIX, AZ

929 608 TOM LAWLESS M 46 53:21 8:36 M4549 PHOENIX, AZ

930 3178 ADAM MCPEAK M 28 53:22 8:36 M2529 PHOENIX, AZ

931 418 BRIAN GALLAGHER M 46 53:22 8:36 M4549 GILBERT, AZ

932 884 MAGDALENA JOHNSON F 29 53:23 8:36 F2529 TEMPE, AZ

933 868 TED TINDALL M 43 53:23 8:36 M4044 TEMPE, AZ

934 3046 JANELLE HOWARD F 39 53:23 8:36 F3539 PHOENIX, AZ

935 3413 JUDY UENTILLIE F 42 53:24 8:36 F4044 PHOENIX, AZ

936 861 CHRISTINE REES F 31 53:25 8:36 F3034 CHANDLER, AZ

937 652 TIM WAITE M 37 53:25 8:36 M3539 CHANDLER, AZ

938 3743 PHILIP SCHMIDT M 29 53:25 8:36 M2529 CHANDLER, AZ

939 2717 ROSANNE MUSSELMAN F 41 53:25 8:36 F4044 QUEEN CREEK, AZ

940 4065 MIKE JOHNSON M 46 53:26 8:36 M4549 PHOENIX, AZ

941 6256 PAUL SANDERS M 26 53:26 8:36 M2529 ,

942 2487 RYAN MACALUSO M 25 53:26 8:36 M2529 SCOTTSDALE, AZ

943 3362 MELIE SOUTHERLAND M 44 53:27 8:37 M4044 GLENDALE, AZ

944 3956 DARWIN KINSER M 49 53:27 8:37 M4549 TEMPE, AZ

945 3823 BRETT KURLAND M 31 53:27 8:37 M3034 PHOENIX, AZ

946 456 TIM PETERSON M 21 53:28 8:37 M2024 PHOENIX, AZ

947 2706 THOMAS ROBINSON M 58 53:29 8:37 M5559 PHOENIX, AZ

948 2484 MICHAEL JOHNSON M 47 53:29 8:37 M4549 TEMPE, AZ

949 1156 JAMES PLASKETT M 30 53:30 8:37 M3034 GILBERT, AZ

950 535 CLARK MCGEE M 49 53:31 8:37 M4549 GLENDALE, AZ

951 3564 DANIEL LUCENTE M 31 53:31 8:37 M3034 GILBERT, AZ

952 6596 RICHARD PROVENZANO M 36 53:32 8:37 M3539 ,

953 6216 LISA WARREN F 30 53:33 8:37 F3034 ,

954 2616 GERRY FOSTER M 41 53:33 8:38 M4044 GILBERT, AZ

955 3806 AARON GOODMAN M 26 53:34 8:38 M2529 PHOENIX, AZ

956 6360 CHRIS RODRIGUEZ M 42 53:36 8:38 M4044 ,

957 3906 MARK BRAGG M 41 53:37 8:38 M4044 MESA, AZ

958 1573 STEPHANIE COFFMAN F 39 53:37 8:38 F3539 PHOENIX, AZ

959 1512 DEBORA BARRASSO F 48 53:38 8:38 F4549 CHANDLER, AZ

960 1459 JOSEPH LINDQUIST M 36 53:38 8:38 M3539 TEMPE, AZ

961 1574 LAURA ANDERSON F 32 53:39 8:38 F3034 SCOTTSDALE, AZ

962 3125 KELLY LEWIS F 39 53:40 8:39 F3539 GLENDALE, AZ

963 6002 LILY COMPTON F 28 53:41 8:39 F2529 ,

964 1348 TRACY OLMSTEAD F 24 53:43 8:39 F2024 MESA, AZ

965 4044 TONY DESCHINEY JR. M 30 53:43 8:39 M3034 TEMPE, AZ

966 183 JON INGRAHAM M 31 53:44 8:39 M3034 PHOENIX, AZ

967 2316 KAREN PANDROK F 35 53:44 8:39 F3539 MESA, AZ

968 4121 ERIC STORIE M 27 53:44 8:39 M2529 TEMPE, AZ

969 2928 SANDY EPSTEIN F 43 53:44 8:39 F4044 PHOENIX, AZ

970 134 MEGAN HAUPTMAN F 11 53:45 8:39 F1115 SCOTTSDALE, AZ

971 368 DAVID GARCIA M 37 53:45 8:39 M3539 PHOENIX, AZ

972 3867 LINDA STEA-JOHNSON F 47 53:46 8:40 F4549 CHANDLER, AZ

973 974 DIANE JOHNSON F 37 53:46 8:40 F3539 CAVE CREEK, AZ

974 2665 AMY BROWN F 37 53:46 8:40 F3539 GILBERT, AZ

975 2664 FRED BROWN M 40 53:46 8:40 M4044 GILBERT, AZ

976 6301 CAROLINE DYSICK F 14 53:47 8:40 F1115 ,

977 6509 STEVE TRINKLE M 43 53:47 8:40 M4044 ,

978 502 AMBER JORDAN F 15 53:47 8:40 F1115 GLENDALE, AZ

979 3271 HENRY PORTER M 53 53:47 8:40 M5054 CAVE CREEK, AZ

980 3390 DANIELA TALARICO F 37 53:48 8:40 F3539 TEMPE, AZ

981 3953 JASON JOHNSON M 40 53:48 8:40 M4044 FOUNTAIN HILLS, AZ

982 2265 BLAIR MCLAUGHLIN M 38 53:48 8:40 M3539 SCOTTSDALE, AZ

983 3899 RACHEL ALTHOLZ F 31 53:49 8:40 F3034 SCOTTSDALE, AZ

984 6132 RONDA JAMEEL F 35 53:49 8:40 F3539 ,

985 3277 MIKE RAFFORD M 36 53:50 8:40 M3539 TEMPE, AZ

986 3975 JIM RAPISARDA M 57 53:50 8:40 M5559 SCOTTSDALE, AZ

987 2398 MARIE ESPINOZA F 39 53:51 8:40 F3539 PHOENIX, AZ

988 3515 DAVE CIVIC M 47 53:51 8:40 M4549 PHOENIX, AZ

989 3775 ED ABLESER M 29 53:53 8:41 M2529 TEMPE, AZ

990 1462 JOHNNY DYER M 43 53:53 8:41 M4044 MANDEVILLE, LA

991 4108 NICOLE SCHENK F 32 53:54 8:41 F3034 PHOENIX, AZ

992 1717 ZAK SEMERAD M 17 53:54 8:41 M1619 PHOENIX, AZ

993 6689 JOHN CREEDON M 46 53:57 8:41 M4549 ,

994 3637 JEFF BITTERLI M 31 53:58 8:41 M3034 PHOENIX, AZ

995 4050 JERRI FRANKLIN F 38 53:58 8:41 F3539 PEORIA, AZ

996 782 PAUL BOWER M 45 53:58 8:41 M4549 GLENDALE, AZ

997 3545 KELLI JENS F 24 53:58 8:42 F2024 PHOENIX, AZ

998 444 TRISH SCHEIDT F 28 53:58 8:42 F2529 SCOTTSDALE, AZ

999 1787 KERI MICKELSON F 38 53:59 8:42 F3539 PHOENIX, AZ

1000 2988 REBECCA GORDON F 32 53:59 8:42 F3034 GOLD CANYON, AZ

1001 3574 MIKE MORGAN M 49 54:00 8:42 M4549 GLENDALE, AZ

1002 390 MARIO CRUZ HERNANDEZ M 37 54:01 8:42 M3539 PHOENIX, AZ

1003 1418 DAVE LEBUT M 62 54:01 8:42 M6064 GILBERT, AZ

1004 3417 STEVEN VALDEZ M 46 54:01 8:42 M4549 PHOENIX, AZ

1005 1268 BLAKE SMITH M 35 54:02 8:42 M3539 CHANDLER, AZ

1006 3727 SHARON PETERSON-BAIRD F 43 54:02 8:42 F4044 MESA, AZ

1007 3901 CHRISTINE BADGLEY F 44 54:03 8:42 F4044 PHOENIX, AZ

1008 1269 AMIE SMITH F 34 54:03 8:42 F3034 CHANDLER, AZ

1009 342 SALUSTIO HERNANDEZ M 45 54:03 8:42 M4549 PHOENIX, AZ

1010 2786 STEVEN BEEGHLEY M 37 54:04 8:42 M3539 SCOTTSDALE, AZ

1011 3169 DAVID MCDONALD M 46 54:04 8:42 M4549 SPANISH FORK, UT

1012 6382 LESLIE PEACOCK F 36 54:04 8:43 F3539 ,

1013 4048 STEPHEN DOYLE M 45 54:05 8:43 M4549 SCOTTSDALE, AZ

1014 6612 VERONICA ERIVEZ F 30 54:05 8:43 F3034 ,

1015 249 ART PEREZ M 60 54:06 8:43 M6064 PHOENIX, AZ

1016 1832 JONATHAN STRINGER M 40 54:06 8:43 M4044 MESA, AZ

1017 713 DAVE MONROE M 43 54:06 8:43 M4044 CHANDLER, AZ

1018 6310 ROERT COBER M 38 54:07 8:43 M3539 ,

1019 1123 JOYCE LAZAR F 43 54:08 8:43 F4044 MESA, AZ

1020 6258 JOSEPH JORDAN M 44 54:08 8:43 M4044 ,

1021 1615 BRIAN DEARDON M 42 54:09 8:43 M4044 TEMPE, AZ

1022 3025 ERIN HELLAND F 30 54:09 8:43 F3034 GILBERT, AZ

1023 2400 KRISTIE WAYRYNEN F 41 54:11 8:44 F4044 SCOTTSDALE, AZ

1024 1829 BRYAN ZALL M 52 54:11 8:44 M5054 SCOTTSDALE, AZ

1025 1542 AMY SPIEGELL F 31 54:11 8:44 F3034 PHOENIX, AZ

1026 864 CLAUDIA CROSS F 39 54:11 8:44 F3539 PHOENIX, AZ

1027 1691 JENNIFER FERGUSON F 36 54:11 8:44 F3539 PHOENIX, AZ

1028 3436 JESSICA WALKER F 27 54:13 8:44 F2529 PHOENIX, AZ

1029 2485 ZACHARY PIERSON M 25 54:14 8:44 M2529 SCOTTSDALE, AZ

1030 2670 ROBERT WITWER M 52 54:14 8:44 M5054 PHOENIX, AZ

1031 2671 KIM WITWER F 49 54:14 8:44 F4549 PHOENIX, AZ

1032 4126 SARAH TEIXEIRA F 26 54:15 8:44 F2529 EL MIRAGE, AZ

1033 757 SUZANNE KIEFER F 29 54:15 8:44 F2529 PHOENIX, AZ

1034 1621 DANNY KALLAY M 31 54:15 8:44 M3034 CHANDLER, AZ

1035 6556 ANDREW STEGEN M 45 54:15 8:44 M4549 ,

1036 2525 DEBBI DYKE F 30 54:16 8:44 F3034 FLAGSTAFF, AZ

1037 244 STEPHANIE HELLAND F 15 54:16 8:44 F1115 GILBERT, AZ

1038 333 DAVID WILLIAMS M 53 54:16 8:44 M5054 PEORIA, AZ

1039 3848 MICHAEL ROJAS M 39 54:18 8:45 M3539 GLENDALE, AZ

1040 3347 KIM SIMS F 37 54:18 8:45 F3539 GOODYEAR, AZ

1041 833 JULIETA MARTINEZ F 38 54:19 8:45 F3539 PHOENIX, AZ

1042 2330 RANDI BASTEN F 30 54:19 8:45 F3034 PHOENIX, AZ

1043 2331 MICHAEL BASTEN M 44 54:19 8:45 M4044 PHOENIX, AZ

1044 3781 RACHEL BARTON F 39 54:20 8:45 F3539 PHOENIX, AZ

1045 477 AMY CARPENTER F 35 54:22 8:45 F3539 CHANDLER, AZ

1046 3865 GREGORY SPAYDE M 40 54:23 8:46 M4044 GLENDALE, AZ

1047 3158 YVONNE MASSMAN F 45 54:25 8:46 F4549 SCOTTSDALE, AZ

1048 198 JEREMY ZOGG M 26 54:25 8:46 M2529 PHOENIX, AZ

1049 948 BEATRIX WAGNER F 32 54:26 8:46 F3034 SCOTTSDALE, AZ

1050 537 JOSE VILLALOBOS M 51 54:26 8:46 M5054 GLENDALE, AZ

1051 2528 JORDAN FLITTIE M 18 54:26 8:46 M1619 PHOENIX, AZ

1052 3062 DAN JADA M 33 54:28 8:46 M3034 GOLD CANYON, AZ

1053 1059 ANNE ANDREWS F 27 54:28 8:46 F2529 PHOENIX, AZ

1054 3461 RON WHITE M 55 54:28 8:46 M5559 PHOENIX, AZ

1055 3592 KRISTEN SEVERANCE F 28 54:29 8:46 F2529 MARICOPA, AZ

1056 491 MARK HALVER M 52 54:29 8:46 M5054 PHOENIX, AZ

1057 3032 ARIANNA HIGUERA F 29 54:29 8:47 F2529 PHOENIX, AZ

1058 2573 BRUCE TALAWYMA M 60 54:30 8:47 M6064 HOTEVILLA, AZ

1059 1153 CHRIS HERMOSILLO M 31 54:30 8:47 M3034 QUEEN CREEK, AZ

1060 348 CHRISTINE MOORE F 23 54:31 8:47 F2024 AVONDALE, AZ

1061 3294 SCOTT REYNOLDS M 49 54:31 8:47 M4549 CHANDLER, AZ

1062 3822 MELISSA KUHLMAN M 37 54:31 8:47 M3539 PHOENIX, AZ

1063 6037 SAMIA GHARIB F 39 54:32 8:47 F3539 ,

1064 3174 JEROMY MCMAHON M 31 54:32 8:47 M3034 MARICOPA, AZ

1065 951 LORI MERRALL F 49 54:32 8:47 F4549 SCOTTSDALE, AZ

1066 549 JAMES FARRIS M 59 54:32 8:47 M5559 GLENDALE, AZ

1067 6553 MEGHAN MCCABE F 24 54:33 8:47 F2024 ,

1068 3642 ANDREW BUSCH M 22 54:34 8:47 M2024 MESA, AZ

1069 3570 CAROLINE MEYER F 41 54:34 8:47 F4044 SCOTTSDALE, AZ

1070 1179 DANIEL RILEY M 32 54:35 8:47 M3034 GILBERT, AZ

1071 1529 JOE CLEARY M 52 54:35 8:47 M5054 QUEEN CREEK, AZ

1072 2789 DARIN BELLERSON M 35 54:35 8:47 M3539 PHOENIX, AZ

1073 6563 TIFFANY BACK F 26 54:35 8:47 F2529 ,

1074 2443 TOM KAPUSHINSKI M 47 54:36 8:48 M4549 SCOTTSDALE, AZ

1075 1166 ROBERT PEREZ M 32 54:38 8:48 M3034 CHANDLER, AZ

1076 1844 BRENT SHUSTER M 40 54:39 8:48 M4044 PHOENIX, AZ

1077 3870 RONDI THORNTON F 57 54:39 8:48 F5559 ALBUQUERQUE, NM

1078 1830 BILL SCHWARTZ M 39 54:40 8:48 M3539 CAVE CREEK, AZ

1079 3186 KATELYN MEYER F 24 54:41 8:48 F2024 TEMPE, AZ

1080 943 JENNIFER ONG F 30 54:41 8:48 F3034 PHOENIX, AZ

1081 3187 JASON MEYERS M 39 54:41 8:48 M3539 PHOENIX, AZ

1082 3051 ERIN HUNTER F 28 54:41 8:49 F2529 GLENDALE, AZ

1083 2799 ERIN BLANTON F 26 54:42 8:49 F2529 AVONDALE, AZ

1084 2218 BOBBY RODRIGUEZ M 35 54:42 8:49 M3539 AVONDALE, AZ

1085 1200 LORI JENNETT F 33 54:42 8:49 F3034 CHANDLER, AZ

1086 2544 ANDRE L'HEUREUX M 48 54:43 8:49 M4549 OREGON CITY, OR

1087 1178 KELLY RILEY F 27 54:43 8:49 F2529 GILBERT, AZ

1088 6260 JEANNA YOUNG F 30 54:44 8:49 F3034 ,

1089 913 SANDY GOODALL F 55 54:46 8:49 F5559 FOUNTAIN HILLS, AZ

1090 6500 DAVID NUTTER M 46 54:46 8:49 M4549 ,

1091 503 KELLY JORDAN M 41 54:47 8:49 M4044 GLENDALE, AZ

1092 763 DAN BARRINGTON M 31 54:47 8:49 M3034 MESA, AZ

1093 2867 MEREDITH CLOSE F 27 54:47 8:49 F2529 SCOTTSDALE, AZ

1094 6733 UNKNOWN ENTRANT X 99 54:48 8:50 X9999 ,

1095 6117 ROB RAWNSLEY M 38 54:48 8:50 M3539 ,

1096 3323 NICK SBORDONE M 21 54:48 8:50 M2024 SCOTTSDALE, AZ

1097 6567 HECTOR FERNANDEZ M 42 54:50 8:50 M4044 ,

1098 4157 MICHELLE KONNATH F 28 54:50 8:50 F2529 CHANDLER, AZ

1099 3168 TIM MCCULLOCH M 35 54:50 8:50 M3539 QUEEN CREEK, AZ

1100 3179 ADAM MEDD M 35 54:51 8:50 M3539 LAVEEN, AZ

1101 1454 JIM HARDINA M 43 54:51 8:50 M4044 CHANDLER, AZ

1102 4100 SHAWN PARTRIDGE M 24 54:52 8:50 M2024 SCOTTSDALE, AZ

1103 3150 STEPHEN MANGUM M 37 54:52 8:50 M3539 PHOENIX, AZ

1104 1757 NOEL GARZA M 41 54:52 8:50 M4044 TEMPE, AZ

1105 6695 GILBERT CRUTCHER M 42 54:53 8:50 M4044 ,

1106 6309 LOUIS SERRO M 38 54:55 8:51 M3539 ,

1107 264 PHIL WOHL M 55 54:56 8:51 M5559 MESA, AZ

1108 6188 ERIK HUMPHREN M 27 54:56 8:51 M2529 ,

1109 1716 MACKENZIE SEMERAD F 14 54:56 8:51 F1115 PHOENIX, AZ

1110 6555 JOSEPH WILLIAMS M 37 54:58 8:51 M3539 ,

1111 915 BRIAN IGEL M 42 54:58 8:51 M4044 SCOTTSDALE, AZ

1112 3639 JENNY BONDESON F 20 55:00 8:51 F2024 SCOTTSDALE, AZ

1113 147 RAYMOND JOHNSON M 24 55:00 8:51 M2024 TEMPE, AZ

1114 6182 CHRIS SYLLABA M 26 55:00 8:52 M2529 ,

1115 3394 BRANDY TAYLOR F 31 55:01 8:52 F3034 PHOENIX, AZ

1116 1501 ARTHUR AGUILAR M 36 55:02 8:52 M3539 LAVEEN, AZ

1117 2641 SCOTT BONNER M 45 55:02 8:52 M4549 GILBERT, AZ

1118 1765 GINA MONTION F 36 55:03 8:52 F3539 PHOENIX, AZ

1119 6496 JOHN LEON M 43 55:04 8:52 M4044 ,

1120 991 WADE DONALDSON M 29 55:04 8:52 M2529 SCOTTSDALE, AZ

1121 945 REBECCA KOVACS F 30 55:06 8:53 F3034 SCOTTSDALE, AZ

1122 2452 TOM SMITH M 60 55:07 8:53 M6064 TEMPE, AZ

1123 3124 RACHEL LENZ F 19 55:07 8:53 F1619 PHOENIX, AZ

1124 2986 NICHOLAS GOODWIN M 16 55:07 8:53 M1619 PHOENIX, AZ

1125 1318 KAYOKO DAN F 29 55:08 8:53 F2529 TEMPE, AZ

1126 210 MIKE DOLAN M 43 55:08 8:53 M4044 PHOENIX, AZ

1127 3018 NICK HASSELKUS M 33 55:09 8:53 M3034 SCOTTSDALE, AZ

1128 2499 MARCEYLE ZIEMBA F 39 55:09 8:53 F3539 SCOTTSDALE, AZ

1129 2802 CHRISTINA BOECKMAN F 31 55:09 8:53 F3034 PHOENIX, AZ

1130 927 DAVID BONINGER M 43 55:10 8:53 M4044 SCOTTSDALE, AZ

1131 626 GARY SAUNDERS M 47 55:11 8:53 M4549 PHOENIX, AZ

1132 2312 JEFFREY HALL M 38 55:11 8:53 M3539 GILBERT, AZ

1133 6554 NOEL MILLS F 35 55:12 8:53 F3539 ,

1134 6323 EFREN FLORES M 30 55:13 8:54 M3034 , AL

1135 3583 ALEXANDER RERA M 25 55:13 8:54 M2529 SURPRISE, AZ

1136 6185 LARRY LEE M 48 55:14 8:54 M4549 ,

1137 3061 MICHAEL JACOBSEN M 36 55:14 8:54 M3539 PHOENIX, AZ

1138 3584 HEATHER RERA F 26 55:14 8:54 F2529 SURPRISE, AZ

1139 3281 JENNIFER RATOWSKI F 34 55:15 8:54 F3034 GILBERT, AZ

1140 490 KATHRYN BUCKLEY F 23 55:15 8:54 F2024 PHOENIX, AZ

1141 2605 MARK LONG M 44 55:16 8:54 M4044 MESA, AZ

1142 2432 STEVE NICHOLS M 45 55:16 8:54 M4549 GLENDALE, AZ

1143 3153 DENELLE MARTIN F 40 55:17 8:54 F4044 SCOTTSDALE, AZ

1144 6192 KEN WELSH M 38 55:17 8:54 M3539 ,

1145 6264 GARRETT ODELL M 36 55:18 8:54 M3539 ,

1146 3767 RON FRENCH M 44 55:18 8:54 M4044 PHOENIX, AZ

1147 3164 CHERYL MCKENZIE F 33 55:18 8:54 F3034 PHOENIX, AZ

1148 457 GEORGE LYKOS M 56 55:18 8:54 M5559 SCOTTSDALE, AZ

1149 3774 ROB WALLACK M 55 55:18 8:54 M5559 PHOENIX, AZ

1150 3026 CARLISSA HENRY F 25 55:18 8:54 F2529 PHOENIX, AZ

1151 3516 ERICA CONNOLLY F 25 55:19 8:55 F2529 SUN CITY WEST, AZ

1152 3902 TOM BASEGGIO M 45 55:20 8:55 M4549 SCOTTSDALE, AZ

1153 3928 PAULINA ELDER F 43 55:21 8:55 F4044 PHOENIX, AZ

1154 1537 JAMES SCHAFER M 50 55:21 8:55 M5054 MESA, AZ

1155 1791 NATHAN APPLEGATE M 33 55:21 8:55 M3034 PHOENIX, AZ

1156 6331 LILI KNIGHT F 38 55:22 8:55 F3539 ,

1157 454 ALAN HOWARD M 49 55:22 8:55 M4549 PHOENIX, AZ

1158 1577 STEPHANIE PADILLA F 28 55:22 8:55 F2529 CHANDLER, AZ

1159 719 LUCAS CURRELL M 25 55:22 8:55 M2529 PHOENIX, AZ

1160 1363 LARRY BURDICK M 39 55:22 8:55 M3539 TEMPE, AZ

1161 771 STEVE GATION M 47 55:25 8:55 M4549 CHANDLER, AZ

1162 250 HISAYO NIELSEN F 44 55:25 8:56 F4044 GILBERT, AZ

1163 2243 DAPHNE WARREN F 41 55:26 8:56 F4044 CORONADO, CA

1164 3913 GUSTAVO CAMACHO M 27 55:27 8:56 M2529 TEMPE, AZ

1165 1806 HEIDI HILL F 45 55:28 8:56 F4549 PHOENIX, AZ

1166 628 CARL SCHULSTAD M 44 55:28 8:56 M4044 TEMPE, AZ

1167 3085 JESSICA KEENAN F 34 55:29 8:56 F3034 PHOENIX, AZ

1168 3234 LAURA OWENS F 37 55:31 8:56 F3539 CHANDLER, AZ

1169 2679 STEVE AVERILL M 58 55:31 8:56 M5559 GLENDALE, AZ

1170 3511 JOE CARRILLO M 33 55:31 8:56 M3034 CHANDLER, AZ

1171 440 JILL HICKS F 32 55:33 8:57 F3034 PHOENIX, AZ

1172 3327 SARAH SCHOTT F 30 55:33 8:57 F3034 SCOTTSDALE, AZ

1173 1442 LAUNA FARBER F 24 55:34 8:57 F2024 MESA, AZ

1174 2239 LEE FAULK M 34 55:35 8:57 M3034 SCOTTSDALE, AZ

1175 2811 PETER BOYER M 21 55:36 8:57 M2024 MESA, AZ

1176 952 PAM HARRIS F 44 55:36 8:57 F4044 CAVE CREEK, AZ

1177 3895 BRIAN KIRKHAM M 40 55:36 8:57 M4044 SCOTTSDALE, AZ

1178 6325 NICOLE LUCIANO F 32 55:36 8:57 F3034 ,

1179 2964 LINDA GARREN F 66 55:37 8:57 F6569 MIAMI, AZ

1180 1538 DAN FENGER M 44 55:37 8:58 M4044 TEMPE, AZ

1181 6734 UNKNOWN ENTRANT X 99 55:37 8:58 X9999 ,

1182 3532 KELLY HAMPTON F 24 55:38 8:58 F2024 GILERT, AZ

1183 2829 DAVE BUDREWICZ II M 28 55:39 8:58 M2529 TEMPE, AZ

1184 3352 LYNN SMITH M 52 55:40 8:58 M5054 SCOTTSDALE, AZ

1185 4101 DIXIE PATTERSON F 40 55:40 8:58 F4044 PHOENIX, AZ

1186 1155 STEVEN HELLAND M 51 55:41 8:58 M5054 GILBERT, AZ

1187 3366 HEATHER SPIRES F 34 55:41 8:58 F3034 MESA, AZ

1188 4045 KENDRA DIEGAN F 37 55:42 8:58 F3539 SCOTTSDALE, AZ

1189 3526 JIM FLEGENHEIMER M 56 55:42 8:58 M5559 CHANDLER, AZ

1190 2708 BOB SEIFERT M 60 55:42 8:58 M6064 FOUNTAIN HILLS, AZ

1191 4030 LISA AUSTIN F 34 55:42 8:58 F3034 GRAND CANYON, AZ

1192 2219 ANTONIO VASQUEZ M 29 55:44 8:59 M2529 AVONDALE, AZ

1193 3455 HAYLEY WEISS F 41 55:45 8:59 F4044 PHOENIX, AZ

1194 2950 LORI FORSYTHE F 42 55:45 8:59 F4044 PHOENIX, AZ

1195 1457 TERRY BEHNHARDT M 60 55:45 8:59 M6064 CHANDLER, AZ

1196 3660 JOHN DUFFY M 42 55:45 8:59 M4044 SCOTTSDALE, AZ

1197 3815 ROBERT HICKMAN M 43 55:46 8:59 M4044 CHANDLER, AZ

1198 1818 CARMELA QUITUGUA F 41 55:47 8:59 F4044 CAREFREE, AZ

1199 2538 MICHELLE KASKE F 35 55:47 8:59 F3539 PHOENIX, AZ

1200 3609 WINNIFRED WONG F 26 55:47 8:59 F2529 GLENDALE, AZ

1201 660 TOM CONNELL M 49 55:47 8:59 M4549 PHOENIX, AZ

1202 6395 DAN VERMA M 32 55:48 8:59 M3034 ,

1203 6009 EDWARD MEDINA M 27 55:49 8:59 M2529 ,

1204 881 MICHAEL DESZENDEFFY M 55 55:51 9:00 M5559 MESA, AZ

1205 2824 TODD BRUNDRETT M 44 55:52 9:00 M4044 CHANDLER, AZ

1206 1845 CANDICE DE SAINT ANTOIN F 35 55:52 9:00 F3539 PHOENIX, AZ

1207 1259 LYNN QUIRING M 55 55:52 9:00 M5559 CHANDLER, AZ

1208 1532 MARGARET CARREIRO F 50 55:53 9:00 F5054 TEMPE, AZ

1209 354 BRIAN REES M 49 55:53 9:00 M4549 PHOENIX, AZ

1210 1172 CAITLIN ROONEY F 21 55:54 9:00 F2024 GILBERT, AZ

1211 788 CHRIS LOPEZ M 31 55:54 9:00 M3034 PHOENIX, AZ

1212 3509 MICHAEL BUTER M 32 55:55 9:00 M3034 QUEEN CREEK, AZ

1213 2772 MICHAEL BARKER M 37 55:56 9:00 M3539 COOLIDGE, AZ

1214 2500 JEREMY BRACCIO M 33 55:56 9:01 M3034 PHOENIX, AZ

1215 3317 GARY RUOHO M 60 55:57 9:01 M6064 CHANDLER, AZ

1216 2936 PATTY FALLOWS F 44 55:57 9:01 F4044 GLENDALE, AZ

1217 3121 KENT LEE M 32 55:57 9:01 M3034 PHOENIX, AZ

1218 434 ROBERT GIANNINI M 40 55:58 9:01 M4044 PHOENIX, AZ

1219 906 AMY ANDRESANO F 34 55:58 9:01 F3034 SCOTTSDALE, AZ

1220 905 LEAH ROSCOE F 28 55:58 9:01 F2529 SCOTTSDALE, AZ

1221 1117 LIVI KACIC F 35 55:59 9:01 F3539 CHANDLER, AZ

1222 1136 JENNA GALLOWAY F 23 55:59 9:01 F2024 CHANDLER, AZ

1223 2579 PHYLLIS WARREN F 50 56:00 9:01 F5054 PHOENIX, AZ

1224 3519 KEILAH CREEDON F 15 56:00 9:01 F1115 FLAGSTAFF, AZ

1225 3951 MARIE HUTCHISON F 33 56:00 9:01 F3034 PHOENIX, AZ

1226 3036 KRISTINA HOLMSTROM F 28 56:00 9:01 F2529 MESA, AZ

1227 1620 MARION SMITH F 44 56:00 9:01 F4044 CHANDLER, AZ

1228 1045 LLOYD LEVIDON M 49 56:01 9:01 M4549 SCOTTSDALE, AZ

1229 6610 TOM STOKES M 49 56:01 9:01 M4549 ,

1230 907 MICAHAEL GROSSO M 32 56:02 9:01 M3034 SCOTTSDALE, AZ

1231 3856 CATHERINE SEELEY F 53 56:03 9:02 F5054 GLENDALE, AZ

1232 2395 JILL SANCHEZ F 37 56:04 9:02 F3539 CHANDLER, AZ

1233 191 ALLAN BERNSTEIN M 43 56:04 9:02 M4044 PHOENIX, AZ

1234 3357 IMAN SOLIMAN F 43 56:04 9:02 F4044 PHOENIX, AZ

1235 192 ANTHONY BONGO M 44 56:05 9:02 M4044 PHOENIX, AZ

1236 1128 JEANNE DANKERL F 46 56:06 9:02 F4549 GILBERT, AZ

1237 3810 CINDY HALLAS F 31 56:06 9:02 F3034 PHOENIX, AZ

1238 3076 IRVIN JOJOLA M 47 56:07 9:02 M4549 GOODYEAR, AZ

1239 288 ROBERT JANCA M 36 56:07 9:02 M3539 LAVEEN, AZ

1240 2952 MIKI FREAUFF F 27 56:08 9:02 F2529 PHOENIX, AZ

1241 6625 CONSTANTINO GEORGELOS M 47 56:09 9:03 M4549 ,

1242 1523 THOMAS WIGGINS JR M 42 56:10 9:03 M4044 PHOENIX, AZ

1243 781 ANDREW LIGHTBODY M 47 56:11 9:03 M4549 PHOENIX, AZ

1244 3835 ASHLYE MOORE F 24 56:11 9:03 F2024 PHOENIX, AZ

1245 3931 ERIC FALBE M 35 56:11 9:03 M3539 PARADISE VALLEY, AZ

1246 6198 JANELLE RODHAM F 44 56:11 9:03 F4044 ,

1247 3944 CATHY GRIMES F 28 56:12 9:03 F2529 SCOTTSDALE, AZ

1248 3776 CASEY ALEXANDER M 28 56:13 9:03 M2529 PHOENIX, AZ

1249 908 DONALD JOHNSON M 37 56:13 9:03 M3539 SCOTTSDALE, AZ

1250 3369 WENDY STANLEY F 34 56:13 9:03 F3034 PHOENIX, AZ

1251 2725 ALEX MESA M 36 56:13 9:03 M3539 GOODYEAR, AZ

1252 3922 VINCENZO D'ALIESIO M 35 56:15 9:04 M3539 PHOENIX, AZ

1253 1152 JENN MCKERNAN F 33 56:15 9:04 F3034 GILBERT, AZ

1254 4120 AUDREY STERMER F 20 56:16 9:04 F2024 CHANDLER, AZ

1255 2282 MARK ANDERSON M 47 56:17 9:04 M4549 CHANDLER, AZ

1256 2795 LORI BERTE F 37 56:19 9:04 F3539 PHOENIX, AZ

1257 2932 VANESSA ESCOBAR F 31 56:19 9:04 F3034 CHANDLER, AZ

1258 6349 BRENDA WILKINS F 45 56:19 9:04 F4549 ,

1259 3407 JAZMIN TORRES F 35 56:20 9:04 F3539 PHOENIX, AZ

1260 2813 CHRISTOPHER BOYLE M 50 56:20 9:04 M5054 GLENDALE, AZ

1261 3338 KIMBERLEE SHERMAN F 26 56:21 9:04 F2529 CHANDLER, AZ

1262 1013 FRANK GASPARI M 43 56:23 9:05 M4044 SCOTTSDALE, AZ

1263 3360 FRANK SORTELLI M 49 56:23 9:05 M4549 CHANDLER, AZ

1264 3196 LARRY MILLIGAN M 51 56:24 9:05 M5054 PHOENIX, AZ

1265 3795 FANNIE DAVID F 38 56:25 9:05 F3539 WINDOW ROCK, AZ

1266 1424 JOHN OSGOOD M 51 56:25 9:05 M5054 TEMPE, AZ

1267 3348 KEN SKAGGS M 56 56:26 9:05 M5559 PHOENIX, AZ

1268 1679 ROSALEE RYAN F 31 56:28 9:06 F3034 PHOENIX, AZ

1269 802 RYAN SCOTT M 25 56:29 9:06 M2529 PHOENIX, AZ

1270 3849 JESSICA ROPER F 25 56:30 9:06 F2529 PHOENIX, AZ

1271 2496 ERIK GARCIA M 25 56:30 9:06 M2529 SCOTTSDALE, AZ

1272 6412 JENNIFER BARTON F 37 56:30 9:06 F3539 ,

1273 2407 KATRIN DE MARNEFFE F 46 56:30 9:06 F4549 PHOENIX, AZ

1274 661 JILL KOSTICH F 39 56:31 9:06 F3539 PHOENIX, AZ

1275 3580 DENISE OLSON F 40 56:31 9:06 F4044 PHX, AZ

1276 2497 EVAN ADAMS M 25 56:32 9:06 M2529 SCOTTSDALE, AZ

1277 356 SARAH ANCHORS F 28 56:32 9:06 F2529 PHOENIX, AZ

1278 299 JUDITH CAVANAGH F 55 56:32 9:06 F5559 PHOENIX, AZ

1279 3023 MARK HEINZE M 30 56:33 9:06 M3034 QUEEN CREEK, AZ

1280 298 VICTOR WEUFELD M 49 56:33 9:06 M4549 PHOENIX, AZ

1281 300 BRIAN GRIERSON M 50 56:33 9:06 M5054 GLOBE, AZ

1282 4086 TANIA MARTINEZ F 28 56:33 9:07 F2529 PHOENIX, AZ

1283 1423 LANCY CARR F 42 56:35 9:07 F4044 TEMPE, AZ

1284 767 DAVE DAULTON M 50 56:36 9:07 M5054 PHOENIX, AZ

1285 3033 HEATHER HOFLAND F 35 56:36 9:07 F3539 CHANDLER, AZ

1286 6105 EVAN VAN WAGENEN M 35 56:37 9:07 M3539 ,

1287 3915 MARY CLARK F 56 56:37 9:07 F5559 TEMPE, AZ

1288 1020 MADELYN BLUE F 26 56:38 9:07 F2529 PHOENIX, AZ

1289 553 JENNIFER SCHEIDER F 35 56:38 9:07 F3539 PEORIA, AZ

1290 1588 CHRIS AURON M 45 56:40 9:08 M4549 CHANDLER, AZ

1291 3065 JULIE JASTER F 31 56:41 9:08 F3034 PHOENIX, AZ

1292 3657 JEFF DOLLARHIDE M 39 56:42 9:08 M3539 SCOTTSDALE, AZ

1293 3968 JENNIFER MORGAN F 33 56:42 9:08 F3034 PHOENIX, AZ

1294 3656 ANNE DOLLARHIDE F 37 56:42 9:08 F3539 SCOTTSDALE, AZ

1295 892 KELLY SIMMS M 25 56:42 9:08 M2529 SCOTTSDALE, AZ

1296 714 RON STIFFARM M 43 56:42 9:08 M4044 PHOENIX, AZ

1297 3756 NICK VASQUEZ M 35 56:44 9:08 M3539 PHOENIX, AZ

1298 3213 SARA NEIL F 36 56:44 9:08 F3539 SCOTTSDALE, AZ

1299 947 MARK CAMPBELL M 46 56:44 9:08 M4549 PHOENIX, AZ

1300 6534 TAMMY ALLGOOD F 33 56:45 9:08 F3034 ,

1301 6736 UNKNOWN ENTRANT X 99 56:45 9:08 X9999 ,

1302 3685 DAVID HIBBS M 27 56:47 9:09 M2529 GILBERT, AZ

1303 2705 LISA PEREZ F 49 56:48 9:09 F4549 CHANDLER, AZ

1304 2232 MAX SHACKELFORD M 12 56:48 9:09 M1115 MESA, AZ

1305 1483 RUBY MYNOZ M 50 56:49 9:09 M5054 PHOENIX, AZ

1306 1370 JESSE VEZEY M 27 56:49 9:09 M2529 MESA, AZ

1307 6136 BECKY MILLER F 25 56:50 9:09 F2529 ,

1308 6268 LAUREN HAMMOND F 19 56:50 9:09 F1619 ,

1309 1031 ROBERTS JONATHAN M 17 56:51 9:09 M1619 SCOTTSDALE, AZ

1310 887 BRIDGER LEWIS M 11 56:51 9:09 M1115 CHANDLER, AZ

1311 651 ALBERT RIVERA M 43 56:52 9:10 M4044 PHOENIX, AZ

1312 213 FRANK DERKSEN M 75 56:52 9:10 M7598 SUN CITY, AZ

1313 6202 SALLY BELL-SALLITTO F 41 56:52 9:10 F4044 ,

1314 2338 ERIC LEONHARDT M 41 56:53 9:10 M4044 GLENDALE, AZ

1315 6308 DENISE SERRO F 38 56:53 9:10 F3539 ,

1316 654 LISA TAKAMIYA F 40 56:54 9:10 F4044 PHOENIX, AZ

1317 2233 MICHELE SHACKELFORD F 42 56:54 9:10 F4044 MESA, AZ

1318 3189 NANCY MIHELIC F 46 56:54 9:10 F4549 SCOTTSDALE, AZ

1319 258 BONNIE HARVEY F 60 56:55 9:10 F6064 PHOENIX, AZ

1320 2491 JOHN SMILEY M 55 56:56 9:10 M5559 SCOTTSDALE, AZ

1321 712 CHERYL COLSON F 39 56:56 9:10 F3539 PHOENIX, AZ

1322 3397 KENNY THERIAULT M 37 56:56 9:10 M3539 MESA, AZ

1323 711 PENNY LAUDON F 39 56:56 9:10 F3539 PHOENIX, AZ

1324 3148 VICKI MAIO F 44 56:56 9:10 F4044 PHOENIX, AZ

1325 3466 CARRIE WIEDMAIER F 50 56:57 9:10 F5054 PHOENIX, AZ

1326 223 CHARLIE BROWN M 72 56:59 9:11 M7074 PRESCOTT, AZ

1327 527 MINDY QUILGLEY F 32 56:59 9:11 F3034 GLENDALE, AZ

1328 1734 AMY RYAN F 27 56:59 9:11 F2529 PHOENIX, AZ

1329 221 DAUC ORTIZ M 39 56:59 9:11 M3539 BONITA, CA

1330 222 ANDY BASTINE M 48 56:59 9:11 M4549 TUCSON, AZ

1331 474 DANIEL BERGSTEN M 45 56:59 9:11 M4549 GLENDALE, AZ

1332 3875 MIKE WALLACE M 29 56:59 9:11 M2529 TEMPE, AZ

1333 4113 KEN SKOTAK M 50 57:00 9:11 M5054 PHOENIX, AZ

1334 1030 DARREN ROBERTS M 30 57:00 9:11 M3034 SCOTTSDALE, AZ

1335 378 JORDAN GARRISON M 13 57:00 9:11 M1115 PEORIA, AZ

1336 3987 ANNA SCOTT F 50 57:02 9:11 F5054 SCOTTSDALE, AZ

1337 2535 ROB HOWARD M 43 57:02 9:11 M4044 PHOENIX, AZ

1338 2536 SANDY HOWARD F 37 57:03 9:11 F3539 PHOENIX, AZ

1339 942 KATIE HEUERMANN F 18 57:03 9:11 F1619 SCOTTSDALE, AZ

1340 3043 DANIEL HOUSTON M 18 57:05 9:12 M1619 GILBERT, AZ

1341 1448 LINDA WISKERCHEN F 41 57:08 9:12 F4044 TEMPE, AZ

1342 3566 JOHN MACKENZIE M 62 57:08 9:12 M6064 PHOENIX, AZ

1343 1032 MICHAEL WELLENDORF M 36 57:08 9:12 M3539 SCOTTSDALE, AZ

1344 3041 LISA HOSMAN F 33 57:09 9:12 F3034 GILBERT, AZ

1345 3300 NIKKI RIDENOUR F 29 57:09 9:12 F2529 GILBERT, AZ

1346 6459 THERESA STADLES F 29 57:09 9:12 F2529 ,

1347 2201 ANDREA BONILLA F 30 57:10 9:12 F3034 TEMPE, AZ

1348 941 DAVE HEUERMAN M 47 57:11 9:13 M4549 SCOTTSDALE, AZ

1349 6523 CRAIG WALEJKO M 33 57:12 9:13 M3034 ,

1350 3792 GLORIA CLEMENT F 44 57:13 9:13 F4044 MESA, AZ

1351 2381 JENNIFER WARNOCK F 45 57:13 9:13 F4549 SEDONA, AZ

1352 1728 TARA BOOCHECK F 35 57:13 9:13 F3539 PHOENIX, AZ

1353 6411 PHILLIP QUINTANA M 29 57:13 9:13 M2529 ,

1354 4105 ALAN ROBINSON M 35 57:14 9:13 M3539 PHOENIX, AZ

1355 2742 ROBERT ADDICOTT M 35 57:14 9:13 M3539 PEORIA, AZ

1356 619 GAYLE BOLLINGER F 45 57:15 9:13 F4549 PHOENIX, AZ

1357 1311 TONY TRIMBOLI M 47 57:15 9:13 M4549 MESA, AZ

1358 3974 SARA PURCELL F 45 57:16 9:13 F4549 GLENDALE, AZ

1359 854 LINDSAY NARDI F 27 57:17 9:14 F2529 TEMPE, AZ

1360 1164 JENNIFER PETRICK F 29 57:18 9:14 F2529 GILBERT, AZ

1361 2267 SHELLY MELVIN F 32 57:18 9:14 F3034 CASA GRANDE, AZ

1362 3991 CLINT SMITH M 31 57:19 9:14 M3034 PHX, AZ

1363 6527 KELLY FLEMING F 14 57:19 9:14 F1115 ,

1364 6528 ED FLEMING M 48 57:19 9:14 M4549 ,

1365 3381 LISA SUMMERS F 36 57:21 9:14 F3539 CHANDLER, AZ

1366 3598 CAROLYN STOKMAN F 37 57:22 9:14 F3539 PHOENIX, AZ

1367 1282 STEVEN LENGUA M 34 57:22 9:14 M3034 SCOTTSDALE, AZ

1368 3265 ED PLUMB M 34 57:22 9:14 M3034 QUEEN CREEK, AZ

1369 1412 JULLIE ANN DIMMERY F 33 57:23 9:15 F3034 APACHE JUNCTION, AZ

1370 867 DAVE GAUG M 50 57:24 9:15 M5054 CHANDLER, AZ

1371 3654 TIM CREVISTON M 49 57:24 9:15 M4549 SCOTTSDALE, AZ

1372 1431 SARAH STEEN F 23 57:25 9:15 F2024 TEMPE, AZ

1373 3817 ADAM HUGHES M 23 57:25 9:15 M2024 SCOTTSDALE, AZ

1374 6381 BRIAN TACHEENIE M 35 57:25 9:15 M3539 ,

1375 2852 AMY CARON F 43 57:26 9:15 F4044 PHOENIX, AZ

1376 501 BRENDA DEUEL F 48 57:26 9:15 F4549 GLENDALE, AZ

1377 4160 JOSE SALAZAR M 27 57:26 9:15 M2529 YUMA, AZ

1378 3356 MIRIAM SOBRE F 31 57:26 9:15 F3034 TEMPE, AZ

1379 1745 ROBERT CURLEY M 45 57:27 9:15 M4549 SCOTTSDALE, AZ

1380 396 BRUCE ROBBINS M 49 57:27 9:15 M4549 PHOENIX, AZ

1381 1105 LORI DOLL F 35 57:27 9:15 F3539 CHANDLER, AZ

1382 3384 DIANA SWENSON F 38 57:28 9:15 F3539 CHANDLER, AZ

1383 6020 MARTY QUIGLEY M 45 57:28 9:15 M4549 ,

1384 2875 PATRICK CONNORS M 44 57:28 9:15 M4044 HIGLEY, AZ

1385 3078 JACKIE JONES F 45 57:29 9:15 F4549 HIGLEY, AZ

1386 6515 LISA HAMILTON F 39 57:30 9:16 F3539 ,

1387 6514 JOE HAMILTON M 33 57:30 9:16 M3034 ,

1388 4026 JOHN APPELBE M 45 57:30 9:16 M4549 PHOENIX, AZ

1389 2287 BRYAN TRIPLETT M 43 57:31 9:16 M4044 PHOENIX, AZ

1390 1711 GARY JAGGERS M 51 57:31 9:16 M5054 MESA, AZ

1391 2456 FRANK DOLENDI M 24 57:34 9:16 M2024 PHOENIX, AZ

1392 1410 EMILY WHITE F 39 57:35 9:16 F3539 CHANDLER, AZ

1393 3655 JOHN CYBULSKI M 49 57:35 9:17 M4549 MESA, AZ

1394 671 KRISTA CARR M 29 57:36 9:17 M2529 PHOENIX, AZ

1395 6699 DALLAS BENNEWITZ M 44 57:37 9:17 M4044 ,

1396 1388 WAYNE EASTERLING M 57 57:37 9:17 M5559 MESA, AZ

1397 6023 CARRIE SPERLINE F 41 57:39 9:17 F4044 ,

1398 126 ROBERT SILVER M 44 57:40 9:17 M4044 PHOENIX, AZ

1399 658 LINDA BARTON F 51 57:40 9:17 F5054 PHOENIX, AZ

1400 680 MARCELINA SANCHEZ F 25 57:40 9:17 F2529 CHANDLER, AZ

1401 6537 CYNDIE BROMENSHENKEL F 39 57:40 9:17 F3539 ,

1402 6536 ERIC BROMENSHENKEL M 37 57:40 9:17 M3539 ,

1403 433 MARK OAKS M 32 57:42 9:18 M3034 PHOENIX, AZ

1404 4061 BILL HORN M 35 57:42 9:18 M3539 SCOTTSDALE, AZ

1405 1168 LYN CAYTON F 43 57:42 9:18 F4044 GILBERT, AZ

1406 3755 SHANNON VAN DEUSEN F 33 57:43 9:18 F3034 GLENDALE, AZ

1407 111 ORADENA CHISCHILLY F 42 57:43 9:18 F4044 CHINLE, AZ

1408 793 TREVOR RITTER M 46 57:44 9:18 M4549 PHOENIX, AZ

1409 872 MICHELLE TSO F 43 57:45 9:18 F4044 MESA, AZ

1410 3330 SHANDRA SCOTT F 29 57:45 9:18 F2529 MESA, AZ

1411 4049 JAIME FLORES M 28 57:45 9:18 M2529 LAVEEN, AZ

1412 1678 JEREMY NORRED M 28 57:45 9:18 M2529 PHOENIX, AZ

1413 3703 MELISSA LEMPKE F 33 57:45 9:18 F3034 SCOTTSDALE, AZ

1414 1468 MARGARET PAULSON F 28 57:45 9:18 F2529 PHOENIX, AZ

1415 1121 SARA DEUTSCH F 28 57:45 9:18 F2529 GILBERT, AZ

1416 130 MATTHEW DAMORE M 27 57:46 9:18 M2529 PHOENIX, AZ

1417 2920 STAN ELDER M 48 57:46 9:18 M4549 PHOENIX, AZ

1418 231 SUSAN RIDDLE F 29 57:47 9:18 F2529 SCOTTSDALE, AZ

1419 1607 TONI JONES F 41 57:47 9:18 F4044 PHOENIX, AZ

1420 1785 DAVID MOORE M 39 57:48 9:19 M3539 PEORIA, AZ

1421 2821 BAILEY BROWN F 24 57:48 9:19 F2024 PHOENIX, AZ

1422 643 SERENA MEITNER F 32 57:48 9:19 F3034 TEMPE, AZ

1423 3159 KEVIN MASUR M 28 57:50 9:19 M2529 GLENDALE, AZ

1424 1687 NANCY LANDRY F 60 57:52 9:19 F6064 PHOENIX, AZ

1425 2699 MANNY HOLZ M 54 57:52 9:19 M5054 CHANDLER, AZ

1426 1427 JOSHUA CRAWFORD M 31 57:54 9:19 M3034 LAVEEN, AZ

1427 1278 ERIC FREED M 23 57:54 9:19 M2024 SCOTTSDALE, AZ

1428 3650 BRANDIE CATON F 24 57:54 9:20 F2024 CHANDLER, AZ

1429 1706 SUSAN FORD F 48 57:54 9:20 F4549 TEMPE, AZ

1430 3688 DAN HOGAN M 29 57:55 9:20 M2529 TEMPE, AZ

1431 3713 SAM MOGREN M 28 57:55 9:20 M2529 SCOTTSDALE, AZ

1432 2430 JOE ARAUX M 48 57:55 9:20 M4549 PHOENIX, AZ

1433 1597 DAN LOHAVANIJAYA M 37 57:55 9:20 M3539 CHANDLER, AZ

1434 3773 MARK GERSHMAN M 49 57:56 9:20 M4549 SCOTTSDALE, AZ

1435 3021 LAURA HEARD F 46 57:56 9:20 F4549 PHOENIX, AZ

1436 2543 PATRICK KELLY M 11 57:57 9:20 M1115 CAVE CREEK, AZ

1437 3988 JORDANO SESSIONS M 16 57:57 9:20 M1619 GILBERT, AZ

1438 3004 JEFF HALL M 47 57:59 9:20 M4549 SUN CITY WEST, AZ

1439 3404 BEN TOBIAS M 26 57:59 9:20 M2529 SCOTTSDALE, AZ

1440 3883 LEROY MEISTER M 57 57:59 9:20 M5559 TEMPE, AZ

1441 2759 DEE ATHNOS F 34 58:00 9:20 F3034 PHOENIX, AZ

1442 6529 STAN MARRIS M 40 58:00 9:21 M4044 ,

1443 6190 JERROD HARRIS M 30 58:01 9:21 M3034 ,

1444 3320 MARIO SALDAMANDO M 36 58:01 9:21 M3539 GOODYEAR, AZ

1445 3442 BARBARA WANKOWICZ F 53 58:02 9:21 F5054 PHOENIX, AZ

1446 3105 HARVEY KRAUSS M 56 58:02 9:21 M5559 GOODYEAR, AZ

1447 6513 MICHAEL PEDERSEN M 42 58:03 9:21 M4044 ,

1448 1610 NATHAN BASINGER M 11 58:03 9:21 M1115 TEMPE, AZ

1449 2764 EBRAHEEM AZHAR M 20 58:04 9:21 M2024 PHOENIX, AZ

1450 982 CHANTEL KULL F 30 58:04 9:21 F3034 FOUNTAIN HILLS, AZ

1451 3289 RICHARD REYNA M 32 58:05 9:21 M3034 TEMPE, AZ

1452 2851 STEVEN CARNEY M 40 58:05 9:21 M4044 GILBERT, AZ

1453 2976 CHERYL GIPSON-THURMAN F 44 58:05 9:21 F4044 AVONDALE, AZ

1454 828 STACY WELCH F 42 58:06 9:21 F4044 CHANDLER, AZ

1455 3738 GUILLERMO REYES M 46 58:06 9:21 M4549 PHOENIX, AZ

1456 2373 KIM HANKE F 43 58:07 9:22 F4044 CHANDLER, AZ

1457 1476 TAWNA NORTHINGTON F 21 58:07 9:22 F2024 MESA, AZ

1458 3110 KELLYANN LAFFEY F 38 58:08 9:22 F3539 PHOENIX, AZ

1459 1739 BEN ADAMO M 52 58:08 9:22 M5054 PHOENIX, AZ

1460 1251 KIM GIFFORD F 44 58:09 9:22 F4044 CHANDLER, AZ

1461 1750 MICHAEL MENDOZA M 25 58:09 9:22 M2529 TEMPE, AZ

1462 2937 MONICA FARRELL F 35 58:13 9:23 F3539 PHOENIX, AZ

1463 6724 UNKNOWN ENTRANT X 99 58:14 9:23 X9999 ,

1464 3706 NANCY MACDONELL F 32 58:14 9:23 F3034 SCOTTSDALE, AZ

1465 2798 MICHAEL BLACK M 59 58:14 9:23 M5559 PHOENIX, AZ

1466 1064 WENDY BLAIR F 37 58:15 9:23 F3539 PHOENIX, AZ

1467 2760 STEPHANIE ATKINS F 43 58:15 9:23 F4044 GILBERT, AZ

1468 2967 JAMES GARRITY M 38 58:18 9:23 M3539 CHANDLER, AZ

1469 2522 JUDY DOSECK F 43 58:18 9:23 F4044 SCOTTSDALE, AZ

1470 1330 PAT BINGMAN M 40 58:19 9:24 M4044 GLENDALE, AZ

1471 698 LARRY JAMES M 43 58:20 9:24 M4044 PHOENIX, AZ

1472 3633 DAVID AUZA M 40 58:20 9:24 M4044 ANTHEM, AZ

1473 2625 JASON RHODES M 30 58:20 9:24 M3034 CHANDLER, AZ

1474 3860 PATRICK SHEARAN M 36 58:20 9:24 M3539 TEMPE, AZ

1475 2234 CHAD MCKENZIE M 39 58:21 9:24 M3539 PARKER, AZ

1476 6588 ANTHONY GOOD M 45 58:22 9:24 M4549 ,

1477 1488 JUAN SALINAS M 54 58:22 9:24 M5054 PHOENIX, AZ

1478 523 JEFF WEELDREYER M 36 58:23 9:24 M3539 PHOENIX, AZ

1479 3204 KRISTINE MULLER F 35 58:23 9:24 F3539 PEORIA, AZ

1480 6107 GARY LAUTERBACH M 52 58:23 9:24 M5054 ,

1481 6492 FRANK LESSELYONG M 29 58:24 9:24 M2529 ,

1482 2427 BOB PESHAK M 36 58:24 9:24 M3539 TEMPE, AZ

1483 3517 CHRIS COOK F 51 58:24 9:24 F5054 PHOENIX, AZ

1484 1792 TINA KAMSEY F 41 58:25 9:24 F4044 PHOENIX, AZ

1485 541 DORIS BARR F 52 58:25 9:24 F5054 GLENDALE, AZ

1486 1823 LAURA RIGHTENBURG F 42 58:28 9:25 F4044 SCOTTSDALE, AZ

1487 1824 KARL SCHNEIDER M 34 58:28 9:25 M3034 SCOTTSDALE, AZ

1488 2426 ZACHARY SHIPP M 26 58:28 9:25 M2529 SCOTTSDALE, AZ

1489 743 KRISTA FRITZ F 29 58:28 9:25 F2529 CHANDLER, AZ

1490 3270 MARLENE PONTRELLI F 50 58:28 9:25 F5054 PHOENIX, AZ

1491 2562 DARIN POMATTO M 41 58:29 9:25 M4044 PHOENIX, AZ

1492 3378 STEVEN STREIFF M 49 58:29 9:25 M4549 PHOENIX, AZ

1493 387 NICHOLAS ESTRADA-STEPHEN M 18 58:29 9:25 M1619 PHOENIX, AZ

1494 3311 LINDSEY ROMERO F 24 58:29 9:25 F2024 MESA, AZ

1495 3299 FRED RICHIE M 56 58:29 9:25 M5559 PHOENIX, AZ

1496 1551 FRED PANDROK M 41 58:30 9:25 M4044 MESA, AZ

1497 6103 ANDREW LLOYD M 46 58:30 9:25 M4549 ,

1498 419 RAMSEY JABRO M 34 58:31 9:25 M3034 SCOTTSDALE, AZ

1499 1126 DALE HOOBLER M 39 58:31 9:26 M3539 GILBERT, AZ

1500 248 BRUCE BARRERA M 60 58:32 9:26 M6064 MESA, AZ

1501 2299 DIONNE KING F 35 58:32 9:26 F3539 AVONDALE, AZ

1502 6566 KERF DAVIES F 35 58:32 9:26 F3539 ,

1503 886 HANNAH LEWIS F 13 58:32 9:26 F1115 CHANDLER, AZ

1504 4094 MHEAGAN NEVLING F 27 58:33 9:26 F2529 PHOENIX, AZ

1505 1740 TRACI MOUSETIS F 48 58:33 9:26 F4549 PHOENIX, AZ

1506 1051 MANDY GHETTI F 31 58:33 9:26 F3034 PHOENIX, AZ

1507 3983 SUSAN ROWLAND F 32 58:35 9:26 F3034 PHOENIX, AZ

1508 2425 VIRGINIA SMITH F 22 58:35 9:26 F2024 SCOTTSDALE, AZ

1509 3714 MEGAN MONTGOMERY F 37 58:36 9:26 F3539 PHOENIX, AZ

1510 6646 WILLIAM MCBRAYER M 43 58:36 9:26 M4044 ,

1511 3269 SHELLEY POLSON F 29 58:36 9:26 F2529 TEMPE, AZ

1512 2788 CARRIE BEHRENS F 30 58:37 9:26 F3034 SCOTTSDALE, AZ

1513 3520 SHERYL CUEVAS F 28 58:37 9:26 F2529 MESA, AZ

1514 3853 ALYSON SCALETTY F 24 58:37 9:26 F2024 PHOENIX, AZ

1515 977 MARIN DAVIES F 23 58:37 9:26 F2024 SCOTTSDALE, AZ

1516 2298 BOB SKILES M 45 58:38 9:27 M4549 LAVEEN, AZ

1517 3599 MICHAEL SURGUINE M 31 58:39 9:27 M3034 SCOTTSDALE, AZ

1518 3597 PATTY SOMMERS F 52 58:39 9:27 F5054 MESA, AZ

1519 2514 JOHN CORCORAN M 47 58:40 9:27 M4549 PHOENIX, AZ

1520 3591 KENNETH SEMIEN M 46 58:41 9:27 M4549 GLENDALE, AZ

1521 3419 KYLE VALKENBURG M 31 58:41 9:27 M3034 PHOENIX, AZ

1522 2849 SAMANTHA CARLTON F 35 58:41 9:27 F3539 PHOENIX, AZ

1523 3507 ROBIN BRODY F 57 58:42 9:27 F5559 SCOTTSDALE, AZ

1524 451 PADDY O'FAHY M 56 58:42 9:27 M5559 SCOTTSDALE, AZ

1525 450 JULIA MACDONALD F 31 58:42 9:27 F3034 PHOENIX, AZ

1526 2916 LINDSAY EDMONDSON F 31 58:43 9:27 F3034 PHOENIX, AZ

1527 823 JORDAN HIMLIE F 27 58:43 9:27 F2529 TEMPE, AZ

1528 3920 CAROL CREASER F 37 58:43 9:27 F3539 PHOENIX, AZ

1529 2523 MARK DOSECK M 43 58:43 9:27 M4044 SCOTTSDALE, AZ

1530 144 JAMES LEE M 40 58:43 9:27 M4044 CAVE CREEK, AZ

1531 756 KATE MALONE F 42 58:43 9:27 F4044 PHOENIX, AZ

1532 2623 MELODY ROMERO F 36 58:44 9:28 F3539 CHANDLER, AZ

1533 2747 JOHN ALCORN SR M 66 58:44 9:28 M6569 GILBERT, AZ

1534 893 CHRISTOPHER SIMMS M 26 58:44 9:28 M2529 SCOTTSDALE, AZ

1535 636 MARGIE GLENN F 42 58:44 9:28 F4044 PHOENIX, AZ

1536 695 RANDY MILLER M 49 58:44 9:28 M4549 PHOENIX, AZ

1537 3422 WESLEY VANCE M 30 58:45 9:28 M3034 CHANDLER, AZ

1538 3307 MIKE ROGERS M 30 58:45 9:28 M3034 CHANDLER, AZ

1539 612 BERNADETTE MARSHALL F 43 58:46 9:28 F4044 PHOENIX, AZ

1540 2372 APRIL HULL F 43 58:47 9:28 F4044 MESA, AZ

1541 1098 THOMAS GIBSON M 43 58:48 9:28 M4044 SCOTTSDALE, AZ

1542 3185 CHRISTINE MEYER M 31 58:49 9:28 M3034 TEMPE, AZ

1543 3122 LANI LEE F 21 58:49 9:28 F2024 SURPROSE, AZ

1544 2360 BILL GUISE M 46 58:51 9:29 M4549 SCOTTSDALE, AZ

1545 2343 NATASCHA HEBELL F 41 58:51 9:29 F4044 MESA, AZ

1546 201 LAURA TAYLOR F 47 58:51 9:29 F4549 TEMPE, AZ

1547 3634 JILL AUZA F 36 58:52 9:29 F3539 ANTHEM, AZ

1548 3805 SCOTT GARLAND M 34 58:53 9:29 M3034 MESA, AZ

1549 1335 ANDY STEPHENS M 47 58:53 9:29 M4549 MESA, AZ

1550 3087 DAWN KEMMER F 37 58:54 9:29 F3539 CHANDLER, AZ

1551 6649 SHELLEY WANNER F 43 58:55 9:29 F4044 ,

1552 278 BETH LEWANDOWSKY F 43 58:55 9:29 F4044 PHOENIX, AZ

1553 877 MISCHA OREILLY F 36 58:55 9:29 F3539 PHOENIX, AZ

1554 1203 DAVID TORSKA M 49 58:55 9:29 M4549 GILBERT, AZ

1555 3916 JANE CLEMONS F 50 58:55 9:29 F5054 PHOENIX, AZ

1556 4115 AMANDA SMITH F 28 58:56 9:29 F2529 PHOENIX, AZ

1557 1433 SARA LYNESS F 28 58:56 9:29 F2529 SCOTTSDALE, AZ

1558 6259 DARLA BEGAY F 39 58:57 9:30 F3539 ,

1559 6628 CHERYL SNODGRASS F 34 58:57 9:30 F3034 ,

1560 1334 SANDRA HOEFFER F 31 58:58 9:30 F3034 PHOENIX, AZ

1561 2462 JANICE DINNER F 50 59:00 9:30 F5054 PARADISE VALLEY, AZ

1562 6460 SHANA DUFFY F 41 59:01 9:30 F4044 ,

1563 6491 FRANK LESSELYONG M 56 59:03 9:31 M5559 ,

1564 3218 JILL NEWSON F 41 59:03 9:31 F4044 PHOENIX, AZ

1565 545 LORI RODRIGUEZ F 29 59:03 9:31 F2529 TOLLESON, AZ

1566 3167 RACHELLE MCCRACKEN F 31 59:03 9:31 F3034 MESA, AZ

1567 2411 DALE SMITH M 60 59:03 9:31 M6064 OVERGAARD, AZ

1568 3474 MICHAEL WILLIAMS M 34 59:03 9:31 M3034 TEMPE, AZ

1569 2296 ROBBIE BARBER F 46 59:04 9:31 F4549 MESA, AZ

1570 3399 DOUGLAS THOENE M 33 59:05 9:31 M3034 PHOENIX, AZ

1571 3843 KATHLEEN RABY F 41 59:05 9:31 F4044 CHANDLER,, AZ

1572 438 TODD VERKEST M 34 59:06 9:31 M3034 PHOENIX, AZ

1573 3115 JENNY LANGE F 25 59:06 9:31 F2529 CHANDLER, AZ

1574 1177 ERICA KUTNICK F 38 59:06 9:31 F3539 CHANDLER, AZ

1575 2970 JAMIE GERALD F 31 59:06 9:31 F3034 SURPRISE, AZ

1576 6181 ANDREW FELIZ M 29 59:06 9:31 M2529 ,

1577 3728 SARA PLACEY F 27 59:06 9:31 F2529 PHOENIX, AZ

1578 809 LAUREN ALLEN F 27 59:07 9:31 F2529 PHOENIX, AZ

1579 1052 MICHAEL CHADWICK M 30 59:07 9:31 M3034 PHOENIX, AZ

1580 1524 DAVE CHOS M 59 59:07 9:31 M5559 CHANDLER, AZ

1581 162 MARIE SCHILLINGER F 47 59:08 9:31 F4549 PHOENIX, AZ

1582 637 MICHAEL SEABURGH M 53 59:08 9:31 M5054 PHOENIX, AZ

1583 3524 HELMUTH EGGELING M 34 59:09 9:32 M3034 SCOTTSDALE, AZ

1584 3467 JENNIFER WILKINS F 30 59:09 9:32 F3034 MESA, AZ

1585 3945 DEBRA GUTIERREZ F 40 59:09 9:32 F4044 PHOENIX, AZ

1586 3166 MICHAEL MCCRACKEN M 32 59:09 9:32 M3034 MESA, AZ

1587 3354 STEVE SNODGRASS M 32 59:10 9:32 M3034 TEMPE, AZ

1588 2820 JASON BROMERT M 32 59:11 9:32 M3034 GILBERT, AZ

1589 2689 IAN DUNN M 32 59:12 9:32 M3034 GLENDALE, AZ

1590 3296 LINDA RHODES F 49 59:13 9:32 F4549 TEMPE, AZ

1591 2595 BECKIE TOBIN F 29 59:13 9:32 F2529 FLAGSTAFF, AZ

1592 722 BETSY LONG F 42 59:14 9:32 F4044 PHOENIX, AZ

1593 351 ELIZABETH SMART F 25 59:16 9:33 F2529 PHOENIX, AZ

1594 1540 ANN MARIE MATTHEWS F 35 59:16 9:33 F3539 TEMPE, AZ

1595 1014 BRENT SID M 43 59:17 9:33 M4044 SCOTTSDALE, AZ

1596 2555 MICHAEL MORRISON M 55 59:17 9:33 M5559 GLENDALE, AZ

1597 3066 JUAN JAUREGUI M 32 59:18 9:33 M3034 PHOENIX, AZ

1598 3534 SARA HAWTHORNE F 29 59:18 9:33 F2529 PHOENIX, AZ

1599 6050 MAX EVERHART M 44 59:18 9:33 M4044 ,

1600 4133 MANUEL VIDAURE M 36 59:18 9:33 M3539 GILBERT, AZ

1601 1101 KEN MCKINNEY M 68 59:19 9:33 M6569 SUN LAKES, AZ

1602 3679 ELISABETH HARRIS F 23 59:23 9:34 F2024 PHOENIX, AZ

1603 1426 ADAM POLKA M 38 59:24 9:34 M3539 CHANDLER, AZ

1604 2778 DEBORAH BASH F 46 59:25 9:34 F4549 SCOTTSDALE, AZ

1605 3946 SHERYL HAARMAN F 31 59:25 9:34 F3034 PHOENIX, AZ

1606 3176 AMY MCNAIR F 35 59:25 9:34 F3539 PHOENIX, AZ

1607 1319 KATHLEEN HARRISON F 34 59:26 9:34 F3034 MESA, AZ

1608 3789 DAVE BYBEE M 31 59:26 9:34 M3034 GLENDALE, AZ

1609 4009 ELIZABETH VORE F 27 59:27 9:34 F2529 TEMPE, AZ

1610 1587 JOY OLSON F 26 59:28 9:35 F2529 CHANDLER, AZ

1611 3292 MELINDA REYNOLDS F 40 59:28 9:35 F4044 CHANDLER, AZ

1612 3291 JEFFREY REYNOLDS M 42 59:28 9:35 M4044 CHANDLER, AZ

1613 3207 PRARTHANA MYSORE F 37 59:29 9:35 F3539 GILBERT, AZ

1614 194 GAY LUX F 41 59:29 9:35 F4044 SCOTTSDALE, AZ

1615 871 JANET FOOTE F 49 59:30 9:35 F4549 SCOTTSDALE, AZ

1616 1531 CAMILLE LOUDENBECK F 65 59:31 9:35 F6569 TEMPE, AZ

1617 1487 MARK MULDONADO M 32 59:31 9:35 M3034 PHOENIX, AZ

1618 277 JEFFREY DONNELLS M 50 59:31 9:35 M5054 MESA, AZ

1619 850 STEPHANUS DUVENHAGE M 36 59:32 9:35 M3539 PHOENIX, AZ

1620 1039 JONANDA DUVENHAGE F 36 59:32 9:35 F3539 PHOENIX, AZ

1621 3329 LISA SCIBETTA F 46 59:33 9:35 F4549 FLAGSTAFF, AZ

1622 2979 DOMINIC GOMEZ M 26 59:35 9:36 M2529 PHOENIX, AZ

1623 554 BOBBI HALVEVSON F 44 59:36 9:36 F4044 PHOENIX, AZ

1624 6005 BRETT STENHOUSE M 36 59:38 9:36 M3539 ,

1625 3619 TRACEY KRAMER F 31 59:39 9:36 F3034 PHOENIX, AZ

1626 4124 JILLIAN SWEENEY F 21 59:39 9:36 F2024 PHOENIX, AZ

1627 924 RICH MOGULL M 36 59:39 9:36 M3539 PHOENIX, AZ

1628 3851 RICHARD RUSSELL M 35 59:40 9:37 M3539 TEMPE, AZ

1629 3346 DIANE SIMON F 43 59:40 9:37 F4044 GLENDALE, AZ

1630 318 CRYSTAL STEFFLER F 15 59:40 9:37 F1115 GLENDALE, AZ

1631 1380 ALICIA GIFFORD F 21 59:41 9:37 F2024 CHANDLER, AZ

1632 1415 HEATHER ATENCIO F 25 59:42 9:37 F2529 PEORIA, AZ

1633 2435 AMY HANSON F 27 59:42 9:37 F2529 PEORIA, AZ

1634 3457 WENDY WENTZ F 34 59:43 9:37 F3034 PHOENIX, AZ

1635 3456 MICHAEL WENTZ M 37 59:43 9:37 M3539 PHOENIX, AZ

1636 618 RICHARD DAVENPORT M 53 59:44 9:37 M5054 TEMPE, AZ

1637 1703 DONEEN GRIMM F 32 59:44 9:37 F3034 CHANDLER, AZ

1638 268 STEPHANIE ANDERSON F 40 59:44 9:37 F4044 PHOENIX, AZ

1639 4083 JOHNNY LOVE M 26 59:46 9:38 M2529 PHOENIX, AZ

1640 3107 MEGAN KUGLER F 24 59:46 9:38 F2024 SCOTTSDALE, AZ

1641 393 KELLEY HALVERSON F 26 59:46 9:38 F2529 PHOENIX, AZ

1642 620 DEBBIE DAVENPORT F 52 59:47 9:38 F5054 TEMPE, AZ

1643 6343 JOE PALAIS M 36 59:47 9:38 M3539 ,

1644 1469 MARNIE MARQUARDT F 39 59:47 9:38 F3539 SCOTTSDALE, AZ

1645 3760 ERIN WESTERMAN F 38 59:48 9:38 F3539 PEORIA, AZ

1646 3986 CARON SADA F 42 59:48 9:38 F4044 PEORIA, AZ

1647 656 TOM WASHATKA M 50 59:49 9:38 M5054 CHANDLER, AZ

1648 1108 NICK BRACAMONTE M 49 59:49 9:38 M4549 CHANDLER, AZ

1649 3926 KAREN EBNER F 32 59:50 9:38 F3034 PHOENIX, AZ

1650 724 DERICK KURDY M 29 59:50 9:38 M2529 CHANDLER, AZ

1651 2236 STEVE SLUPSKY M 48 59:50 9:38 M4549 PARKER, AZ

1652 2847 SHAWN CANTWELL F 29 59:51 9:38 F2529 PHOENIX, AZ

1653 3684 FRED HESKETT M 61 59:51 9:38 M6064 SCOTTSDALE, AZ

1654 4043 DELAINE DESCHINEY F 27 59:51 9:38 F2529 GALLUP, NM

1655 208 JEFFREY PYNE M 36 59:51 9:38 M3539 PHOENIX, AZ

1656 3697 HEIDI KNABE F 22 59:51 9:38 F2024 TEMPE, AZ

1657 1217 SUNDAYE TYLER F 34 59:52 9:38 F3034 GILBERT, AZ

1658 641 BOB GOSWICK M 64 59:52 9:39 M6064 PHOENIX, AZ

1659 2810 DORY BOYER F 46 59:53 9:39 F4549 PHOENIX, AZ

1660 6517 DIANE MCBOWAN F 47 59:53 9:39 F4549 ,

1661 624 LINDA FARFANTE F 44 59:53 9:39 F4044 PHOENIX, AZ

1662 3821 MICHAEL KREBS M 50 59:54 9:39 M5054 SCOTTSDALE, AZ

1663 3310 DANIEL ROMERO M 57 59:56 9:39 M5559 MESA, AZ

1664 2463 CONNIE WURST F 38 59:56 9:39 F3539 PHOENIX, AZ

1665 146 SARAH SPEER F 36 59:56 9:39 F3539 PHOENIX, AZ

1666 6183 JULIE GANN F 34 59:57 9:39 F3034 ,

1667 1461 DAVID KIEL M 42 59:57 9:39 M4044 PHOENIX, AZ

1668 949 LANCE JOHNSON M 39 59:57 9:39 M3539 MESA, AZ

1669 3227 KAREN OPPEN F 33 59:58 9:39 F3034 CHANDLER, AZ

1670 752 JOANNE STROUD F 55 59:59 9:40 F5559 PHOENIX, AZ

1671 2965 PAUL GARREN M 73 1:00:00 9:40 M7074 MIAMI, AZ

1672 3990 RAHMAR SHELTON M 35 1:00:01 9:40 M3539 PHOENIX, AZ

1673 4007 ANNIELAURIE VAN WIE F 36 1:00:01 9:40 F3539 PHOENIX, AZ

1674 2902 ANDRE DODGE M 11 1:00:01 9:40 M1115 TEMPE, AZ

1675 3487 GABRIEL YBARRA M 35 1:00:02 9:40 M3539 PHOENIX, AZ

1676 6342 KARA EDWARDS F 43 1:00:02 9:40 F4044 ,

1677 1248 MARK DECROCE M 40 1:00:02 9:40 M4044 PHOENIX, AZ

1678 3681 JILL HEGEDUS F 39 1:00:02 9:40 F3539 SURPRISE, AZ

1679 166 JOHN MURE M 46 1:00:03 9:40 M4549 PHOENIX, AZ

1680 6525 ULRICH BRUCKNER M 45 1:00:03 9:40 M4549 ,

1681 2858 GERARDO CAZARES M 37 1:00:03 9:40 M3539 CHANDLER, AZ

1682 3210 BASEL NASER M 30 1:00:04 9:40 M3034 LAVEEN, AZ

1683 6316 ANDREW PARK M 29 1:00:04 9:40 M2529 ,

1684 509 MONIQUE SINCLAIR F 31 1:00:04 9:40 F3034 PHOENIX, AZ

1685 6204 KRISTI PICKEREL F 37 1:00:04 9:40 F3539 ,

1686 2718 BRENDA HUFF F 36 1:00:04 9:40 F3539 MESA, AZ

1687 399 MEREDITH GRIFFIN F 31 1:00:05 9:41 F3034 PHOENIX, AZ

1688 3479 LEE WOODWARD F 37 1:00:05 9:41 F3539 PHOENIX, AL

1689 2959 DAN FULLER M 49 1:00:05 9:41 M4549 MESA, AZ

1690 2318 JAY TOBIAS M 59 1:00:06 9:41 M5559 SCOTTSDALE, AZ

1691 6713 RENEE OCHOA M 30 1:00:06 9:41 M3034 ,

1692 2984 FRANK GOODWIN M 19 1:00:07 9:41 M1619 PHOENIX, AZ

1693 2754 CARYN ANSON F 43 1:00:07 9:41 F4044 GILBERT, AZ

1694 475 NICOLE PONDELL F 26 1:00:09 9:41 F2529 TEMPE, AZ

1695 3668 CATHRYN GOROSPE F 34 1:00:09 9:41 F3034 PHOENIX, AZ

1696 3723 MICHAEL OLSON F 42 1:00:10 9:41 F4044 CHANDLER, AZ

1697 3989 VITALE SESSIONS M 38 1:00:11 9:42 M3539 GILBERT, AZ

1698 2841 JON CALDERONE M 32 1:00:12 9:42 M3034 CAVE CREEK, AZ

1699 197 TAMMY MAAS F 39 1:00:12 9:42 F3539 PEORIA, AZ

1700 3646 SANDA CAMPBELL F 28 1:00:12 9:42 F2529 TOLLESON, AZ

1701 1046 TIMOTHY LE M 24 1:00:12 9:42 M2024 PHOENIX, AZ

1702 4000 MELISSA TELLEZ F 31 1:00:14 9:42 F3034 PHOENIX, AZ

1703 3197 STEVE MITCHELL M 43 1:00:15 9:42 M4044 CHANDLER, AZ

1704 3838 ALYSSA PATNODE F 31 1:00:15 9:42 F3034 PHOENIX, AZ

1705 1428 TIERRA CRAWFORD F 27 1:00:16 9:42 F2529 LAVEEN, AZ

1706 2264 MARK POTOCNJAK M 36 1:00:16 9:42 M3539 GILBERT, AZ

1707 2890 TARA DAVIS F 35 1:00:17 9:43 F3539 SCOTTSDALE, AZ

1708 2903 MICHELLE DODGE F 45 1:00:17 9:43 F4549 TEMPE, AZ

1709 2371 ANNE BERG F 27 1:00:19 9:43 F2529 GILBERT, AZ

1710 1078 BILL BERGEMAN M 32 1:00:19 9:43 M3034 TEMPE, AZ

1711 2953 LISA FREBERG F 27 1:00:19 9:43 F2529 PHOENIX, AZ

1712 129 GARY DAMORE M 55 1:00:20 9:43 M5559 SCOTTSDALE, AZ

1713 1536 KERRY SCHAFER F 50 1:00:21 9:43 F5054 MESA, AZ

1714 255 ERIC DUMON M 31 1:00:21 9:43 M3034 PHOENIX, AZ

1715 3285 MARK REINOSO M 34 1:00:22 9:43 M3034 MESA, AZ

1716 2695 SHANTAY GATTIS F 32 1:00:22 9:43 F3034 GOODYEAR, AZ

1717 1430 LUANNE LAMB F 29 1:00:23 9:43 F2529 PHOENIX, AZ

1718 1696 BRAD WILLCOX M 45 1:00:23 9:43 M4549 GLENDALE, AZ

1719 3077 CARL JONES M 32 1:00:23 9:44 M3034 PHOENIX, AZ

1720 2517 AUDREY DAMON F 36 1:00:23 9:44 F3539 PHOENIX, AZ

1721 3403 TABITHA THORNHILL F 38 1:00:23 9:44 F3539 TUCSON, AZ

1722 4131 BROCK UNGVARSKY M 18 1:00:24 9:44 M1619 PHOENIX, AZ

1723 4132 KIM UNGVARSKY F 46 1:00:24 9:44 F4549 PHOENIX, AZ

1724 2985 FRANK GOODWIN M 44 1:00:26 9:44 M4044 MESA, AZ

1725 321 DOUG HILL M 43 1:00:28 9:44 M4044 PHOENIX, AZ

1726 2598 JENNIFER MADSON F 34 1:00:30 9:45 F3034 CHANDLER, AZ

1727 3135 AMY LONG F 28 1:00:32 9:45 F2529 PHOENIX, AZ

1728 2466 NANCY HUDSON F 45 1:00:33 9:45 F4549 TEMPE, AZ

1729 309 KAREN MILLER F 55 1:00:33 9:45 F5559 PHOENIX, AZ

1730 3541 DIANA JACKSON F 27 1:00:35 9:45 F2529 GILBERT, AZ

1731 909 SEAN GREEN M 22 1:00:35 9:45 M2024 GILBERT, AZ

1732 332 SUE WAGNER F 52 1:00:36 9:46 F5054 CAVE CREEK, AZ

1733 3258 ROBIN PHILLIPS F 52 1:00:37 9:46 F5054 TEMPE, AZ

1734 2791 BEN BENEDICT M 38 1:00:37 9:46 M3539 TEMPE, AZ

1735 2271 TED DANGLER M 37 1:00:38 9:46 M3539 PHOENIX, AZ

1736 2972 DEBRA GERSTEN F 52 1:00:39 9:46 F5054 SCOTTSDALE, AZ

1737 2634 ABDUL DADA M 36 1:00:39 9:46 M3539 PHOENIX, AZ

1738 3155 KEVIN MARTIN M 34 1:00:40 9:46 M3034 TEMPE, AZ

1739 2719 TOM MARLOWE M 36 1:00:41 9:46 M3539 PHOENIX, AZ

1740 2954 SANDY FREDRICKS F 42 1:00:42 9:47 F4044 QUEEN CREEK, AZ

1741 1520 HOA LE F 41 1:00:46 9:47 F4044 CHANDLER, AZ

1742 2382 TEMPLE HARRIS F 37 1:00:47 9:47 F3539 CHANDLER, AZ

1743 3680 KATHERINE HARROFF F 24 1:00:48 9:48 F2024 MESA, AZ

1744 2601 HEATHER BETSKO F 29 1:00:49 9:48 F2529 CHANDLER, AZ

1745 297 TERI MAHONEY F 46 1:00:49 9:48 F4549 PHOENIX, AZ

1746 4082 SARAH LOEWEN F 24 1:00:49 9:48 F2024 GLENDALE, AZ

1747 140 JENNIFER RAVENSWOOD F 34 1:00:51 9:48 F3034 PHOENIX, AZ

1748 2922 APRIL ELLIS F 35 1:00:51 9:48 F3539 CHANDLER, AZ

1749 2740 MARIA ABRAMS F 46 1:00:51 9:48 F4549 PHOENIX, AZ

1750 1207 MIKE VOLPENTEST M 42 1:00:51 9:48 M4044 CHANDLER, AZ

1751 3278 MARYHELEN RAMIREZ F 51 1:00:51 9:48 F5054 SCOTTSDALE, AZ

1752 1279 JIM DILGARD M 59 1:00:52 9:48 M5559 TEMPE, AZ

1753 3429 MICHAEL VETRANO M 46 1:00:52 9:48 M4549 PARADISE VALLEYA, A

1754 825 REBECCA SORENSON F 27 1:00:53 9:48 F2529 QUEEN CREEK, AZ

1755 824 SCOTT SORENSON M 27 1:00:53 9:48 M2529 QUEEN CREEK, AZ

1756 3328 KATIE SCHRAMM F 25 1:00:53 9:48 F2529 SCOTTSDALE, AZ

1757 3059 MICHELE JACK F 35 1:00:54 9:49 F3539 PHOENIX, AZ

1758 3165 RENEE MCALLISTER F 32 1:00:55 9:49 F3034 CHANDLER, AZ

1759 642 VENESSA THOMPSON F 32 1:00:56 9:49 F3034 CHANDLER, AZ

1760 3909 TOM BRUNER M 56 1:00:58 9:49 M5559 MESA, AZ

1761 386 MICHAEL SHUFELDT M 18 1:00:58 9:49 M1619 PARADISE VALLEY, AZ

1762 6211 STEPHANIE HOLBROOK F 38 1:00:58 9:49 F3539 ,

1763 3261 KATIE PIPER F 25 1:00:59 9:49 F2529 PHOENIX, AZ

1764 3840 SAMANTHA PETTIT F 14 1:01:01 9:50 F1115 GLENDALE, AZ

1765 2288 ANDREA ABSHERE F 36 1:01:01 9:50 F3539 CHANDLER, AZ

1766 188 LINDDIE HUNTER F 34 1:01:02 9:50 F3034 CHANDLER, AZ

1767 2471 LINDA TIMMONS F 32 1:01:02 9:50 F3034 PHOENIX, AZ

1768 761 KEN DICKSON M 51 1:01:02 9:50 M5054 PHOENIX, AZ

1769 762 HAILEY DICKSON F 11 1:01:02 9:50 F1115 PHOENIX, AZ

1770 804 JERI THOMPSON F 35 1:01:02 9:50 F3539 PHOENIX, AZ

1771 1479 HIRAL TIPIRNENI F 40 1:01:02 9:50 F4044 GLENDALE, AZ

1772 3206 MICHAEL MURRIETA M 36 1:01:03 9:50 M3539 MESA, AZ

1773 3341 JOHN SHUFELDT M 47 1:01:03 9:50 M4549 MESA, AZ

1774 1515 MARC BENSON M 47 1:01:05 9:50 M4549 TEMPE, AZ

1775 280 VIC MARTINEZ M 57 1:01:05 9:50 M5559 SCOTTSDALE, AZ

1776 3850 ALISA ROSENBERG F 37 1:01:06 9:50 F3539 SCOTTSDALE, AZ

1777 3622 SUSAN PAK F 36 1:01:06 9:50 F3539 PHOENIX, AZ

1778 1561 KIMBERLY WELSH F 33 1:01:06 9:50 F3034 CHANDLER, AZ

1779 229 JESSICA VEASEY F 25 1:01:07 9:51 F2529 SCOTTSDALE, AZ

1780 2459 JODI MONDRAGON F 38 1:01:07 9:51 F3539 CHANDLER, AZ

1781 230 ANNA PATHUIS F 25 1:01:07 9:51 F2529 SCOTTSDALE, AZ

1782 3309 CLAIRE ROMERO F 39 1:01:08 9:51 F3539 MESA, AZ

1783 6210 RICK BRANAM M 42 1:01:09 9:51 M4044 ,

1784 3475 KIM WILSON F 32 1:01:10 9:51 F3034 MESA, AZ

1785 3797 LILY DURAN F 27 1:01:10 9:51 F2529 CHANDLER, AZ

1786 3295 SHARLAH REYNOLDS F 38 1:01:10 9:51 F3539 MESA, AZ

1787 3364 LORA SPEIGHTS F 25 1:01:10 9:51 F2529 PHOENIX, AZ

1788 6220 ALMA FUENTES F 35 1:01:12 9:51 F3539 ,

1789 1416 ABIGAIL ATENCIO F 23 1:01:12 9:51 F2024 PEORIA, AZ

1790 4147 EDDIE CALDERON M 38 1:01:13 9:52 M3539 PHOENIX, AZ

1791 3917 KIRSTEN CLIFFORD F 35 1:01:13 9:52 F3539 PHOENIX, AZ

1792 431 BRIAN KULFAN M 30 1:01:13 9:52 M3034 SCOTTSDALE, AZ

1793 6574 BRIDGET BINSTOCK F 38 1:01:14 9:52 F3539 ,

1794 3675 VICTORIA GREER F 36 1:01:14 9:52 F3539 ANTHEM, AZ

1795 648 HEATHER GRAY F 33 1:01:14 9:52 F3034 PHOENIX, AZ

1796 3837 JOLENE NEWMAN F 29 1:01:15 9:52 F2529 PHOENIX, AZ

1797 857 MELANIE REAL F 31 1:01:15 9:52 F3034 MESA, AZ

1798 629 MATTHEW ANTHONY M 46 1:01:16 9:52 M4549 TEMPE, AZ

1799 3492 SARA ZIMMERMANN F 32 1:01:17 9:52 F3034 MESA, AZ

1800 1700 NEXA BEARDSLEY F 48 1:01:18 9:52 F4549 TEMPE, AZ

1801 2633 KAREN DADA F 36 1:01:18 9:52 F3539 PHOENIX, AZ

1802 2698 KATIE HOLZ F 23 1:01:20 9:53 F2024 CHANDLER, AZ

1803 3512 SABRINA CILLESSEN F 35 1:01:20 9:53 F3539 PHOENIX, AZ

1804 219 KRISTEN RYAN F 27 1:01:21 9:53 F2529 SUN CITY, AZ

1805 6253 CARMINE PRIMIANO M 32 1:01:22 9:53 M3034 ,

1806 900 GLENN RUSSELL M 49 1:01:23 9:53 M4549 GLENDALE, AZ

1807 3113 JOHN LAKE M 52 1:01:23 9:53 M5054 PHOENIX, AZ

1808 3458 DANIELLE WESTERMAN F 31 1:01:23 9:53 F3034 PHOENIX, AZ

1809 3702 MATT LANGMAN M 34 1:01:23 9:53 M3034 PHOENIX, AZ

1810 3716 ASHLEY MUENZ F 19 1:01:23 9:53 F1619 TEMPE, AZ

1811 269 MICK DAVIS F 38 1:01:26 9:54 F3539 PHOENIX, AZ

1812 3845 LINDSAY ROBINSON F 31 1:01:28 9:54 F3034 PHOENIX, AZ

1813 922 SHARON MENNIE F 31 1:01:29 9:54 F3034 PHOENIX, AZ

1814 6644 NATI SANCHEZ F 36 1:01:30 9:54 F3539 ,

1815 4156 SANDY HINOJOSA F 48 1:01:31 9:54 F4549 CHANDLER, AZ

1816 6346 KIM CORGAN F 33 1:01:31 9:54 F3034 ,

1817 3331 TINA SECREST F 34 1:01:31 9:54 F3034 SCOTTSDALE, AZ

1818 551 JENE BROADWAY F 32 1:01:31 9:54 F3034 PHOENIX, AZ

1819 1111 KRISTINE JENNINGS F 31 1:01:31 9:54 F3034 GILBERT, AZ

1820 1110 JACI SCULLY F 45 1:01:32 9:55 F4549 PHOENIX, AZ

1821 3585 BRITTANY ROSS F 26 1:01:32 9:55 F2529 CHANDLER, AZ

1822 6454 CHRIS WAGNER M 27 1:01:32 9:55 M2529 ,

1823 2249 PAUL GRAY M 42 1:01:33 9:55 M4044 PHOENIX, AZ

1824 2437 AZAR MESZAROS F 42 1:01:33 9:55 F4044 SCOTTSDALE, AZ

1825 3449 SYRIA WATSON F 45 1:01:36 9:55 F4549 CHANDLER, AZ

1826 2350 OLIVIA SPARKS F 30 1:01:36 9:55 F3034 CHANDLER, AZ

1827 727 ORLANDO SANCHEZ M 27 1:01:36 9:55 M2529 PHOENIX, AZ

1828 6647 BRIAN STOTTS M 47 1:01:37 9:55 M4549 ,

1829 460 DARREN BERNARD M 30 1:01:39 9:56 M3034 ANTHEM, AZ

1830 1092 HEIDI PAUL F 37 1:01:41 9:56 F3539 PHOENIX, AZ

1831 3733 DANIELLE PYEVICH F 33 1:01:42 9:56 F3034 SCOTTSDALE, AZ

1832 6545 BOB HARTMAN M 48 1:01:42 9:56 M4549 ,

1833 6457 JERI MCGEE F 51 1:01:45 9:57 F5054 ,

1834 516 PAM PHELAN F 37 1:01:45 9:57 F3539 PEORIA, AZ

1835 6022 DARRELL DUTY M 31 1:01:46 9:57 M3034 ,

1836 2931 NORMA ERIVEZ F 37 1:01:47 9:57 F3539 BUCKEYE, AZ

1837 639 LYDIA CONROY F 41 1:01:49 9:57 F4044 PHOENIX, AZ

1838 3829 ERIC MARTIN M 37 1:01:50 9:57 M3539 SCOTTSDALE, AZ

1839 4051 ROBYN GARSON F 35 1:01:50 9:57 F3539 CAVE CREEK, AZ

1840 1374 CHRISTINE MINCH F 28 1:01:50 9:57 F2529 MESA, AZ

1841 2684 SYDNEY BETHEL F 13 1:01:51 9:58 F1115 CHANDLER, AZ

1842 3382 MIKE SURGUINE M 57 1:01:52 9:58 M5559 PARADISE VALLEY, AZ

1843 6138 AMANDA BABCOCK F 29 1:01:54 9:58 F2529 ,

1844 6405 KIM FAUST F 38 1:01:54 9:58 F3539 ,

1845 2842 EMILY CALL F 28 1:01:54 9:58 F2529 GILBERT, AZ

1846 3406 BECKY TOMASZEWSKI F 37 1:01:54 9:58 F3539 TEMPE, AZ

1847 3631 ROBERT AMANN M 32 1:01:55 9:58 M3034 PHOENIX, AZ

1848 6735 UNKNOWN ENTRANT X 99 1:01:55 9:58 X9999 ,

1849 962 ERIKA NYGRAN F 29 1:01:55 9:58 F2529 PHOENIX, AZ

1850 1099 DANIEL SMITH M 49 1:01:55 9:58 M4549 PHOENIX, AZ

1851 1455 LEE ANNE RUGEL F 44 1:01:55 9:58 F4044 MESA, AZ

1852 1160 LORY RAWSON F 34 1:01:56 9:59 F3034 MESA, AZ

1853 1161 JOHN MAHNKE M 38 1:01:57 9:59 M3539 MESA, AZ

1854 1605 BRYCE GUNDRY M 24 1:01:57 9:59 M2024 CHANDLER, AZ

1855 1093 SHEILA REED F 48 1:01:58 9:59 F4549 PHOENIX, AZ

1856 6535 DENA ARMSTRONG F 38 1:01:58 9:59 F3539 ,

1857 238 JEFF MENDOZA M 42 1:01:59 9:59 M4044 SURPRISE, AZ

1858 6544 CORI HENDRICKS F 27 1:01:59 9:59 F2529 ,

1859 3852 LINDSAY RUSSO F 27 1:01:59 9:59 F2529 PHOENIX, AZ

1860 2442 JUAN PADILLA M 49 1:02:01 9:59 M4549 TEMPE, AZ

1861 6506 TARA BLAISDELL F 27 1:02:01 9:59 F2529 ,

1862 1350 JIM BRIDGEWATER M 33 1:02:02 9:59 M3034 MESA, AZ

1863 2683 STACEY BETHEL F 43 1:02:03 9:59 F4044 CHANDLER, AZ

1864 2408 BENNETT IRWIN M 31 1:02:04 10:00 M3034 PHOENIX, AZ

1865 1694 SIBIA MANZANAREZ F 27 1:02:04 10:00 F2529 PHOENIX, AZ

1866 806 MICHELLE CHENEY F 36 1:02:04 10:00 F3539 PEORIA, AZ

1867 6314 CHRISTINE PLESCH F 24 1:02:05 10:00 F2024 ,

1868 3708 AMY MCCAMPBELL F 27 1:02:05 10:00 F2529 PHOENIX, AZ

1869 3083 MEAGHAN KECK F 23 1:02:07 10:00 F2024 TEMPE, AZ

1870 2434 GENE GANSSLE M 44 1:02:07 10:00 M4044 TEMPE, AZ

1871 2301 HEATHER LOCKE F 28 1:02:09 10:01 F2529 FOUNTAIN HILLS, AZ

1872 2572 LISA STONE F 41 1:02:10 10:01 F4044 SCOTTSDALE, AZ

1873 6207 PEGGY AUTTERSON F 37 1:02:10 10:01 F3539 ,

1874 6046 ED MILLER M 58 1:02:10 10:01 M5559 ,

1875 1762 KATIE MCWHIRTER F 40 1:02:12 10:01 F4044 TEMPE, AZ

1876 1088 HANNA BRITTON F 28 1:02:14 10:01 F2529 CHANDLER, AZ

1877 4116 JENNIFER SMITH F 40 1:02:14 10:01 F4044 PHOENIX, AZ

1878 3939 HAYLEY FORSYTH F 32 1:02:14 10:01 F3034 CHANDLER, AZ

1879 3000 MELISSA HAKE F 24 1:02:15 10:01 F2024 TEMPE, AZ

1880 2938 KELLY FEIRFEIL F 24 1:02:15 10:01 F2024 CHANDLER, AZ

1881 1393 KELLY ANN OMEARA F 46 1:02:15 10:01 F4549 TEMPE, AZ

1882 3118 VICTORIA LAUER F 44 1:02:15 10:02 F4044 MESA, AZ

1883 2352 MYLEE PUETZ F 38 1:02:17 10:02 F3539 CAVE CREEK, AZ

1884 6510 PAUL SMITH M 42 1:02:17 10:02 M4044 ,

1885 4118 JEN SPOSATO F 37 1:02:17 10:02 F3539 SCOTTSDALE, AZ

1886 2885 TARA CURRY F 27 1:02:19 10:02 F2529 SCOTTSDALE, AZ

1887 3934 BROOKE FINLEY F 14 1:02:19 10:02 F1115 MESA, AZ

1888 110 MARCUS NEZ M 20 1:02:19 10:02 M2024 CHINLE, AZ

1889 1756 PAMELA DAYCHILD M 43 1:02:20 10:02 M4044 PHOENIX, AZ

1890 3778 CAROLINE AUSTIN F 41 1:02:20 10:02 F4044 PHOENIX, AZ

1891 1295 LUISITO SARMIENTO M 43 1:02:20 10:02 M4044 MESA, AZ

1892 461 KELLY SANDERS F 34 1:02:21 10:02 F3034 PHOENIX, AZ

1893 3134 KRISTA LOMBARDO F 35 1:02:21 10:02 F3539 PHOENIX, AZ

1894 6288 DEBRA AUBREY F 47 1:02:26 10:03 F4549 ,

1895 2374 JACOB HANKE M 12 1:02:26 10:03 M1115 CHANDLER, AZ

1896 2375 DAVID HANKE M 43 1:02:26 10:03 M4044 CHANDLER, AZ

1897 559 RUTH BRUTON F 41 1:02:30 10:04 F4044 MESA, AZ

1898 381 SUZANNE KIRK F 33 1:02:31 10:04 F3034 GLENDALE, AZ

1899 1222 JUAN RAMIREZ M 29 1:02:31 10:04 M2529 PHOENIX, AZ

1900 6354 LUCY WRIGHT F 33 1:02:32 10:04 F3034 ,

1901 682 TRACY KELLERMAN F 32 1:02:32 10:04 F3034 CHANDLER, AZ

1902 3336 ANDREW SHAPLEY M 24 1:02:32 10:04 M2024 MESA, AZ

1903 3904 KATHLEEN BAUMANN F 45 1:02:33 10:04 F4549 PHOENIX, AZ

1904 1425 LARRY OFFENBERG M 59 1:02:35 10:05 M5559 PHOENIX, AZ

1905 768 SHAI SCHENDEL F 30 1:02:36 10:05 F3034 PHOENIX, AZ

1906 4063 LANA JACOBSON F 41 1:02:36 10:05 F4044 PHOENIX, AZ

1907 3193 JYLLENE MILLER F 42 1:02:37 10:05 F4044 CHANDLER, AZ

1908 1210 SHARON COATS F 33 1:02:37 10:05 F3034 MESA, AZ

1909 1209 DOUG COATS M 38 1:02:37 10:05 M3539 MESA, AZ

1910 3544 ANGIE JENNINGS F 34 1:02:39 10:05 F3034 MESA, AZ

1911 6693 MARSHA MORRIS F 51 1:02:40 10:06 F5054 ,

1912 2758 KEITH ASHER M 33 1:02:40 10:06 M3034 PEORIA, AZ

1913 2933 ALFONSO ESPINOZA M 30 1:02:40 10:06 M3034 PEORIA, AZ

1914 3508 IMELDA BUTER F 29 1:02:42 10:06 F2529 QUEEN CREEK, AZ

1915 1091 MARI LAMERS F 37 1:02:42 10:06 F3539 PHOENIX, AZ

1916 6267 MEGAN LAMY F 27 1:02:43 10:06 F2529 ,

1917 1062 BRIANNA JOE F 30 1:02:43 10:06 F3034 WINDOW ROCK, AZ

1918 6573 HEIDI DZYGRYNIUK F 33 1:02:44 10:06 F3034 ,

1919 6195 SARA MAHONEY F 30 1:02:44 10:06 F3034 ,

1920 3995 SYLVIA SPORE F 29 1:02:44 10:06 F2529 TEMPE, AZ

1921 2989 RENE GORKA F 47 1:02:45 10:06 F4549 PHOENIX, AZ

1922 1766 JESSE TARAZON M 36 1:02:46 10:07 M3539 PHOENIX, AZ

1923 3903 JOE BAUMANN M 44 1:02:47 10:07 M4044 PHOENIX, AZ

1924 2613 ANDREA MARON F 42 1:02:47 10:07 F4044 SCOTTSDALE, AZ

1925 4119 DANA STALGAITIS F 24 1:02:48 10:07 F2024 CHANDLER, AZ

1926 3217 BRENDA NEUBAUER F 36 1:02:49 10:07 F3539 CHANDLER, AZ

1927 365 WEDNESDAY NOWAK F 39 1:02:49 10:07 F3539 PHOENIX, AZ

1928 3007 ALAN HALTER M 24 1:02:49 10:07 M2024 PHOENIX, AZ

1929 206 KAY MARTIN F 70 1:02:50 10:07 F7074 PHOENIX, AZ

1930 3726 CLINT ORGILL M 30 1:02:52 10:07 M3034 SUN CITY, AZ

1931 3698 ERIN KONYN F 30 1:02:52 10:08 F3034 EL PASO, TX

1932 2726 MARCIE DWIGHT F 47 1:02:56 10:08 F4549 SCOTTSDALE, AZ

1933 3665 ANGELA GARCIA F 26 1:02:56 10:08 F2529 CHANDLER, AZ

1934 3283 ERIC RECKMAN M 32 1:02:56 10:08 M3034 PHOENIX, AZ

1935 3266 NAOMI POEHLER F 45 1:02:57 10:08 F4549 PHOENIX, AZ

1936 2780 BARRY BEARDSLEY M 48 1:02:57 10:08 M4549 GILBERT, AZ

1937 1196 HEATHER PARKS F 34 1:02:58 10:08 F3034 GILBERT, AZ

1938 3636 RACHEL BASH F 28 1:02:59 10:09 F2529 PHOENIX, AZ

1939 1465 LISA DUBNOW F 39 1:02:59 10:09 F3539 SCOTTSDALE, AZ

1940 3092 AMALIA KINGSBURY F 36 1:03:01 10:09 F3539 TEMPE, AZ

1941 3965 KATHY MCGRATH F 49 1:03:01 10:09 F4549 SCOTTSDALE, AZ

1942 6008 RONALD LEWIS SR M 48 1:03:01 10:09 M4549 ,

1943 1280 BOB BROUGHTON M 71 1:03:01 10:09 M7074 MESA, AZ

1944 1821 MAGDALENA MARTINIC F 51 1:03:03 10:09 F5054 PHOENIX, AZ

1945 131 KEVIN DAMORE M 31 1:03:03 10:09 M3034 SCOTTSDALE, AZ

1946 430 SUSAN CORDIER F 35 1:03:03 10:09 F3539 SCOTTSDALE, AZ

1947 2561 LEANNE PARSHALL F 31 1:03:04 10:09 F3034 PHOENIX, AZ

1948 1199 ANGELA SZCZUBLEWSKI F 44 1:03:04 10:09 F4044 GILBERT, AZ

1949 3705 SUZETTE LUND F 35 1:03:06 10:10 F3539 CAVE CREEK, AZ

1950 3448 MATTHEW WATSON M 47 1:03:06 10:10 M4549 CHANDLER, AZ

1951 1201 CHRISTA MAHARRY F 31 1:03:08 10:10 F3034 GILBERT, AZ

1952 3923 DEBORAH DANA F 40 1:03:09 10:10 F4044 SANTA MONICA, CA

1953 2766 TINA BAGNATO F 32 1:03:09 10:10 F3034 PHOENIX, AZ

1954 1384 HEATHER STEVENS F 23 1:03:10 10:10 F2024 TEMPE, AZ

1955 672 JIM PIKE M 60 1:03:11 10:10 M6064 CHANDLER, AZ

1956 1764 JASON RANGEL M 30 1:03:11 10:10 M3034 PHOENIX, AZ

1957 6017 JACK RICHARDSON M 51 1:03:12 10:11 M5054 ,

1958 6410 VIVIANNA MARQUEZ F 32 1:03:13 10:11 F3034 ,

1959 6524 BETH HOGAN F 41 1:03:14 10:11 F4044 ,

1960 3415 JOHN UNDERHILL M 56 1:03:15 10:11 M5559 TEMPE, AZ

1961 3831 CRISTA MCCARTHY F 36 1:03:15 10:11 F3539 LITCHFIELD PARK, AZ

1962 988 BRIDGETTE BRUCE F 26 1:03:15 10:11 F2529 GLENDALE, AZ

1963 6530 ALYSSA MORRIS F 38 1:03:15 10:11 F3539 ,

1964 3414 CHRISTINA UNDERHILL F 28 1:03:15 10:11 F2529 TEMPE, AZ

1965 6217 JOSEPHINE BIRKHOFF F 46 1:03:15 10:11 F4549 ,

1966 6622 LINDA BERNAL F 41 1:03:16 10:11 F4044 ,

1967 3812 GARY HART M 38 1:03:16 10:11 M3539 SCOTTSDALE, AZ

1968 663 MIKAELA CRANK F 21 1:03:18 10:12 F2024 PHOENIX, AZ

1969 6298 PEGGY OCONNOR F 44 1:03:18 10:12 F4044 ,

1970 3573 MINDI MIRGELER F 29 1:03:20 10:12 F2529 CHANDLER, AZ

1971 1781 SARA PINCHOFF F 32 1:03:20 10:12 F3034 PHOENIX, AZ

1972 1782 KATHLEEN HENNESSY F 45 1:03:21 10:12 F4549 SCOTTSDALE, AZ

1973 6283 SUSAN STARBUCK F 33 1:03:21 10:12 F3034 ,

1974 3857 CHRISTINA SEELEY F 28 1:03:23 10:12 F2529 GLENDALE, AZ

1975 2213 MARLA DE LA TORRE F 35 1:03:24 10:13 F3539 MESA, AZ

1976 6700 DAVID JACKSON M 55 1:03:24 10:13 M5559 ,

1977 3332 KAROLYN SEFCIK F 37 1:03:24 10:13 F3539 GLENDALE, AZ

1978 3225 ROBERT OLSON M 46 1:03:25 10:13 M4549 PHOENIX, AZ

1979 127 CHERYL PERKINS F 55 1:03:25 10:13 F5559 PHOENIX, AZ

1980 6549 STEPHEN MACIAS M 36 1:03:26 10:13 M3539 ,

1981 6054 MARY ETSITTY F 34 1:03:26 10:13 F3034 ,

1982 1213 KATHRYN BEEBE F 53 1:03:26 10:13 F5054 APACHE JUNCTION, AZ

1983 3803 MARK GAILLARD M 44 1:03:27 10:13 M4044 GOODYEAR, AZ

1984 1413 STEVEN FINKELSTEIN M 26 1:03:27 10:13 M2529 CHANDLER, AZ

1985 6518 JOELLE LAVIOLETTE F 25 1:03:29 10:13 F2529 ,

1986 6626 HOLLY LAGRECA F 26 1:03:29 10:13 F2529 ,

1987 6519 NATE HADDOX M 35 1:03:29 10:13 M3539 ,

1988 2899 GARY DILLON M 56 1:03:32 10:14 M5559 PHOENIX, AZ

1989 236 CINDY GOCKEL F 50 1:03:32 10:14 F5054 MESA, AZ

1990 4102 LINDSAY QUACKENBUSH F 30 1:03:33 10:14 F3034 SURPRISE, AZ

1991 3879 TIMMARIE WYATT F 30 1:03:34 10:14 F3034 PEORIA, AZ

1992 2610 DAVID ZELINKA M 45 1:03:36 10:15 M4549 SCOTTSDALE, AZ

1993 959 FRANK TROJAN M 50 1:03:36 10:15 M5054 TEMPE, AZ

1994 6177 NANCY SAITTA F 56 1:03:36 10:15 F5559 ,

1995 2609 DEANNA ZELINKA F 46 1:03:36 10:15 F4549 SCOTTSDALE, AZ

1996 1252 CHRIS WILLIAMS F 39 1:03:36 10:15 F3539 CHANDLER, AZ

1997 1307 JESSICA RADZIK F 23 1:03:37 10:15 F2024 MESA, AZ

1998 4034 TATUME BIRT F 13 1:03:39 10:15 F1115 PEORIA, AZ

1999 750 CARY BARBAN F 36 1:03:39 10:15 F3539 CHANDLER, AZ

2000 2553 SONIA MOLINA F 35 1:03:40 10:15 F3539 PHOENIX, AZ

2001 819 KENNETH KISTO M 51 1:03:40 10:15 M5054 SACATON, AZ

2002 3157 KENICHI MARUYAMA M 35 1:03:40 10:15 M3539 MESA, AZ

2003 2268 MARITSA GRAHAM F 43 1:03:42 10:15 F4044 PHOENIX, AZ

2004 2244 KIM GARTNER F 41 1:03:42 10:16 F4044 SCOTTSDALE, AZ

2005 3982 DIANA ROTHERY F 24 1:03:44 10:16 F2024 MESA, AZ

2006 1235 KELLY MCDERMID F 40 1:03:45 10:16 F4044 PHOENIX, AZ

2007 3109 KRISTEN LADERMAN F 26 1:03:45 10:16 F2529 TEMPE, AZ

2008 930 AL MENIER M 54 1:03:45 10:16 M5054 SCOTTSDALE, AZ

2009 2963 JULIE GARNER F 27 1:03:46 10:16 F2529 CHANDLER, AZ

2010 2629 HEATHER OBRIEN F 31 1:03:46 10:16 F3034 GLENDALE, AZ

2011 2630 JASON OBRIEN M 34 1:03:46 10:16 M3034 GLENDALE, AZ

2012 1503 KATHERINE MORRILL F 46 1:03:46 10:16 F4549 CHANDLER, AZ

2013 3440 CRAIG WALLACH M 40 1:03:46 10:16 M4044 GLENDALE, AZ

2014 3376 LAUREL STOIMENOFF F 53 1:03:47 10:16 F5054 CHANDLER, AZ

2015 6262 AMANDA REEVE F 31 1:03:47 10:16 F3034 ,

2016 2777 LORI BARTLETT F 44 1:03:47 10:16 F4044 SCOTTSDALE, AZ

2017 2359 MICHELLE SMITH F 23 1:03:48 10:16 F2024 SCOTTSDALE, AZ

2018 1822 JOHN SHAFF M 29 1:03:49 10:17 M2529 NEW RIVER, AZ

2019 2357 AMY YOST F 37 1:03:50 10:17 F3539 CHANDLER, AZ

2020 4029 MARK ARNDT M 46 1:03:50 10:17 M4549 MESA, AZ

2021 4028 KIM ARNDT F 47 1:03:50 10:17 F4549 MESA, AZ

2022 1254 RIKKI WALLER F 35 1:03:52 10:17 F3539 CHANDLER, AZ

2023 168 PERRY MIYASHITA M 52 1:03:52 10:17 M5054 PHOENIX, AZ

2024 1253 KIM BARNUM F 40 1:03:53 10:17 F4044 CHANDLER, AZ

2025 2410 AMY LIERMANN F 32 1:03:53 10:17 F3034 SCOTTSDALE, AZ

2026 986 GERARD QUINN M 31 1:03:54 10:17 M3034 SCOTTSDALE, AZ

2027 1677 KIRSTIN KLOPPEL F 28 1:03:55 10:18 F2529 PHOENIX, AZ

2028 6273 JULIE WEAVER F 35 1:03:55 10:18 F3539 ,

2029 3700 KIM KYLE F 42 1:03:56 10:18 F4044 CHANDLER, AZ

2030 2737 SHARON LIMA F 31 1:03:56 10:18 F3034 MESA, AZ

2031 751 MELISSA ORTIZ F 40 1:03:56 10:18 F4044 CHANDLER, AZ

2032 716 LUIS MENDEZ M 30 1:03:57 10:18 M3034 TEMPE, AZ

2033 6624 PATTY WALLER F 39 1:03:57 10:18 F3539 ,

2034 3523 LEAH EARL F 38 1:03:58 10:18 F3539 WINDOW ROCK, AZ

2035 3012 DAVID HARBULA M 40 1:03:59 10:18 M4044 TEMPE, AZ

2036 2512 MEREDITH CLARK F 18 1:04:00 10:18 F1619 PHOENIX, AZ

2037 3482 MONA WYSE F 38 1:04:00 10:18 F3539 PHOENIX, AZ

2038 874 NANCY EGAN F 50 1:04:01 10:19 F5054 CHANDLER, AZ

2039 6597 MICHAEL RUTIGLIANO M 48 1:04:02 10:19 M4549 ,

2040 6189 TIFFANY VASQUEZ F 31 1:04:02 10:19 F3034 ,

2041 1778 KELLY MORRISON F 44 1:04:02 10:19 F4044 SCOTTSDALE, AZ

2042 1484 CINDY SANCHEZ F 37 1:04:02 10:19 F3539 PHOENIX, AZ

2043 2206 GINA HORN F 30 1:04:03 10:19 F3034 SCOTTSDALE, AZ

2044 2207 MELINA BRILL F 28 1:04:03 10:19 F2529 SCOTTSDALE, AZ

2045 3029 JOSE HERRERA F 33 1:04:04 10:19 F3034 PHOENIX, AZ

2046 855 LINDA WHITE F 41 1:04:04 10:19 F4044 MESA, AZ

2047 723 ART MILLER M 32 1:04:04 10:19 M3034 TEMPE, AZ

2048 3363 WENDY SPAULDING F 29 1:04:05 10:19 F2529 PHOENIX, AZ

2049 3847 AURORA ROJAS F 37 1:04:06 10:19 F3539 GLENDALE, AZ

2050 1742 JESSICA RANDOLPH F 16 1:04:06 10:19 F1619 TEMPE, AZ

2051 432 DAVID WOLFORD M 61 1:04:06 10:19 M6064 SCOTTSDALE, AZ

2052 6502 MARIBETH BRUAY F 41 1:04:07 10:19 F4044 ,

2053 1833 SHANNON SIMON F 32 1:04:08 10:20 F3034 SCOTTSDALE, AZ

2054 6572 ALICIA BINDENAGEL F 28 1:04:08 10:20 F2529 ,

2055 735 LEIGHA WILLIAMS F 25 1:04:08 10:20 F2529 GUADALUPE, AZ

2056 1367 TRACY JACKSON F 34 1:04:08 10:20 F3034 TEMPE, AZ

2057 416 KATHERINE DALTON F 29 1:04:08 10:20 F2529 PHOENIX, AZ

2058 3761 GILES WIDENER M 36 1:04:08 10:20 M3539 AVONDALE, AZ

2059 734 NICOLE GORDON F 25 1:04:09 10:20 F2529 TEMPE, AZ

2060 6186 AYDEE MACIAS F 39 1:04:09 10:20 F3539 ,

2061 6215 JACOB CAIN M 39 1:04:10 10:20 M3539 ,

2062 2368 MICHELLE BALLECER F 34 1:04:10 10:20 F3034 GLENDALE, AZ

2063 631 LORIE VO F 38 1:04:10 10:20 F3539 TEMPE, AZ

2064 6004 MARY SIEASMAN F 25 1:04:11 10:20 F2529 ,

2065 860 STEPHANIE FULK-HIGGS F 35 1:04:11 10:20 F3539 PHOENIX, AZ

2066 177 REBECCA MARK F 26 1:04:11 10:20 F2529 PHOENIX, AZ

2067 173 JODI SWANSON F 26 1:04:11 10:20 F2529 MESA, AZ

2068 3604 SUSAN TROHA F 29 1:04:12 10:20 F2529 SCOTTSDALE, AZ

2069 6691 EMILY DICKERSON F 36 1:04:12 10:20 F3539 ,

2070 3682 BRENT HEISLER M 30 1:04:12 10:20 M3034 CHANDLER, AZ

2071 3964 COURTNEY MCCRANEY F 30 1:04:13 10:20 F3034 CHANDLER, AZ

2072 3683 CHRISTINA HEISLER F 28 1:04:13 10:20 F2529 CHANDLER, AZ

2073 964 MINOY FARRINGTON F 38 1:04:14 10:21 F3539 SCOTTSDALE, AZ

2074 364 MICHAEL RATCLIFF M 35 1:04:15 10:21 M3539 PHOENIX, AZ

2075 843 ERIC SHELLEY M 35 1:04:15 10:21 M3539 PHOENIX, AZ

2076 2246 JENNIFER MORIN F 23 1:04:16 10:21 F2024 GILBERT, AZ

2077 1067 JANET NESTER F 24 1:04:18 10:21 F2024 PHOENIX, AZ

2078 3784 JILL BOUSSON F 27 1:04:18 10:21 F2529 PHOENIX, AZ

2079 313 MICHAEL ABOULAFIA M 34 1:04:18 10:21 M3034 PHOENIX, AZ

2080 1847 BARB PYDE F 44 1:04:19 10:21 F4044 PHOENIX, AZ

2081 328 KEVIN HARRIS M 58 1:04:20 10:22 M5559 PHOENIX, AZ

2082 329 MARY HARRIS F 56 1:04:21 10:22 F5559 PHOENIX, AZ

2083 2489 RON LEBO M 47 1:04:22 10:22 M4549 MESA, AZ

2084 3766 CHRISTINE ZYCH F 24 1:04:23 10:22 F2024 TEMPE, AZ

2085 2996 VICKI GRICIUS F 49 1:04:24 10:22 F4549 VAIL, AZ

2086 2771 KATHLEEN BALSER F 65 1:04:24 10:22 F6569 PHOENIX, AZ

2087 3351 LAURA SMITH F 38 1:04:25 10:22 F3539 SCOTTSDALE, AZ

2088 717 DAVID BOUCHARD M 28 1:04:25 10:22 M2529 PHOENIX, AZ

2089 718 JOHN BOUCHARD M 26 1:04:25 10:22 M2529 PHOENIX, AZ

2090 257 KIM BAKER F 42 1:04:25 10:22 F4044 MESA, AZ

2091 2904 SARA DOERSCHLAG F 31 1:04:27 10:23 F3034 PHOENIX, AZ

2092 1411 ROBIN SYLVESTER F 44 1:04:28 10:23 F4044 GUADALUPE, AZ

2093 773 BRYAN PAYNICH M 36 1:04:30 10:23 M3539 PHOENIX, AZ

2094 473 KATIE BURKE F 23 1:04:30 10:23 F2024 PHOENIX, AZ

2095 1793 ALAN WILLIAMS M 42 1:04:31 10:23 M4044 TEMPE, AZ

2096 1794 CYNTHIA WILLIAMS F 36 1:04:31 10:23 F3539 TEMPE, AZ

2097 6614 JOHN CHAPMAN M 30 1:04:32 10:24 M3034 ,

2098 1219 HOLLY RAYCRAFT F 36 1:04:32 10:24 F3539 GILBERT, AZ

2099 3495 TOM ABRIL M 59 1:04:33 10:24 M5559 TEMPE, AZ

2100 1072 SHERI FREEMONT F 33 1:04:33 10:24 F3034 PHOENIX, AZ

2101 4091 MARY MCMURTRIE F 48 1:04:33 10:24 F4549 GILBERT, AZ

2102 1436 AMANDA KEILTY F 24 1:04:34 10:24 F2024 TEMPE, AZ

2103 1437 ANNA KEILTY F 52 1:04:34 10:24 F5054 CHANDLER, AZ

2104 3276 LAURA QUIMBY F 44 1:04:36 10:24 F4044 PHONEIX, AZ

2105 1355 ROBERT CRAWFORD M 58 1:04:36 10:24 M5559 MESA, AZ

2106 6302 DAN LITTLEFILED M 32 1:04:37 10:24 M3034 ,

2107 1401 JEANNETTE MEDINA F 28 1:04:39 10:25 F2529 CHANDLER, AZ

2108 2611 ROBYN ICHILOV F 40 1:04:39 10:25 F4044 SCOTTSDALE, AZ

2109 2650 ELYSE RAISSEN F 40 1:04:39 10:25 F4044 SCOTTSDALE, AZ

2110 1376 CHERYL JOHNSON F 30 1:04:41 10:25 F3034 PHOENIX, AZ

2111 1699 EMILY CHRIST F 37 1:04:42 10:25 F3539 PHOENIX, AZ

2112 6303 JENNIFER LACKEY F 30 1:04:42 10:25 F3034 ,

2113 6187 STEPHANIE THAYER F 44 1:04:43 10:25 F4044 ,

2114 936 COURTNEY BLACKMER F 17 1:04:44 10:25 F1619 MESA, AZ

2115 2861 REBEKAH CHAPMAN F 30 1:04:44 10:26 F3034 GILBERT, AZ

2116 2755 GREG ANSON M 44 1:04:47 10:26 M4044 GILBERT, AZ

2117 2997 CAROL GRUMLEY F 50 1:04:48 10:26 F5054 PHOENIX, AZ

2118 6336 SHELLE HOLLAND F 36 1:04:48 10:26 F3539 ,

2119 6060 LUIS VAZQUEZ M 26 1:04:48 10:26 M2529 ,

2120 2876 SEAN COOKSON M 26 1:04:48 10:26 M2529 TEMPE, AZ

2121 725 TRAVIS PARMA M 24 1:04:49 10:26 M2024 PHOENIX, AZ

2122 3841 LYNN PHIPPS F 38 1:04:49 10:26 F3539 MESA, AZ

2123 3701 KAT LANGMAN F 36 1:04:49 10:26 F3539 PHOENIX, AZ

2124 3842 MARK PHIPPS M 40 1:04:49 10:26 M4044 MESA, AZ

2125 2685 MARY ANN CHIQUETE F 40 1:04:49 10:26 F4044 BUCKEYE, AZ

2126 3058 LORY ISAAC F 57 1:04:50 10:27 F5559 CHANDLER, AZ

2127 2649 ERIC LIVENGOOD M 28 1:04:51 10:27 M2529 GILBERT, AZ

2128 614 CATALINA FITZGERALD F 40 1:04:51 10:27 F4044 PHOENIX, AZ

2129 2898 ANN DIDOMENICO F 47 1:04:52 10:27 F4549 TEMPE, AZ

2130 211 LOLUER SONNTAC M 62 1:04:52 10:27 M6064 PHOENIX, AZ

2131 3047 ROBERT HOWARD M 69 1:04:55 10:27 M6569 PHOENIX, AZ

2132 3453 JENNIFER WEIMER F 29 1:04:56 10:27 F2529 PHOENIX, AZ

2133 957 CECILIA SEARS F 43 1:04:57 10:28 F4044 SCOTTSDALE, AZ

2134 1299 AMIR PANAH M 55 1:04:57 10:28 M5559 PHOENIX, AZ

2135 958 WILLIAM JONES M 48 1:04:57 10:28 M4549 SCOTTSDALE, AZ

2136 766 GARBANZO SMITH M 51 1:04:58 10:28 M5054 PHOENIX, AZ

2137 3387 RICHARD SWETONIC M 43 1:05:00 10:28 M4044 SCOTTSDALE, AZ

2138 3386 LAURIE SWETONIC F 42 1:05:00 10:28 F4044 SCOTTSDALE, AZ

2139 621 CHERYL THOMPSON F 37 1:05:00 10:28 F3539 CHANDLER, AZ

2140 622 HEATHER LANDERS F 35 1:05:01 10:28 F3539 CHANDLER, AZ

2141 1813 RICHARD HATTAN M 52 1:05:01 10:28 M5054 SCOTTSDALE, AZ

2142 6613 JASON WENTZ M 35 1:05:03 10:28 M3539 ,

2143 1798 DAN NADARSKI M 40 1:05:03 10:29 M4044 PHOENIX, AZ

2144 6322 ED CAMERON M 50 1:05:03 10:29 M5054 ,

2145 6338 TINA ROGERS F 32 1:05:04 10:29 F3034 ,

2146 2658 GENE KOCHERT M 50 1:05:06 10:29 M5054 PHOENIX, AZ

2147 232 HANA LIEM M 61 1:05:08 10:29 M6064 PHOENIX, AZ

2148 548 CHERYL NIERVA F 39 1:05:08 10:29 F3539 PEORIA, AZ

2149 2653 DELISSE METCALF F 43 1:05:09 10:29 F4044 PHOENIX, AZ

2150 3057 PETE ICKE M 37 1:05:09 10:29 M3539 GILBERT, AZ

2151 3861 KIM SHIRLEY F 38 1:05:09 10:30 F3539 QUEEN CREEK, AZ

2152 6627 JOHN STUDARUS M 35 1:05:10 10:30 M3539 ,

2153 542 JILL JEZIORSKI F 51 1:05:11 10:30 F5054 PHOENIX, AZ

2154 1327 BETH HUNTER F 48 1:05:12 10:30 F4549 GILBERT, AZ

2155 3977 JULIE REID F 33 1:05:12 10:30 F3034 CHANDLER, AZ

2156 2892 ADRIANA DE LA ROCHE F 34 1:05:16 10:31 F3034 PHOENIX, AZ

2157 1848 BETH COCHRAN F 25 1:05:17 10:31 F2529 PHOENIX, AZ

2158 6694 JAMES YOUNGJOHN M 52 1:05:18 10:31 M5054 ,

2159 1509 KATHLEEN SCHELL F 43 1:05:19 10:31 F4044 GILBERT, AZ

2160 1371 JESSICA VEZEY F 27 1:05:20 10:31 F2529 MESA, AZ

2161 6455 KAREN STULL F 51 1:05:20 10:31 F5054 ,

2162 1546 ALYSSE HREY F 32 1:05:21 10:31 F3034 CHANDLER, AZ

2163 1195 FRED ROPP M 66 1:05:21 10:31 M6569 MESA, AZ

2164 2774 RANDY BARLETT M 26 1:05:21 10:32 M2529 CHANDLER, AZ

2165 2773 PAULA BARLETT F 25 1:05:22 10:32 F2529 CHANDLER, AZ

2166 2221 ELIZABETH ATHENS F 36 1:05:22 10:32 F3539 CHANDLER, AZ

2167 692 MIKE LANGS M 47 1:05:23 10:32 M4549 PHOENIX, AZ

2168 2727 TIFFANY DWIGHT F 16 1:05:23 10:32 F1619 SCOTTSDALE, AZ

2169 2906 JOY DONALDSON F 27 1:05:24 10:32 F2529 SCOTTSDALE, AZ

2170 3691 KIM HUMPHREY F 24 1:05:25 10:32 F2024 PHOENIX, AZ

2171 774 MICHAEL PAYNICH M 61 1:05:26 10:32 M6064 PEORIA, AZ

2172 3663 MELISSA GABRIEL F 30 1:05:26 10:32 F3034 GLENDALE, AZ

2173 2767 ULRICH BAIER M 40 1:05:27 10:32 M4044 MESA, AZ

2174 1185 JOHN PALTHEN M 37 1:05:28 10:33 M3539 CHANDLER, AZ

2175 2564 FRAN ROBB F 55 1:05:29 10:33 F5559 FOUNTAIN HILLS, AZ

2176 1368 MICHAEL TRAUBERT M 49 1:05:30 10:33 M4549 TEMPE, AZ

2177 2583 BRENDAN WIESER M 19 1:05:30 10:33 M1619 GLENDALE, AZ

2178 3298 CHRISTINE RICE F 24 1:05:31 10:33 F2024 SCOTTSDALE, AZ

2179 2612 SCOTT WEISS M 38 1:05:32 10:33 M3539 SCOTTSDALE, AZ

2180 3709 JASON MCCAMPBELL M 36 1:05:33 10:33 M3539 PHOENIX, AZ

2181 3721 PATRICE NISSEN F 50 1:05:33 10:33 F5054 PRESCOTT, AZ

2182 2817 DIANE BRANDT F 60 1:05:34 10:34 F6064 SURPRISE, AZ

2183 1139 DAWN BEST F 41 1:05:34 10:34 F4044 GILBERT, AZ

2184 1351 RANDA ANABTAWI F 26 1:05:35 10:34 F2529 QUEEN CREEK, AZ

2185 408 CRISTY MERINGER F 33 1:05:35 10:34 F3034 PHOENIX, AZ

2186 1010 ERIC OLSON M 38 1:05:37 10:34 M3539 SCOTTSDALE, AZ

2187 2441 LAURA ROBERTSON F 17 1:05:38 10:34 F1619 PHOENIX, AZ

2188 2721 GARY SATTLER M 43 1:05:38 10:34 M4044 GLENDALE, AZ

2189 103 LORENZO MONTOYA M 53 1:05:39 10:34 M5054 PHOENIX, AZ

2190 6568 PETER LARSON M 34 1:05:41 10:35 M3034 ,

2191 2389 DOTTIE DURRSCHMIDT F 45 1:05:42 10:35 F4549 PHOENIX, AZ

2192 2880 STEPHANIE COX F 39 1:05:42 10:35 F3539 TEMPE, AZ

2193 2927 KATHY EMSING F 48 1:05:43 10:35 F4549 SCOTTSDALE, AZ

2194 6616 VALERIE ALVAREZ F 24 1:05:43 10:35 F2024 ,

2195 822 RUSSELL JOHNSON M 50 1:05:43 10:35 M5054 PHOENIX, AZ

2196 6203 LISA EVELETH F 41 1:05:44 10:35 F4044 ,

2197 2955 HEIDI FREI F 33 1:05:44 10:35 F3034 GOODYEAR, AZ

2198 2862 MICHAEL CHASE M 39 1:05:44 10:35 M3539 CHANDLER, AZ

2199 2800 MARC BLONSTEIN M 38 1:05:45 10:35 M3539 SCOTTSDALE, AZ

2200 961 LAUREN FRANK F 44 1:05:45 10:35 F4044 SCOTTSDALE, AZ

2201 3022 ERIC HEINZE M 25 1:05:47 10:36 M2529 MESA, AZ

2202 397 DEBBY BROWN F 56 1:05:48 10:36 F5559 PHOENIX, AZ

2203 1131 TERRI ARENAS F 45 1:05:48 10:36 F4549 GILBERT, AZ

2204 1134 DEBRA HARTIN F 50 1:05:49 10:36 F5054 GILBERT, AZ

2205 2781 SARAH BEASLEY F 26 1:05:50 10:36 F2529 PHOENIX, AZ

2206 1329 RANDALL COPLEN M 30 1:05:50 10:36 M3034 MESA, AZ

2207 3617 AMY HANSEN F 28 1:05:52 10:36 F2529 PHOENIX, AZ

2208 6738 UNKNOWN ENTRANT X 99 1:05:52 10:36 X9999 ,

2209 463 FRANCIE MEADORS F 26 1:05:54 10:37 F2529 PHOENIX, AZ

2210 2438 COLLEEN ROBERTSON F 46 1:05:56 10:37 F4549 PHOENIX, AZ

2211 968 TRACY BERRIAN F 35 1:05:57 10:37 F3539 PHOENIX, AZ

2212 1688 LEILANI WARD F 32 1:05:58 10:37 F3034 PHOENIX, AZ

2213 3677 STACEY HANDELONG F 41 1:05:58 10:37 F4044 PHOENIX, AZ

2214 1054 MICHAEL SHIRLEY M 38 1:05:59 10:38 M3539 QUEEN CREEK, AZ

2215 1689 JUSTIN SMITH M 27 1:05:59 10:38 M2529 PHOENIX, AZ

2216 445 DEBORAH ULAN F 44 1:06:03 10:38 F4044 SCOTTSDALE, AZ

2217 1456 TIM MOEUR M 46 1:06:05 10:38 M4549 MESA, AZ

2218 1286 NATALIE JOHNSON F 41 1:06:05 10:39 F4044 TEMPE, AZ

2219 1389 CATHERINE EASTERLING F 50 1:06:09 10:39 F5054 MESA, AZ

2220 4103 ERIC REYES M 28 1:06:11 10:39 M2529 PHOENIX, AZ

2221 2461 AELISA DURAN F 35 1:06:12 10:40 F3539 GILBERT, AZ

2222 1130 LISA JAMES F 36 1:06:15 10:40 F3539 GILBERT, AZ

2223 2527 SUSAN FABIAN F 42 1:06:15 10:40 F4044 GLENDALE, AZ

2224 3177 SUSAN MCNULTY F 38 1:06:16 10:40 F3539 SCOTTSDALE, AZ

2225 6332 JILL LAUX F 31 1:06:17 10:40 F3034 ,

2226 4074 ELIZABETH LAKIN F 24 1:06:17 10:41 F2024 GLENDALE, AZ

2227 259 VANESSA LEE F 42 1:06:21 10:41 F4044 PHOENIX, AZ

2228 3375 ADAM STINE M 28 1:06:24 10:42 M2529 SCOTTSDALE, AZ

2229 4047 TRISHA DOTSON F 39 1:06:24 10:42 F3539 SCOTTSDALE, AZ

2230 4068 BARBARA KEMPENY F 42 1:06:24 10:42 F4044 SCOTTSDALE, AZ

2231 1404 MONICA HUGHES F 32 1:06:25 10:42 F3034 CHANDLER, AZ

2232 6602 GAIL ULAN F 39 1:06:25 10:42 F3539 ,

2233 6419 ELFONZO NEPHEW M 35 1:06:25 10:42 M3539 ,

2234 1171 MONICA NICOL F 36 1:06:27 10:42 F3539 CHANDLER, AZ

2235 1170 MARY GARDUNO F 33 1:06:27 10:42 F3034 GILBERT, AZ

2236 384 KIM OLSEN F 45 1:06:28 10:42 F4549 PHOENIX, AZ

2237 2855 RAY CARRANZA M 33 1:06:28 10:42 M3034 GILBERT, AZ

2238 3814 MARCIE HERZOG F 30 1:06:29 10:42 F3034 PHOENIX, AZ

2239 3905 JODI BECKLEY F 41 1:06:29 10:42 F4044 TEMPE, AZ

2240 3782 STACEY BLACK F 33 1:06:29 10:42 F3034 PHOENIX, AZ

2241 1444 JOHN VAUGHN M 47 1:06:30 10:43 M4549 MESA, AZ

2242 1264 ERIN LEAHEY F 37 1:06:30 10:43 F3539 TUCSON, AZ

2243 485 MELANIE ADAMS F 42 1:06:30 10:43 F4044 PHOENIX, AZ

2244 2750 JON ANDERSON M 53 1:06:32 10:43 M5054 TEMPE, AZ

2245 3437 RANDI WALKER F 25 1:06:32 10:43 F2529 CHINO VALLEY, AZ

2246 630 COOKIE FEINBERG F 45 1:06:33 10:43 F4549 TEMPE, AZ

2247 1263 JONATHAN ALLEN M 45 1:06:33 10:43 M4549 TEMPE, AZ

2248 331 KELLY MATURO F 99 1:06:35 10:43 F0000 SCOTTSDALE, AZ

2249 2335 SUSAN MEUSER F 47 1:06:35 10:43 F4549 CHANDLER, AZ

2250 330 KELLY GINDLESPERGER F 43 1:06:37 10:44 F4044 SCOTTSDALE, AZ

2251 898 KACI KOLBERG F 16 1:06:37 10:44 F1619 PHOENIX, AZ

2252 199 CHRIS BLOOMFIELD F 38 1:06:39 10:44 F3539 GOODYEAR, AZ

2253 939 ALICE WILLIAMS F 46 1:06:40 10:44 F4549 SCOTTSDALE, AZ

2254 3114 JENNIFER LANGE F 24 1:06:40 10:44 F2024 TEMPE, AZ

2255 1103 DAN BOWSER M 66 1:06:41 10:44 M6569 CHANDLER, AZ

2256 3919 ANDREA CONSTANTAKIS F 24 1:06:41 10:44 F2024 PEORIA, AZ

2257 3596 MICHAEL SLIWA M 40 1:06:42 10:44 M4044 PHOENIX, AZ

2258 4093 JOHN MILLER M 45 1:06:43 10:45 M4549 CHANDLER, AZ

2259 200 SUZANNA VAN VYNCKT F 41 1:06:43 10:45 F4044 AVONDALE, AZ

2260 2532 CATHERINE HANSON F 50 1:06:46 10:45 F5054 PHOENIX, AZ

2261 2257 LIANE HALL F 27 1:06:47 10:45 F2529 GLENDALE, AZ

2262 6629 ALICE PETERSON F 41 1:06:47 10:45 F4044 ,

2263 3392 MARY TAN F 31 1:06:48 10:45 F3034 PHOENIX, AZ

2264 3862 LEONORA SHURLEY F 38 1:06:50 10:46 F3539 FORT DEFIANCE, AZ

2265 593 ALISA SCHRODER F 29 1:06:51 10:46 F2529 GOODYEAR, AZ

2266 1223 MICHELE GUMENIK F 28 1:06:51 10:46 F2529 CHANDLER, AZ

2267 241 BRENDA HERD F 26 1:06:52 10:46 F2529 SCOTTSDALE, AZ

2268 2431 VANESSA APODACA F 35 1:06:53 10:46 F3539 PHOENIX, AZ

2269 3017 DAVID HARVES M 53 1:06:54 10:46 M5054 PHOENIX, AZ

2270 1232 ALFONSO BITSUIE M 28 1:06:55 10:47 M2529 MARICOPA, AZ

2271 2284 JOSHUA JAMES M 34 1:06:58 10:47 M3034 PHOENIX, AZ

2272 607 JESSICA TRAVIS F 34 1:07:02 10:48 F3034 PHOENIX, AZ

2273 853 JEREMY BOUSMAN M 27 1:07:02 10:48 M2529 TEMPE, AZ

2274 2351 LARA LENHART F 23 1:07:03 10:48 F2024 CHANDLER, AZ

2275 2878 TRACIE COTTAM F 33 1:07:03 10:48 F3034 ANTHEM, AZ

2276 3240 ALBERT PARTIDA M 27 1:07:03 10:48 M2529 AVONDALE, AZ

2277 2365 KAREN LESPERANCE F 45 1:07:03 10:48 F4549 MESA, AZ

2278 2626 ASHLEY RHODES F 23 1:07:03 10:48 F2024 CHANDLER, AZ

2279 6266 CLYDE ANTONE M 50 1:07:03 10:48 M5054 ,

2280 3483 NAOMI YABSLEY F 31 1:07:03 10:48 F3034 GLENDALE, AZ

2281 610 GRACE DUBBERLY F 39 1:07:04 10:48 F3539 PHOENIX, AZ

2282 3088 MIKE KENNEDY M 36 1:07:05 10:48 M3539 TEMPE, AZ

2283 281 JILL AHRENS F 30 1:07:06 10:48 F3034 GLENDALE, AZ

2284 1614 JULIE HUGHES F 34 1:07:09 10:49 F3034 GILBERT, AZ

2285 6131 SCOTT BARVIAN M 42 1:07:10 10:49 M4044 ,

2286 2660 HEIDI DOUGHTY F 30 1:07:10 10:49 F3034 PHOENIX, AZ

2287 1102 RONNIE BOSMAN M 70 1:07:12 10:49 M7074 SUN LAKES, AZ

2288 3195 RODD MILLER M 29 1:07:13 10:49 M2529 PHOENIX, AZ

2289 1414 LAURIE FEE F 46 1:07:13 10:49 F4549 MESA, AZ

2290 6334 BARBARA LARKIN F 41 1:07:14 10:50 F4044 ,

2291 2297 ADAM SLAUGHTER M 37 1:07:15 10:50 M3539 PHOENIX, AZ

2292 3308 SUZIE ROMASH F 36 1:07:16 10:50 F3539 CAVE CREEK, AZ

2293 1612 JENNIFER BASINGER F 35 1:07:17 10:50 F3539 TEMPE, AZ

2294 3581 MARGARET PUNTURI F 37 1:07:17 10:50 F3539 GLENDALE, AZ

2295 6128 MICHAEL LERSKH M 28 1:07:17 10:50 M2529 ,

2296 3881 JESSICA YOUNG F 27 1:07:18 10:50 F2529 MESA, AZ

2297 1218 MISSY COOLEY F 37 1:07:18 10:50 F3539 CHANDLER, AZ

2298 108 TANYA PETERS F 41 1:07:19 10:50 F4044 GLENDALE, AZ

2299 3037 JERRY HOLTZCLAW M 49 1:07:22 10:51 M4549 PHOENIX, AZ

2300 3421 JENNIFER VANCE F 31 1:07:23 10:51 F3034 CHANDLER, AZ

2301 3549 KELLEY KARNES F 25 1:07:25 10:51 F2529 TEMPE, AZ

2302 799 DAN PIERCE M 51 1:07:27 10:52 M5054 PHOENIX, AZ

2303 1729 URIAH COMPTON M 33 1:07:27 10:52 M3034 GOODYEAR, AZ

2304 2255 WILLIAM CLARK M 31 1:07:28 10:52 M3034 PHOENIX, AZ

2305 3263 KARI PLANK F 38 1:07:30 10:52 F3539 FLAGSTAFF, AZ

2306 380 LEONARD SERPA M 71 1:07:30 10:52 M7074 PHOENIX, AZ

2307 2337 DOUG LINCOLN M 44 1:07:32 10:53 M4044 PEORIA, AZ

2308 1002 JILL MULLEN F 30 1:07:35 10:53 F3034 SCOTTSDALE, AZ

2309 1055 JONI SAYLOR F 28 1:07:35 10:53 F2529 TUCSON, AZ

2310 2209 EMILY GWINN F 37 1:07:37 10:53 F3539 SCOTTSDALE, AZ

2311 2429 KELLY MACHENRY F 41 1:07:37 10:53 F4044 SCOTTSDALE, AZ

2312 2636 JAMIE VILLA M 29 1:07:39 10:54 M2529 PHOENIX, AZ

2313 2939 IAN FELDMAN M 36 1:07:43 10:54 M3539 CHANDLER, AZ

2314 1118 JOE KACIC M 35 1:07:44 10:54 M3539 CHANDLER, AZ

2315 2627 ARTHUR KOSKELA M 55 1:07:45 10:55 M5559 PHOENIX, AZ

2316 3498 DEB ASHLEY F 45 1:07:45 10:55 F4549 MESA, AZ

2317 2503 PATRICIA ARGUELLO F 33 1:07:46 10:55 F3034 PEORIA, AZ

2318 3791 HEATHER CHRISTIANSEN F 35 1:07:46 10:55 F3539 MESA, AZ

2319 3908 LINDA BRUNER F 57 1:07:47 10:55 F5559 MESA, AZ

2320 1097 KATIE PARTIN F 41 1:07:49 10:55 F4044 PHOENIX, AZ

2321 3693 GREGORY JONES M 41 1:07:51 10:56 M4044 CAVE CREEK, AZ

2322 3553 SANJAY KOTE M 30 1:07:52 10:56 M3034 TEMPE, AZ

2323 676 SAVANA GRANT F 27 1:07:52 10:56 F2529 CHANDLER, AZ

2324 691 KIMBERLY LANGS F 43 1:07:52 10:56 F4044 PHOENIX, AZ

2325 2440 BRITTNEY ROBERTSON F 15 1:07:54 10:56 F1115 PHOENIX, AZ

2326 2439 GENE ROBERTSON M 46 1:07:55 10:56 M4549 PHOENIX, AZ

2327 2888 TRISH DALY F 35 1:07:55 10:56 F3539 SCOTTSDALE, AZ

2328 508 ANDREA SCOTT F 24 1:07:55 10:56 F2024 PHOENIX, AZ

2329 6538 JEANNE ANCIAUX F 46 1:07:57 10:57 F4549 ,

2330 6569 THERESA ROSIER F 34 1:07:58 10:57 F3034 ,

2331 813 LINDER STANLEY F 47 1:07:59 10:57 F4549 GILBERT, AZ

2332 1429 KAT COBB F 24 1:08:01 10:57 F2024 MESA, AZ

2333 1451 SARA GINER M 26 1:08:01 10:57 M2529 PHOENIX, AZ

2334 3554 HEMANTH KRISHNAN M 28 1:08:02 10:57 M2529 SCOTTSDALE, AZ

2335 3513 BRYCE CIVIC M 12 1:08:03 10:57 M1115 PHOENIX, AZ

2336 2286 WHITNEY TRIPLETT F 39 1:08:04 10:58 F3539 PHOENIX, AZ

2337 3872 JUSTINE VANORDER F 20 1:08:05 10:58 F2024 FLAGSTAFF, AZ

2338 3740 JARROD RICE M 19 1:08:07 10:58 M1619 GLENDALE, AZ

2339 3741 JIM RICE M 46 1:08:07 10:58 M4549 GLENDALE, AZ

2340 3478 JERRY WOODWARD M 60 1:08:08 10:58 M6064 PHOENIX, AZ

2341 3009 KIM HAMBLIN F 44 1:08:09 10:58 F4044 PHOENIX, AZ

2342 2320 LISA CONNOR F 38 1:08:09 10:58 F3539 CHANDLER, AZ

2343 3548 VENKTESH KALYANARAMAN M 28 1:08:09 10:58 M2529 TEMPE, AZ

2344 2319 PAT CONNOR M 42 1:08:09 10:58 M4044 CHANDLER, AZ

2345 6739 UNKNOWN ENTRANT X 99 1:08:09 10:58 X9999 ,

2346 1748 LAURA HAND F 36 1:08:09 10:58 F3539 GILBERT, AZ

2347 807 ED HAYES M 47 1:08:12 10:59 M4549 GLENDALE, AZ

2348 2419 LAURA ROONEY F 49 1:08:12 10:59 F4549 PHOENIX, AZ

2349 4033 DEBRA S BETTIS F 47 1:08:13 10:59 F4549 TEMPE, AZ

2350 1212 SARAH MOORE F 30 1:08:14 10:59 F3034 MESA, AZ

2351 1602 AJ WALTON F 15 1:08:14 10:59 F1115 PHOENIX, AZ

2352 3373 MICHAEL STEINMAN M 59 1:08:14 10:59 M5559 FOUNTAIN HILLS, AZ

2353 6129 ROBERT MOORE M 33 1:08:17 11:00 M3034 ,

2354 4037 DEREK CLINE M 31 1:08:24 11:01 M3034 PHOENIX, AZ

2355 919 KELLY BARNES F 23 1:08:25 11:01 F2024 SCOTTSDALE, AZ

2356 3454 GREGORY WEINER M 45 1:08:26 11:01 M4549 CHANDLER, AZ

2357 422 AMY MCSHEFFREY F 39 1:08:26 11:01 F3539 PHOENIX, AZ

2358 6010 SHAYNE WOOD F 23 1:08:27 11:01 F2024 ,

2359 6546 KATE ROSIER F 37 1:08:28 11:02 F3539 ,

2360 2632 CATHERINE MCBRIDE F 28 1:08:29 11:02 F2529 PHOENIX, AZ

2361 2455 BRENT NICHOLS M 50 1:08:31 11:02 M5054 SCOTTSDALE, AZ

2362 3444 STEPHANIE WARNHOLTZ F 22 1:08:32 11:02 F2024 SCOTTSDALE, AZ

2363 1591 LEIGH WEBB F 28 1:08:33 11:02 F2529 CHANDLER, AZ

2364 6306 ALICIA CYBULSKI F 24 1:08:33 11:02 F2024 ,

2365 6584 LAUREN JONES F 24 1:08:38 11:03 F2024 ,

2366 3053 KRISTI HURD F 52 1:08:39 11:03 F5054 CHANDLER, AZ

2367 195 JOSEPH FOSTER M 34 1:08:39 11:03 M3034 PHOENIX, AZ

2368 3563 ANGELENA LOPEZ F 22 1:08:41 11:04 F2024 PHOENIX, AZ

2369 2779 SARAH BAXTER F 30 1:08:41 11:04 F3034 PHOENIX, AZ

2370 769 BRYAN WOFFORD M 28 1:08:43 11:04 M2529 PHOENIX, AZ

2371 1705 RANDY VOIGT M 40 1:08:45 11:04 M4044 CHANDLER, AZ

2372 185 JENNIFER SCHNUR F 38 1:08:46 11:04 F3539 PHOENIX, AZ

2373 3209 EMILY NAIRN F 27 1:08:46 11:04 F2529 CAVE CREEK, AZ

2374 3070 CECILIA JIMENEZ F 49 1:08:47 11:05 F4549 PHOENIX, AZ

2375 1233 VICKY HUNTER F 44 1:08:47 11:05 F4044 CAVE CREEK, AZ

2376 920 JENNIFER DEFREATIS F 26 1:08:48 11:05 F2529 SCOTTSDALE, AZ

2377 1391 LINDA BERGGREN F 32 1:08:50 11:05 F3034 MESA, AZ

2378 4098 JENNIFER O'HAIR F 32 1:08:50 11:05 F3034 APACHE JUNCTION, AZ

2379 2386 STEPHANIE GRIMES F 43 1:08:52 11:05 F4044 GILBERT, AZ

2380 6522 ABBEY SMOLL F 33 1:08:53 11:06 F3034 ,

2381 904 SEAN OLSON M 32 1:08:55 11:06 M3034 CHANDLER, AZ

2382 3540 VALERIE IVERSON F 49 1:08:57 11:06 F4549 PHOENIX, AZ

2383 3246 RICH PENA M 58 1:08:57 11:06 M5559 TEMPE, AZ

2384 2661 SHARON JONES F 50 1:09:01 11:07 F5054 TEMPE, AZ

2385 4053 JACKIE GERARD F 39 1:09:02 11:07 F3539 CAVE CREEK, AZ

2386 1402 ANNA HALUSKA F 37 1:09:02 11:07 F3539 GILBERT, AZ

2387 374 CASEY MCCARTHY M 41 1:09:06 11:08 M4044 SCOTTSDALE, AZ

2388 2818 JOAN BRENNAN F 53 1:09:06 11:08 F5054 PHOENIX, AZ

2389 1238 CHARLOTTE GURULA F 36 1:09:07 11:08 F3539 PHOENIX, AZ

2390 1332 JENNIFER RODGERS F 27 1:09:08 11:08 F2529 GLENDALE, AZ

2391 865 STEVE WILLIAMS M 42 1:09:09 11:08 M4044 GILBERT, AZ

2392 6104 KIMBERLEE HELLER F 39 1:09:11 11:08 F3539 ,

2393 6196 KRIS PESIC F 43 1:09:11 11:09 F4044 ,

2394 2457 MICHELLE CASTRO F 38 1:09:14 11:09 F3539 CHANDLER, AZ

2395 3411 LAURINDA TURNAGE F 29 1:09:15 11:09 F2529 PHOENIX, AZ

2396 6578 MARIO NORIEGA M 42 1:09:16 11:09 M4044 ,

2397 2606 LATEEF HAMPTON M 34 1:09:18 11:10 M3034 GOODYEAR, AZ

2398 4071 ELLERIE LAGERHAUSEN F 14 1:09:18 11:10 F1115 MESA, AZ

2399 791 ANDREW CLEMENCY M 43 1:09:22 11:10 M4044 PHOENIX, AZ

2400 3711 JAN MELTON F 54 1:09:22 11:10 F5054 ROSWELL, NM

2401 2336 RICK ECCLES M 44 1:09:22 11:10 M4044 CHANDLER, AZ

2402 3379 JENIFER STUART F 33 1:09:22 11:10 F3034 SCOTTSDALE, AZ

2403 6377 CINDY ROYER F 41 1:09:24 11:11 F4044 ,

2404 4055 JULIANNE HAMILTON F 41 1:09:24 11:11 F4044 GILBERT, AZ

2405 1622 FRANK PONZO M 99 1:09:24 11:11 M0000 CHANDLER, AZ

2406 1825 JENNIFER THOMASON F 30 1:09:24 11:11 F3034 PHOENIX, AZ

2407 6201 STACEY JACKSON F 38 1:09:25 11:11 F3539 ,

2408 3423 INES VAZQUEZ F 38 1:09:26 11:11 F3539 PHOENIX, AZ

2409 989 TAMARA PICKERING F 49 1:09:26 11:11 F4549 SCOTTSDALE, AZ

2410 956 SHANNON VAUGHAN F 47 1:09:27 11:11 F4549 PHOENIX, AZ

2411 2519 PHIL DAVIS M 65 1:09:28 11:11 M6569 PEORIA, AZ

2412 6415 JAMIE KARAKAS F 29 1:09:32 11:12 F2529 ,

2413 873 JESSICA STAYTON F 33 1:09:32 11:12 F3034 TEMPE, AZ

2414 344 KENDRA TOLLACKSON F 46 1:09:34 11:12 F4549 PHOENIX, AZ

2415 1048 AMANDA MCGENNIS F 51 1:09:38 11:13 F5054 PHOENIX, AZ

2416 3488 PEGGY ZACHER F 29 1:09:38 11:13 F2529 PHOENIX, AZ

2417 2348 KIRSTEN FORD F 34 1:09:42 11:13 F3034 GILBERT, AZ

2418 2306 DEONE SOTTOSANTI F 54 1:09:42 11:14 F5054 PHOENIX, AZ

2419 931 KAREN TRUEBLOOD F 34 1:09:48 11:14 F3034 SCOTTSDALE, AZ

2420 2458 ADRIANA SOLTAU F 30 1:09:49 11:15 F3034 PHOENIX, AR

2421 2329 FRANK MILLINGTON II M 37 1:09:54 11:15 M3539 GLENDALE, AZ

2422 770 CHRISTIN BUREK F 35 1:09:54 11:15 F3539 PHOENIX, AZ

2423 2580 ZARA WEAVER M 54 1:09:58 11:16 M5054 PHOENIX, AZ

2424 2905 KAREN DOLEZAL F 35 1:09:58 11:16 F3539 PHOENIX, AZ

2425 3673 JAN GREENHOW M 68 1:09:58 11:16 M6569 LITCHFIELD PARK, AZ

2426 1398 RHONDA DINEEN F 39 1:10:01 11:17 F3539 GILBERT, AZ

2427 320 JANENE BURNHAM F 33 1:10:02 11:17 F3034 PHOENIX, AZ

2428 6317 CHRIS JOHNSON M 33 1:10:02 11:17 M3034 ,

2429 319 CHRISTIE ANAYA F 37 1:10:03 11:17 F3539 GLENDALE, AZ

2430 6285 JODY LAUDLE F 32 1:10:03 11:17 F3034 ,

2431 338 JENNIFER LOPEZ F 36 1:10:07 11:18 F3539 PHOENIX, AZ

2432 4027 ERIN ARMSTRONG F 30 1:10:08 11:18 F3034 GILBERT, AZ

2433 921 JAN MARTIN M 32 1:10:08 11:18 M3034 CHANDLER, AZ

2434 6184 COLLEEN SALK F 32 1:10:10 11:18 F3034 ,

2435 6621 DANIEL BERNAL M 41 1:10:11 11:18 M4044 ,

2436 2274 MICHAEL HODGINS M 35 1:10:14 11:19 M3539 CHANDLER, AZ

2437 2275 YEIMMY ALTAMIRANO-HODG F 29 1:10:14 11:19 F2529 CHANDLER, AZ

2438 2242 GREGG WARREN M 43 1:10:15 11:19 M4044 CORONADO, CA

2439 2341 HILARY RANK F 31 1:10:18 11:19 F3034 MESA, AZ

2440 3921 TERESA CURRY F 20 1:10:22 11:20 F2024 PHOENIX, AZ

2441 2510 CLAYTON BROOK M 59 1:10:22 11:20 M5559 CHANDLER, AZ

2442 3832 FARINA MCKENZIE F 39 1:10:23 11:20 F3539 PHOENIX, AZ

2443 758 AMY NGUYEN F 30 1:10:25 11:20 F3034 PHOENIX, AZ

2444 2819 ELIZABETH BRIZEL F 44 1:10:25 11:20 F4044 CHANDLER, AZ

2445 6351 CARMEN CORDOVA F 28 1:10:26 11:21 F2529 ,

2446 216 LONNIE COSBY M 58 1:10:27 11:21 M5559 PHOENIX, AZ

2447 4150 GARRY COX M 65 1:10:27 11:21 M6569 PHOENIX, AZ

2448 814 ROBIN MITCHELL F 49 1:10:28 11:21 F4549 PHOENIX, AZ

2449 2533 ERIN HANSON F 28 1:10:29 11:21 F2529 CHANDLER, AZ

2450 2417 RACHEL SINDELIR F 27 1:10:32 11:21 F2529 SCOTTSDALE, AZ

2451 6007 ELEANOR BECK F 47 1:10:33 11:22 F4549 ,

2452 1489 LORI KUCZMANSKI F 32 1:10:33 11:22 F3034 PHOENIX, AZ

2453 2321 DUANE BARR M 37 1:10:38 11:22 M3539 MESA, AZ

2454 3106 LACIE KRINER F 28 1:10:38 11:22 F2529 TEMPE, AZ

2455 3828 SHAWN MAHONEY F 31 1:10:40 11:23 F3034 TEMPE, AZ

2456 4024 WARREN ALLEN M 34 1:10:40 11:23 M3034 PHOENIX, AZ

2457 4023 CORETTA ALLEN F 35 1:10:40 11:23 F3539 PHOENIX, AZ

2458 2468 MONICA CUNNINGHAM F 43 1:10:40 11:23 F4044 SCOTTSDALE, AZ

2459 2948 KATHLEEN FORCUCCI F 49 1:10:40 11:23 F4549 SCOTTSDALE, AZ

2460 3525 CHAD FINE M 29 1:10:41 11:23 M2529 GILBERT, AZ

2461 2966 ELIZABETH GARRISON F 39 1:10:51 11:24 F3539 PEORIA, AZ

2462 3097 HEATHER KNOPF F 35 1:10:51 11:25 F3539 CAREFREE, AZ

2463 289 MAMIKO SUGIYAMA F 40 1:10:52 11:25 F4044 GLENDALE, AZ

2464 2865 DENNIS CLARK M 59 1:10:52 11:25 M5559 TEMPE, AZ

2465 1625 JOSEPH MURRAY M 43 1:10:52 11:25 M4044 TEMPE, AZ

2466 812 ESTEVAN RIVERA M 41 1:10:52 11:25 M4044 PHOENIX, AZ

2467 3202 TRACY MORSE F 34 1:10:53 11:25 F3034 TEMPE, AZ

2468 167 LAURA ORR F 35 1:10:56 11:25 F3539 PHOENIX, AZ

2469 3825 KAREN LINDA F 32 1:10:57 11:26 F3034 PHOENIX, AZ

2470 3170 KARYN MCDONALD F 48 1:10:59 11:26 F4549 SPANISH FORK, UT

2471 1352 GINI SATER F 43 1:11:01 11:26 F4044 PHOENIX, AZ

2472 6516 JEFF MENARD M 36 1:11:01 11:26 M3539 ,

2473 2575 LANI TALAWYMA F 32 1:11:04 11:27 F3034 HOTEVILLA, AZ

2474 3084 KELLY KEELER F 41 1:11:09 11:27 F4044 MESA, AZ

2475 3208 SATEESH NABAR M 62 1:11:09 11:27 M6064 PHOENIX, AZ

2476 3359 AMBER SONDREAL F 27 1:11:09 11:27 F2529 PHOENIX, AZ

2477 3793 THOMAS COLLINS M 31 1:11:09 11:27 M3034 TEMPE, AZ

2478 3412 NANCY TURNER F 47 1:11:09 11:27 F4549 CHANDLER, AZ

2479 3981 ANNE RONAN F 55 1:11:16 11:29 F5559 SCOTTSDALE, AZ

2480 1432 LILY OTERO F 28 1:11:18 11:29 F2529 PHOENIX, AZ

2481 1549 TABBY WILLIS F 39 1:11:18 11:29 F3539 CHANDLER, AZ

2482 2550 MARTY MICHELSON M 61 1:11:24 11:30 M6064 GILBERT, AZ

2483 459 CHRIS BANKEN M 37 1:11:24 11:30 M3539 ANTHEM, AZ

2484 6121 THEODUS TONEY III M 39 1:11:27 11:30 M3539 ,

2485 3762 JOHN WIDENER M 61 1:11:32 11:31 M6064 PHOENIX, AZ

2486 2655 JONI WARD F 51 1:11:33 11:31 F5054 TEMPE, AZ

2487 2656 LISA GINN F 36 1:11:33 11:31 F3539 CHANDLER, AZ

2488 4064 JERI JAMES F 38 1:11:34 11:31 F3539 GILBERT, AZ

2489 1208 STACEY SILBERT F 38 1:11:36 11:32 F3539 CHANDLER, AZ

2490 2576 CRAIG N TALBERT M 54 1:11:40 11:32 M5054 PHOENIX, AZ

2491 1826 RICH GILBERT M 45 1:11:40 11:32 M4549 TEMPE, AZ

2492 979 MARISSA WATO F 27 1:11:41 11:33 F2529 SCOTTSDALE, AZ

2493 4076 RYAN LARSEN M 32 1:11:41 11:33 M3034 TEMPE, AZ

2494 4075 ALYSSA LARSEN F 30 1:11:42 11:33 F3034 TEMPE, AZ

2495 1695 CARLTON TAYLOR M 39 1:11:46 11:33 M3539 PEORIA, AZ

2496 1550 DENA ANDERSON F 27 1:11:48 11:34 F2529 CHANDLER, AZ

2497 1557 KATHARINE STALCUP F 33 1:11:49 11:34 F3034 CHANDLER, AZ

2498 3645 SHERI CAMP F 55 1:11:51 11:34 F5559 MARICOPA, AZ

2499 3019 MATT HAWKINS M 36 1:11:51 11:34 M3539 PHOENIX, AZ

2500 2872 NIKKI CONLAN F 21 1:11:51 11:34 F2024 APACHE JUNCTION, AZ

2501 3198 ANA MONTANO F 34 1:11:52 11:34 F3034 SCOTTSDALE, AZ

2502 478 ALLEN BUCKNELL M 50 1:11:53 11:35 M5054 PHOENIX, AZ

2503 228 KRIS PATHUIS M 56 1:11:56 11:35 M5559 SCOTTSDALE, AZ

2504 897 ANGIE DELGADILLO F 34 1:11:57 11:35 F3034 PHOENIX, AZ

2505 794 MICHELLE DUNN F 35 1:11:59 11:35 F3539 PHOENIX, AZ

2506 1085 DAVID BUDREWICZ M 50 1:12:00 11:36 M5054 PHOENIX, AZ

2507 1084 RYAN BUDREWICZ M 14 1:12:00 11:36 M1115 PHOENIX, AZ

2508 1000 DAVID SARGENT M 42 1:12:01 11:36 M4044 MESA, AZ

2509 2784 JOSEPH BEDNORZ M 63 1:12:09 11:37 M6064 PHOENIX, AZ

2510 3616 MARK GRIPPI M 30 1:12:09 11:37 M3034 SCOTTSDALE, AZ

2511 6206 HEATHER MROWIEC F 42 1:12:12 11:38 F4044 ,

2512 2415 LINDA POTTS F 50 1:12:13 11:38 F5054 MESA, AZ

2513 2416 KAREN STOCKTON F 39 1:12:14 11:38 F3539 MESA, AZ

2514 635 ALEX GLENN M 15 1:12:14 11:38 M1115 PHOENIX, AZ

2515 3470 DENISE WILLIAMS F 26 1:12:14 11:38 F2529 CHANDLER, AZ

2516 2377 STACIE SHARP F 30 1:12:16 11:38 F3034 GILBERT, AZ

2517 2378 SHAUNA SHARP F 25 1:12:18 11:39 F2529 GILBERT, AZ

2518 798 PAM PEIRCE F 51 1:12:26 11:40 F5054 PHOENIX, AZ

2519 1704 KENNEDY VOIGT F 10 1:12:29 11:40 F0110 CHANDLER, AZ

2520 831 DWIGHT HULLM M 56 1:12:36 11:41 M5559 MESA, AZ

2521 2501 JOSEPH JEFFERS M 25 1:12:37 11:42 M2529 SCOTTSDALE, AZ

2522 214 TRESBIN HOWARD F 37 1:12:42 11:42 F3539 PEORIA, AZ

2523 536 GILBRAN VILLALOBOS M 22 1:12:43 11:43 M2024 GLENDALE, AZ

2524 3575 KRISTI MORROW F 31 1:12:43 11:43 F3034 SCOTTSDALE, AZ

2525 2305 LEONA VYBORNY F 25 1:12:44 11:43 F2529 PHOENIX, AZ

2526 6335 ANGELA COX F 30 1:12:44 11:43 F3034 ,

2527 3576 SCOTT MORROW M 33 1:12:44 11:43 M3034 SCOTTSDALE, AZ

2528 3674 KAREN GREENHOW F 55 1:12:46 11:43 F5559 LITCHFIELD PARK, AZ

2529 1324 DUSTY GLOEDE F 28 1:12:47 11:43 F2529 APACHE JUNCTION, AZ

2530 4097 COLIN O'HAIR M 33 1:12:56 11:45 M3034 APACHE JUNCTION, AZ

2531 1490 LINDSAY NORDSTROM F 29 1:12:57 11:45 F2529 PHOENIX, AZ

2532 1795 DEBORAH GOBINS F 50 1:12:58 11:45 F5054 PHOENIX, AZ

2533 207 LYLE LANGLOIS M 77 1:12:58 11:45 M7598 PHOENIX, AZ

2534 688 STEPHANIE CARDONA F 34 1:13:06 11:46 F3034 PHOENIX, AZ

2535 3710 TRACEY MCFARLAND F 39 1:13:06 11:46 F3539 CHANDLER, AZ

2536 4057 LARRY HANSON M 58 1:13:10 11:47 M5559 PHOENIX, AZ

2537 2574 JUDY TALAWYMA F 58 1:13:14 11:48 F5559 HOTEVILLA, AZ

2538 2235 WILMA MCKENZIE F 48 1:13:16 11:48 F4549 PARKER, AZ

2539 6565 NATALIE COOPER F 22 1:13:17 11:48 F2024 ,

2540 3108 BRANNON LACEY M 30 1:13:17 11:48 M3034 PHOENIX, AZ

2541 6564 DUSTIN LACEY M 30 1:13:18 11:48 M3034 ,

2542 6033 KATHRYN CHILTON F 23 1:13:21 11:49 F2024 ,

2543 6031 LAURA BAUMRUCKER F 21 1:13:21 11:49 F2024 ,

2544 2720 TRACY SATTLER F 47 1:13:24 11:49 F4549 GLENDALE, AZ

2545 1034 KELLIE WEBB F 33 1:13:25 11:49 F3034 GILBERT, AZ

2546 2488 STEVE HAMMOND M 25 1:13:29 11:50 M2529 SCOTTSDALE, AZ

2547 3494 CARMELA ABRIL F 36 1:13:30 11:50 F3539 TEMPE, AZ

2548 305 LORNA HAMILTON F 38 1:13:31 11:50 F3539 PHOENIX, AZ

2549 2589 GRACE YATES F 43 1:13:34 11:51 F4044 TEMPE, AZ

2550 3264 ANGELA PLATIZKY F 27 1:13:34 11:51 F2529 PHOENIX, AZ

2551 899 HOLLEY KVETKO M 33 1:13:37 11:51 M3034 PHOENIX, AZ

2552 6589 KARLI NELSON F 27 1:13:39 11:52 F2529 ,

2553 2309 PATRICK STONE M 31 1:13:42 11:52 M3034 MESA, AZ

2554 4089 MAC MCGINN M 62 1:13:42 11:52 M6064 TEMPE, AZ

2555 1165 CECILIA LARA F 46 1:13:45 11:53 F4549 GILBERT, AZ

2556 1204 RENEE CAUCHI F 18 1:13:45 11:53 F1619 GILBERT, AZ

2557 2266 MERILEE MCLAUGHLIN F 36 1:13:48 11:53 F3539 SCOTTSDALE, AZ

2558 3600 RHONDA SWINDELL F 39 1:13:53 11:54 F3539 GLENDALE, AZ

2559 1736 JOE GRAHAM M 28 1:13:53 11:54 M2529 TEMPE, AZ

2560 1735 NICOLE GEORGE F 28 1:13:53 11:54 F2529 TEMPE, AZ

2561 4130 ANN TUXFORD F 26 1:13:56 11:54 F2529 CHANDLER, AZ

2562 3460 PAT WHITE F 46 1:13:58 11:55 F4549 GLENDALE, AZ

2563 6193 WILLIAM SANTIAGO M 40 1:13:59 11:55 M4044 ,

2564 902 KATHI KIRI GOLDBERG F 33 1:14:00 11:55 F3034 PHOENIX, AZ

2565 903 BECKY OLSON F 33 1:14:00 11:55 F3034 CHANDLER, AZ

2566 3473 MARLENE WILLIAMS F 28 1:14:01 11:55 F2529 CHANDLER, AZ

2567 2924 JASON ELROD M 27 1:14:05 11:56 M2529 SCOTTSDALE, AZ

2568 2325 ROBERT BODNAR M 38 1:14:06 11:56 M3539 SURPRISE, AZ

2569 2326 HEATHER BODNAR F 34 1:14:06 11:56 F3034 SURPRISE, AZ

2570 1255 NORMA CALLEROS F 31 1:14:06 11:56 F3034 CHANDLER, AZ

2571 2254 LIISA WALIMAA F 42 1:14:07 11:56 F4044 PHOENIX, AZ

2572 3349 JODI SKEEL F 28 1:14:09 11:56 F2529 PHOENIX, AZ

2573 2893 DAVID DELAROSA M 35 1:14:10 11:57 M3539 AVONDALE, AZ

2574 3259 LYNN PIEROTTI F 27 1:14:10 11:57 F2529 PHOENIX, AZ

2575 3324 TINA SCHAIBLE F 25 1:14:10 11:57 F2529 PHOENIX, AZ

2576 1077 LORI ROMO F 27 1:14:10 11:57 F2529 FORT MCDOWELL, AZ

2577 6347 ALEX BERNAL M 42 1:14:13 11:57 M4044 ,

2578 2925 LAUREN ELROD F 28 1:14:20 11:58 F2529 SCOTTSDALE, AZ

2579 507 JOE SCOTT M 57 1:14:21 11:58 M5559 PHOENIX, AZ

2580 3912 LUIS CALDERON M 36 1:14:23 11:59 M3539 PHOENIX, AZ

2581 6505 MICHELLE OLAQUE F 23 1:14:24 11:59 F2024 ,

2582 3510 MICHELE CAIN F 28 1:14:27 11:59 F2529 PHOENIX, AZ

2583 2999 JUAN GUTIERREZ M 43 1:14:27 11:59 M4044 PHOENIX, AZ

2584 2960 MICHAEL GAINEY M 46 1:14:31 12:00 M4549 GOODYEAR, AZ

2585 1237 KRISTI MCNEELEY F 27 1:14:32 12:00 F2529 MESA, AZ

2586 6179 MOLLY MCMILLAN F 24 1:14:35 12:01 F2024 TEMPE, AZ

2587 1024 CRAOL WILSEY F 30 1:14:37 12:01 F3034 SCOTTSDALE, AZ

2588 3226 JENNIFER O'NEILL F 28 1:14:41 12:02 F2529 PHOENIX, AZ

2589 3172 KATHY MCKINNON F 47 1:14:41 12:02 F4549 CAVE CREEK, AZ

2590 729 KATE HILLMAN F 28 1:14:42 12:02 F2529 TEMPE, AZ

2591 6051 JASMIN MEJIA F 34 1:14:43 12:02 F3034 ,

2592 526 CORY MCCORMICK M 34 1:14:43 12:02 M3034 GLENDALE, AZ

2593 273 NEVA BEGAY F 56 1:14:51 12:03 F5559 PHOENIX, AZ

2594 2509 MORT BLOOMBERG M 71 1:14:52 12:03 M7074 TEMPE, AZ

2595 3367 CINDY SROGONCIK F 57 1:14:53 12:04 F5559 PHOENIX, AZ

2596 803 PAM MARTIN F 26 1:14:58 12:04 F2529 PHOENIX, AZ

2597 1724 ELAINE GILSDORF F 39 1:14:59 12:05 F3539 SURPRISE, AZ

2598 2212 JIM TROCHE M 59 1:15:01 12:05 M5559 CHANDLER, AZ

2599 2445 MICHAEL COBB M 38 1:15:02 12:05 M3539 MESA, AZ

2600 995 TRACY BECKSTEAD F 31 1:15:06 12:06 F3034 CAVE CREEK, AZ

2601 994 KERRI BRADIGAN F 28 1:15:07 12:06 F2529 GLENDALE, AZ

2602 3140 LISA LOUIE F 28 1:15:07 12:06 F2529 GILBERT, AZ

2603 296 MICHELLE NOE F 39 1:15:11 12:06 F3539 PHOENIX, AZ

2604 3898 REBECCA ACOSTA F 16 1:15:13 12:07 F1619 GLENDALE, AZ

2605 3897 COLLEEN ACOSTA F 16 1:15:13 12:07 F1619 GLENDALE, AZ

2606 476 SUSAN HUMPHRYS F 54 1:15:15 12:07 F5054 PHOENIX, AZ

2607 6635 RACHEL SEEPLE F 36 1:15:16 12:07 F3539 ,

2608 6326 KARTHIK KARUPPAIYA M 28 1:15:24 12:08 M2529 ,

2609 2935 MICHAEL EVANS M 38 1:15:26 12:09 M3539 CHANDLER, AZ

2610 3447 KARI WATSON F 37 1:15:27 12:09 F3539 PHOENIX, AZ

2611 6393 KRISTEN MEDLEY F 25 1:15:27 12:09 F2529 ,

2612 6668 KEVIN HOOKANO M 36 1:15:29 12:09 M3539 ,

2613 3620 P C LIPPINCOTT F 45 1:15:29 12:09 F4549 PHOENIX, AZ

2614 3039 CHRISTINE HOOPES F 42 1:15:29 12:09 F4044 HIGLEY, AZ

2615 3272 STEPHANIE PROROK F 31 1:15:36 12:10 F3034 SCOTTSDALE, AZ

2616 1284 TOM WILSON M 52 1:15:36 12:10 M5054 MESA, AZ

2617 6623 KELLY HAHN F 30 1:15:36 12:10 F3034 ,

2618 1283 RANDI WILSON F 51 1:15:37 12:11 F5054 MESA, AZ

2619 3024 SHANNON HEINZE F 29 1:15:41 12:11 F2529 QUEEN CREEK, AZ

2620 6027 DEBRA STEVENS F 53 1:15:45 12:12 F5054 ,

2621 623 LETTY BUTNER F 41 1:15:46 12:12 F4044 PHOENIX, AZ

2622 521 NICOLE DAVIS F 22 1:15:47 12:12 F2024 PHOENIX, AZ

2623 139 LARRY LORENZEN M 57 1:15:50 12:13 M5559 PHOENIX, AZ

2624 604 BRETT BERRY M 41 1:15:54 12:13 M4044 GILBERT, AZ

2625 437 ANITA KLEIN F 40 1:15:55 12:14 F4044 PHOENIX, AZ

2626 1530 PAT MONAHAN M 46 1:16:02 12:15 M4549 CHANDLER, AZ

2627 4110 DAVID SCHLEIFER M 34 1:16:05 12:15 M3034 AVONDALE, AZ

2628 4109 BRIDGET SCHLEIFER F 34 1:16:05 12:15 F3034 AVONDALE, AZ

2629 1340 JEFF HALIM M 47 1:16:09 12:16 M4549 PHOENIX, AZ

2630 420 LEAH KAPLAN F 11 1:16:10 12:16 F1115 SCOTTSDALE, AZ

2631 283 WENDY MOSTOLLER F 38 1:16:10 12:16 F3539 GOODYEAR, AZ

2632 389 STEVE SPACKEEN M 49 1:16:14 12:17 M4549 SCOTTSDALE, AZ

2633 3863 KRISTEN SJOBLOM F 19 1:16:16 12:17 F1619 PHOENIX, AZ

2634 421 PAM KAPLAN F 45 1:16:17 12:17 F4549 SCOTTSDALE, AZ

2635 3506 VALERIE BRADSHAW F 44 1:16:18 12:17 F4044 PHOENIX, AZ

2636 3750 TONY STONE M 33 1:16:20 12:17 M3034 LAVEEN, AZ

2637 2545 PETER LEE M 45 1:16:21 12:18 M4549 PEORIA, AZ

2638 3313 AMANDA ROSE F 26 1:16:25 12:18 F2529 PHOENIX, AZ

2639 6595 THOMAS BATSON M 47 1:16:26 12:18 M4549 ,

2640 3355 GARRETT SNOOK M 37 1:16:38 12:20 M3539 CHANDLER, AZ

2641 2794 ROBIN BERRY F 53 1:16:38 12:20 F5054 BUCKEYE, AZ

2642 3337 ROB SHEEHAN M 50 1:16:41 12:21 M5054 PHOENIX, AZ

2643 4152 JODIE GARTH F 53 1:16:50 12:22 F5054 TEMPE, AZ

2644 6255 CINDY HAMMOND F 45 1:16:53 12:23 F4549 ,

2645 826 DENISE LEVERETT F 48 1:16:53 12:23 F4549 PHOENIX, AZ

2646 164 J. RAE OLK F 39 1:16:57 12:23 F3539 PHOENIX, AZ

2647 4058 PEGGY HANSON F 57 1:16:59 12:24 F5559 PHOENIX, AZ

2648 2406 TRUDY DAVE F 50 1:17:08 12:25 F5054 CHANDLER, AZ

2649 165 MARTHA JOHNSON F 33 1:17:09 12:25 F3034 PHOENIX, AZ

2650 119 JUSTIN CAINE M 35 1:17:19 12:27 M3539 SCOTTSDALE, AZ

2651 2864 ANGELA CISSELL F 43 1:17:19 12:27 F4044 GILBERT, AZ

2652 3318 PHYLLIS RUOHO F 58 1:17:19 12:27 F5559 CHANDLER, AZ

2653 6011 MARTHA ANAYA F 30 1:17:19 12:27 F3034 ,

2654 6706 MELISSA BECKER F 38 1:17:27 12:28 F3539 PEORIA, AZ

2655 2355 MAUREEN OLEARY F 44 1:17:29 12:29 F4044 QUEEN CREEK, AZ

2656 6414 DENISE WHITE F 45 1:17:30 12:29 F4549 ,

2657 2599 HEATHER LANIER F 39 1:17:30 12:29 F3539 PHOENIX, AZ

2658 2472 LIZ STUDER F 38 1:17:31 12:29 F3539 PHOENIX, AZ

2659 3816 KENNETH HOPKINS M 43 1:17:35 12:30 M4044 PHOENIX, AZ

2660 3972 LUKE POWERS M 11 1:17:38 12:30 M1115 SCOTTSDALE, AZ

2661 1710 MICHELLE STEINER F 64 1:17:41 12:31 F6064 CHANDLER, AZ

2662 2871 KEVIN CONDON M 40 1:17:42 12:31 M4044 PHOENIX, AZ

2663 2870 JOANNA CONDON F 35 1:17:42 12:31 F3539 PHOENIX, AZ

2664 1158 MICHAEL SHUEY M 32 1:17:44 12:31 M3034 CHANDLER, AZ

2665 2921 CLIFF ELKINS M 76 1:17:44 12:31 M7598 SURPISE, AZ

2666 1157 MIKE WITTREICH M 33 1:17:51 12:32 M3034 CHANDLER, AZ

2667 388 RANDALL SMITH M 54 1:17:53 12:32 M5054 PHOENIX, AZ

2668 2548 JOE MATUSAK M 40 1:17:56 12:33 M4044 CHANDLER, AZ

2669 1786 CHRIS STEGMAN M 38 1:17:56 12:33 M3539 GILBERT, AZ

2670 515 PAULETTE KELLER F 55 1:17:57 12:33 F5559 BLACK CANYON CITY,

2671 3678 AMY HARRIS F 26 1:17:58 12:33 F2529 PHOENIX, AZ

2672 3632 CHRISTOPHER ANDERSON M 27 1:17:58 12:33 M2529 PHOENIX, AZ

2673 1626 MORGAN NEFF M 47 1:17:58 12:33 M4549 PHOENIX, AZ

2674 3971 GIGI POWERS F 46 1:17:59 12:33 F4549 SCOTTSDALE, AZ

2675 1167 DEAN THORNTON M 39 1:18:02 12:34 M3539 CHANDLER, AZ

2676 4060 CHERYLYN HENRY F 28 1:18:05 12:34 F2529 MESA, AZ

2677 375 JOSE SALAZAR M 43 1:18:06 12:35 M4044 PHOENIX, AZ

2678 480 ASHLEY LONDO F 13 1:18:10 12:35 F1115 PHOENIX, AZ

2679 3868 AMY TANGEMAN F 36 1:18:19 12:37 F3539 GLENDALE, AZ, AZ

2680 479 SOPHIE BUCKNELL F 43 1:18:19 12:37 F4044 PHOENIX, AZ

2681 3625 JOSEPHINE SHEEHAN F 42 1:18:20 12:37 F4044 PHOENIX, AZ

2682 1124 MICHAEL JOHNSON M 40 1:18:22 12:37 M4044 GILBERT, AZ

2683 1125 TRICIA KELLOGG F 38 1:18:22 12:37 F3539 GILBERT, AZ

2684 6197 HEIDI HERMAN F 23 1:18:23 12:37 F2024 ,

2685 3433 SUSAN VOSDOGANES F 34 1:18:23 12:37 F3034 QUEEN CREEK, AZ

2686 6704 RON SKINNER M 55 1:18:29 12:38 M5559 PHOENIX, AZ

2687 6370 JENNIFER HESTER F 44 1:18:38 12:40 F4044 ,

2688 6272 MINDY MILLER F 48 1:18:41 12:40 F4549 ,

2689 6292 KRISITNE GILES F 36 1:18:45 12:41 F3539 ,

2690 3794 MORGAN CUMMARD F 25 1:18:48 12:41 F2529 CHANDLER, AZ

2691 2714 FLORENCE SWANSON F 43 1:18:48 12:41 F4044 CHANDLER, AZ

2692 2289 KARI PATTERSON F 39 1:18:49 12:41 F3539 CHANDLER, AZ

2693 3441 MINDY WALTON F 56 1:18:51 12:42 F5559 SCOTTSDALE, AZ

2694 858 CHRISTINE MILLS F 26 1:18:59 12:43 F2529 MESA, AZ

2695 3892 BENJAMIN SCHOLLER M 24 1:19:01 12:43 M2024 PHOENIX, AZ

2696 482 MEGAN LONDO F 17 1:19:02 12:44 F1619 PHOENIX, AZ

2697 6531 JIMMY HERNANDEZ M 20 1:19:17 12:46 M2024 ,

2698 3613 BLANCA ALARCON-DAVIS F 39 1:19:17 12:46 F3539 GLENDALE, AZ

2699 3893 SUSAN ROMANDETTI F 24 1:19:21 12:47 F2024 PHOENIX, AZ

2700 1281 CHRISTINA LABASTIDA F 25 1:19:21 12:47 F2529 TEMPE, AZ

2701 3649 NANCY CASTRO F 40 1:19:21 12:47 F4044 GILBERT, AZ

2702 6696 ROBBIE GELINEAU F 28 1:19:22 12:47 F2529 ,

2703 1732 CYNTHIA DANGELO F 26 1:19:23 12:47 F2529 TEMPE, AZ

2704 811 BRANDICE BRUCE F 31 1:19:27 12:48 F3034 PHOENIX, AZ

2705 458 REGGIE ST. ROMAIN M 35 1:19:35 12:49 M3539 ANTHEM, AZ

2706 2827 RANDI BRYANT F 47 1:19:37 12:49 F4549 CHANDLER, AZ

2707 1834 MARK KOBYLINSKI M 29 1:19:37 12:49 M2529 PHOENIX, AZ

2708 2826 BRANDI BRYANT F 29 1:19:37 12:49 F2529 MESA, AZ

2709 240 MARY ANN EVANS F 61 1:19:38 12:49 F6064 PHOENIX, AZ

2710 2261 PHIL NEMETH M 32 1:19:42 12:50 M3034 PHOENIX, AZ

2711 2994 IVORY GREEN-LOTT F 34 1:19:42 12:50 F3034 PHOENIX, AZ

2712 2448 GWENDOLYN MCKAY F 23 1:19:42 12:50 F2024 PHOENIX, AZ

2713 775 KATIE SCHWARTZ F 28 1:19:43 12:50 F2529 MESA, AZ

2714 1405 BERNARD ABBADESSA M 54 1:19:44 12:50 M5054 MESA, AZ

2715 3410 MARK TROLLINGER M 37 1:19:46 12:51 M3539 CHANDLER, AZ

2716 6583 DIANA QUIKIN F 25 1:19:47 12:51 F2529 ,

2717 749 ANDREA BARTELT F 59 1:19:55 12:52 F5559 PHOENIX, AZ

2718 3297 PAUL RHODES, JR. M 50 1:19:56 12:52 M5054 PHOENIX, AZ

2719 1313 KIMBERLY HANSON F 46 1:20:06 12:54 F4549 TEMPE, AZ

2720 675 PEGGY PARMA F 57 1:20:06 12:54 F5559 PHOENIX, AZ

2721 3960 BILL LANGLOIS M 50 1:20:15 12:55 M5054 SCOTTSDALE, AZ

2722 3627 KITTY TANG F 35 1:20:34 12:58 F3539 AVONDALE, AZ

2723 1364 SIERRA WALDRON F 29 1:20:34 12:58 F2529 PHOENIX, AZ

2724 859 BETH GLICK F 26 1:20:36 12:59 F2529 PHOENIX, AZ

2725 2991 SANDIE GRADY F 36 1:20:52 13:01 F3539 SCOTTSDALE, AZ

2726 3120 AMANDA LAW F 27 1:20:54 13:02 F2529 PHOENIX, AZ

2727 4008 IRENE VERDEROSA F 49 1:20:56 13:02 F4549 PHOENIX, AZ

2728 3907 MARILYN BROPHY F 63 1:21:07 13:04 F6064 PHOENIX, AZ

2729 3284 DALE REES M 67 1:21:09 13:04 M6569 PEORIA, AZ

2730 983 CYNDI KEEN F 49 1:21:16 13:05 F4549 SCOTTSDALE, AZ

2731 1079 DOUGLAS HAY M 39 1:21:30 13:07 M3539 , AZ

2732 2322 DANA DEWES F 59 1:21:33 13:08 F5559 CHANDLER, AZ

2733 1033 ERIN WELLENDORF F 28 1:21:48 13:10 F2529 SCOTTSDALE, AZ

2734 2943 CYNTHIA FIGUEROA F 27 1:21:51 13:11 F2529 GLENDALE, AZ

2735 6122 LISA SANCHEZ M 32 1:21:55 13:11 M3034 ,

2736 462 DAWN BOLSTAD-JOHNSON F 40 1:21:58 13:12 F4044 GLENDALE, AZ

2737 4004 CLAYTON TOWER M 28 1:21:59 13:12 M2529 PHOENIX, AZ

2738 2578 PAUL THEUT M 49 1:21:59 13:12 M4549 PHOENIX, AZ

2739 1606 DEBBIE GUNDRY F 54 1:22:00 13:12 F5054 CHANDLER, AZ

2740 3129 BARBARA LLOYD F 31 1:22:10 13:14 F3034 TEMPE, AZ

2741 3044 KAREN HOVENGA F 33 1:22:10 13:14 F3034 TEMPE, AZ

2742 3858 MARGRET SEIBERT F 59 1:22:12 13:14 F5559 TEMPE, AZ

2743 1042 KRISTI SCHRANK F 39 1:22:18 13:15 F3539 PHOENIX, AZ

2744 3790 JENNIFER CAPOBIANCO F 39 1:22:25 13:16 F3539 SCOTTSDALE, AZ

2745 3854 NANCIE SCHAUDER F 48 1:22:26 13:16 F4549 SCOTTSDALE, AZ

2746 6312 SHARON NELSEN F 43 1:22:29 13:17 F4044 ,

2747 3787 DAVID BUDZINSKI M 40 1:22:32 13:17 M4044 SCOTTSDALE, AZ

2748 3432 MELINDA VINALES F 36 1:22:35 13:18 F3539 PHOENIX, AZ

2749 997 GINA SPEIRS F 36 1:22:47 13:20 F3539 CAVE CREEK, AZ

2750 996 MIAH SPEIRS M 33 1:22:47 13:20 M3034 CAVE CREEK, AZ

2751 2409 ALLYSON HILL F 30 1:22:57 13:21 F3034 LAVEEN, AZ

2752 978 MIRANDA WATO F 46 1:23:00 13:22 F4549 SCOTTSDALE, AZ

2753 260 GLENN ELMS M 13 1:23:06 13:23 M1115 WADDELL, AZ

2754 2693 NICK FAY M 28 1:23:27 13:26 M2529 PHOENIX, AZ

2755 4148 LIZ COLE-FAY F 29 1:23:27 13:26 F2529 PHOENIX, AZ

2756 1383 EMILY STEVENS F 15 1:23:39 13:28 F1115 PHOENIX, AZ

2757 797 KEELY BOLSTAD F 30 1:24:01 13:32 F3034 PHOENIX, AZ

2758 1594 GINA TAYLOR F 34 1:24:04 13:32 F3034 MESA, AZ

2759 2926 DAVID EMENHISER M 41 1:24:12 13:34 M4044 MESA, AZ

2760 2283 JENNIFER JAMES F 31 1:24:16 13:34 F3034 PHOENIX, AZ

2761 3798 CLAIRE ELKINS F 77 1:24:25 13:36 F7598 SURPRISE, AZ

2762 1741 NANCY RANDOLPH F 43 1:24:26 13:36 F4044 TEMPE, AZ

2763 1586 AMY HOWELL F 39 1:24:26 13:36 F3539 TEMPE, AZ

2764 6541 BRITTNI PRIETO F 23 1:24:32 13:37 F2024 ,

2765 3002 ELSIE HALL F 55 1:24:42 13:38 F5559 SURPRISE, AZ

2766 2722 MARK HILLYARD M 34 1:24:44 13:39 M3034 PHOENIX, AZ

2767 2657 CATHY KOCHERT F 51 1:24:57 13:41 F5054 PHOENIX, AZ

2768 373 MARIA MCCARTHY F 41 1:24:58 13:41 F4044 SCOTTSDALE, AZ

2769 6718 TRACEY BENSON F 42 1:25:01 13:41 F4044 TEMPE, AZ

2770 1569 KATHLEEN CLARK F 42 1:25:01 13:41 F4044 TEMPE, AZ

2771 3687 ANDREA HIPPS F 32 1:25:06 13:42 F3034 PHOENIX, AZ

2772 4015 SHEILA YODER F 45 1:25:06 13:42 F4549 PHOENIX, AZ

2773 1399 JOANNE HOWARD F 63 1:25:50 13:49 F6064 GILBERT, AZ

2774 172 CARRIE CALDERON F 32 1:25:56 13:50 F3034 PHOENIX, AZ

2775 745 TERRI OWEN F 60 1:25:59 13:51 F6064 PHOENIX, AZ

2776 2302 JENNIFER HAMILTON F 29 1:26:00 13:51 F2529 GILBERT, AZ

2777 6012 DANA ROSENBLATT F 48 1:26:08 13:52 F4549 ,

2778 1021 JOANNA LAWLER F 44 1:26:15 13:53 F4044 GILBERT, AZ

2779 3640 LYNN BORUSHKO F 48 1:26:21 13:54 F4549 MESA, AZ

2780 2929 WENDY ERAUTT F 51 1:26:21 13:54 F5054 MESA, AZ

2781 1026 KATHY KUBEK F 43 1:26:24 13:55 F4044 MESA, AZ

2782 1715 MICHAEL SEMERAD M 50 1:26:39 13:57 M5054 QUEEN CREEK, AZ

2783 3205 BETTY MUNOZ F 37 1:26:40 13:57 F3539 AVONDALE, AZ

2784 6173 BURKE PAINTER M 61 1:26:52 13:59 M6064 GLENDALE, AZ

2785 2588 ADAM MACK WRIGHT M 24 1:27:14 14:03 M2024 SCOTTSDALE, AZ

2786 2521 KELLI M DONLEY F 28 1:27:15 14:03 F2529 TEMPE, AZ

2787 984 LAUREN KEEN F 17 1:27:21 14:04 F1619 SCOTTSDALE, AZ

2788 1104 SAMMY BECK M 59 1:27:24 14:04 M5559 CHANDLER, AZ

2789 179 DELLA JESUS F 56 1:27:43 14:07 F5559 PHOENIX, AZ

2790 3211 BASANT NATU M 65 1:27:49 14:08 M6569 SCOTTSDALE, AZ

2791 2251 MOLLY WOJCIEHOWSKI F 24 1:28:06 14:11 F2024 PHOENIX, AZ

2792 3305 JEANETTE ROGERS F 61 1:28:19 14:13 F6064 SCOTTSDALE, AZ

2793 1815 JULIE SKAKOON F 27 1:28:34 14:16 F2529 PHOENIX, AZ

2794 837 KATHLEEN MARSHALL F 41 1:28:56 14:19 F4044 PHOENIX, AZ

2795 1106 HEATHER BUTLER F 17 1:28:58 14:20 F1619 CHANDLER, AZ

2796 2397 AIMEE KNIGHT-FOGEL F 33 1:29:03 14:20 F3034 PHOENIX, AZ

2797 3647 MARISSA CARRANZA F 30 1:29:23 14:24 F3034 CHANDLER, AZ

2798 2856 REYNALDO CARRANZA M 65 1:29:24 14:24 M6569 YUMA, AZ

2799 6261 ROSE PROVENCIO F 47 1:29:24 14:24 F4549 ,

2800 2453 LINDA MAK F 60 1:29:30 14:25 F6064 TEMPE, AZ

2801 3552 TOMIKA KORNEGAY F 30 1:29:59 14:29 F3034 PHOENIX, AZ

2802 3648 RONALD CARRANZA M 31 1:30:16 14:32 M3034 CHANDLER, AZ

2803 6003 MARY HAHN F 52 1:30:16 14:32 F5054 ,

2804 2854 AMELIA CARRANZA F 57 1:30:16 14:32 F5559 YUMA, AZ

2805 3607 MELISSA WILLIAMS F 38 1:30:21 14:33 F3539 GILBERT, AZ

2806 3501 KAREN BANDURA F 45 1:30:22 14:33 F4549 GILBERT, AZ

2807 6456 EDWARDO SCATES M 64 1:30:46 14:37 M6064 ,

2808 6692 DIANNE MURPHY F 42 1:30:47 14:37 F4044 ,

2809 3998 DANNY STRUBLE M 59 1:31:37 14:45 M5559 SCOTTSDALE, AZ

2810 6172 KRIS BAXTER F 42 1:31:38 14:45 F4044 ,

2811 1553 JOHN GARCIA M 49 1:31:50 14:47 M4549 CHANDLER, AZ

2812 1554 TINA GARCIA F 45 1:31:50 14:47 F4549 CHANDLER, AZ

2813 141 JOHN SULLIVAN M 40 1:32:37 14:55 M4044 PHOENIX, AZ

2814 6112 KENDA JOHNSON F 34 1:33:41 15:05 F3034 ,

2815 3250 ANN PESCHKA F 61 1:34:10 15:10 F6064 CHANDLER, AZ

2816 3251 BILL PESCHKA M 58 1:34:11 15:10 M5559 CHANDLER, AZ

2817 2860 KAVITA CHANDAK F 32 1:35:37 15:24 F3034 SCOTTSDALE, AZ

2818 3080 MRINALINI KALE F 33 1:35:45 15:25 F3034 SCOTTSDALE, AZ

2819 1589 DENISE ENDOW F 49 1:36:10 15:29 F4549 CHANDLER, AZ

2820 2273 LISA SPRESNEY F 37 1:37:35 15:43 F3539 PHOENIX, CA

2821 3144 PAM MACKENTHUN F 41 1:37:35 15:43 F4044 GLENDALE, AZ

2822 401 MELINDA RAINES F 35 1:37:50 15:45 F3539 SCOTTSDALE, AZ

2823 400 HEATHER TOWNES F 30 1:37:51 15:45 F3034 GOODYEAR, AZ

2824 6543 RACHEL GRAHAM F 17 1:37:54 15:46 F1619 ,

2825 1403 ANNETTE NATALE F 60 1:37:54 15:46 F6064 SCOTTSDALE, AZ

2826 6542 MADISEN VOIGT F 11 1:37:55 15:46 F1115 ,

2827 1400 BEVERLY BILLINGTON F 59 1:37:57 15:46 F5559 GILBERT, AZ

2828 113 CHERYL CAGLE F 47 1:38:33 15:52 F4549 LAKESIDE, AZ

2829 2607 MEGHAN WILLNEFF F 22 1:39:55 16:05 F2024 PEORIA, AZ

2830 2423 LAURA ROSS F 44 1:39:55 16:05 F4044 PHOENIX, AZ

2831 1107 DEANNE BUTLER F 39 1:40:32 16:11 F3539 CHANDLER, AZ

2832 1568 CARRIE PHY F 35 1:40:32 16:11 F3539 TEMPE, AZ

2833 106 SUSAN ANDERSON F 38 1:46:50 17:12 F3539 PHOENIX, AZ

2834 105 DANA CHAMBERLIN F 26 1:46:51 17:12 F2529 GILBERT, AZ

2835 3420 JERRY VAN WEST M 43 1:50:05 17:43 M4044 CHANDLER, AZ

2836 3127 CHIA-LAN LI F 52 1:53:32 18:17 F5054 PHOENIX, AZ

2837 1726 WENDY YOUNG F 62 1:54:42 18:28 F6064 PHOENIX, AZ

2838 1727 LARRY YOUNG M 65 1:54:43 18:28 M6569 PHOENIX, AZ

  • Discuss

EVT Ice Bucket Challenge

The East Valley Tribune accepts the Ice Bucket Challenge.

Facebook

EastValleyTribune.com on Facebook

Twitter

EastValleyTribune.com on Twitter

Google+

EastValleyTribune.com on Google+

RSS

Subscribe to EastValleyTribune.com via RSS

RSS Feeds

Spacer4px
Your Az Jobs